<?xml version="1.0" encoding="ISO-8859-1" standalone="yes"?>
<gpx
  xmlns="http://www.topografix.com/GPX/1/1"
  version="1.1" creator="LoadMyTracks/073 http://www.cluetrust.com/LoadMyTracks.html"
  xmlns:xsi="http://www.w3.org/2001/XMLSchema-instance"
  xmlns:gpxdata="http://www.cluetrust.com/XML/GPXDATA/1/0"
  xmlns:geocache="http://www.groundspeak.com/cache/1/0"
  xsi:schemaLocation="http://www.topografix.com/GPX/1/1 http://www.topografix.com/GPX/1/1/gpx.xsd
http://www.cluetrust.com/XML/GPXDATA/1/0 http://www.cluetrust.com/Schemas/gpxdata10.xsd">
<trk>
<name>2010/7/28 8:45:3 GMT</name>
<trkseg>
	<trkpt lat="51.75268167" lon="-2.141535"><ele>249.000000</ele><time>2010-07-28T08:45:03Z</time></trkpt>
	<trkpt lat="51.75267333" lon="-2.141538333"><ele>248.000000</ele><time>2010-07-28T08:45:09Z</time></trkpt>
	<trkpt lat="51.752665" lon="-2.141525"><ele>248.000000</ele><time>2010-07-28T08:45:14Z</time></trkpt>
	<trkpt lat="51.75266667" lon="-2.141448333"><ele>260.000000</ele><time>2010-07-28T08:45:19Z</time></trkpt>
	<trkpt lat="51.75271" lon="-2.141436667"><ele>261.000000</ele><time>2010-07-28T08:45:24Z</time></trkpt>
	<trkpt lat="51.75265333" lon="-2.141473333"><ele>258.000000</ele><time>2010-07-28T08:45:29Z</time></trkpt>
	<trkpt lat="51.752605" lon="-2.141501667"><ele>256.000000</ele><time>2010-07-28T08:45:34Z</time></trkpt>
	<trkpt lat="51.75258333" lon="-2.141501667"><ele>257.000000</ele><time>2010-07-28T08:45:39Z</time></trkpt>
	<trkpt lat="51.75263667" lon="-2.14153"><ele>258.000000</ele><time>2010-07-28T08:45:44Z</time></trkpt>
	<trkpt lat="51.752675" lon="-2.141543333"><ele>259.000000</ele><time>2010-07-28T08:45:49Z</time></trkpt>
	<trkpt lat="51.75274333" lon="-2.14155"><ele>262.000000</ele><time>2010-07-28T08:45:54Z</time></trkpt>
	<trkpt lat="51.752665" lon="-2.141538333"><ele>265.000000</ele><time>2010-07-28T08:45:59Z</time></trkpt>
	<trkpt lat="51.75253833" lon="-2.141543333"><ele>261.000000</ele><time>2010-07-28T08:46:04Z</time></trkpt>
	<trkpt lat="51.752485" lon="-2.141525"><ele>264.000000</ele><time>2010-07-28T08:46:09Z</time></trkpt>
	<trkpt lat="51.75248167" lon="-2.141461667"><ele>264.000000</ele><time>2010-07-28T08:46:14Z</time></trkpt>
	<trkpt lat="51.75249833" lon="-2.141445"><ele>259.000000</ele><time>2010-07-28T08:46:20Z</time></trkpt>
	<trkpt lat="51.75249667" lon="-2.141388333"><ele>260.000000</ele><time>2010-07-28T08:46:25Z</time></trkpt>
	<trkpt lat="51.75249833" lon="-2.141358333"><ele>259.000000</ele><time>2010-07-28T08:46:30Z</time></trkpt>
	<trkpt lat="51.75250333" lon="-2.141358333"><ele>253.000000</ele><time>2010-07-28T08:46:35Z</time></trkpt>
	<trkpt lat="51.75250167" lon="-2.141348333"><ele>242.000000</ele><time>2010-07-28T08:46:40Z</time></trkpt>
	<trkpt lat="51.7525" lon="-2.141341667"><ele>240.000000</ele><time>2010-07-28T08:46:45Z</time></trkpt>
	<trkpt lat="51.75249333" lon="-2.141338333"><ele>239.000000</ele><time>2010-07-28T08:46:50Z</time></trkpt>
	<trkpt lat="51.75248667" lon="-2.141323333"><ele>240.000000</ele><time>2010-07-28T08:46:55Z</time></trkpt>
	<trkpt lat="51.7525" lon="-2.141328333"><ele>239.000000</ele><time>2010-07-28T08:47:00Z</time></trkpt>
	<trkpt lat="51.752515" lon="-2.14133"><ele>239.000000</ele><time>2010-07-28T08:47:06Z</time></trkpt>
	<trkpt lat="51.752525" lon="-2.141351667"><ele>238.000000</ele><time>2010-07-28T08:47:11Z</time></trkpt>
	<trkpt lat="51.752515" lon="-2.141358333"><ele>237.000000</ele><time>2010-07-28T08:47:17Z</time></trkpt>
	<trkpt lat="51.75249833" lon="-2.14133"><ele>232.000000</ele><time>2010-07-28T08:47:22Z</time></trkpt>
	<trkpt lat="51.75248667" lon="-2.141315"><ele>230.000000</ele><time>2010-07-28T08:47:28Z</time></trkpt>
	<trkpt lat="51.752495" lon="-2.141326667"><ele>235.000000</ele><time>2010-07-28T08:47:34Z</time></trkpt>
	<trkpt lat="51.75249833" lon="-2.14133"><ele>237.000000</ele><time>2010-07-28T08:47:39Z</time></trkpt>
	<trkpt lat="51.75250333" lon="-2.14134"><ele>241.000000</ele><time>2010-07-28T08:47:44Z</time></trkpt>
	<trkpt lat="51.75250667" lon="-2.14135"><ele>244.000000</ele><time>2010-07-28T08:47:50Z</time></trkpt>
	<trkpt lat="51.75251667" lon="-2.141363333"><ele>248.000000</ele><time>2010-07-28T08:47:56Z</time></trkpt>
	<trkpt lat="51.75252" lon="-2.141368333"><ele>248.000000</ele><time>2010-07-28T08:48:01Z</time></trkpt>
	<trkpt lat="51.75252167" lon="-2.141371667"><ele>249.000000</ele><time>2010-07-28T08:48:06Z</time></trkpt>
	<trkpt lat="51.75253667" lon="-2.1414"><ele>257.000000</ele><time>2010-07-28T08:48:11Z</time></trkpt>
	<trkpt lat="51.752545" lon="-2.14139"><ele>257.000000</ele><time>2010-07-28T08:48:16Z</time></trkpt>
	<trkpt lat="51.75253667" lon="-2.141411667"><ele>256.000000</ele><time>2010-07-28T08:48:21Z</time></trkpt>
	<trkpt lat="51.752535" lon="-2.141441667"><ele>259.000000</ele><time>2010-07-28T08:48:27Z</time></trkpt>
	<trkpt lat="51.75254333" lon="-2.141463333"><ele>263.000000</ele><time>2010-07-28T08:48:33Z</time></trkpt>
	<trkpt lat="51.75255333" lon="-2.1415"><ele>266.000000</ele><time>2010-07-28T08:48:38Z</time></trkpt>
	<trkpt lat="51.75256167" lon="-2.14151"><ele>270.000000</ele><time>2010-07-28T08:48:43Z</time></trkpt>
	<trkpt lat="51.75257167" lon="-2.141513333"><ele>272.000000</ele><time>2010-07-28T08:48:48Z</time></trkpt>
	<trkpt lat="51.75257167" lon="-2.14152"><ele>273.000000</ele><time>2010-07-28T08:48:53Z</time></trkpt>
	<trkpt lat="51.75258" lon="-2.141545"><ele>270.000000</ele><time>2010-07-28T08:48:59Z</time></trkpt>
	<trkpt lat="51.75259667" lon="-2.141558333"><ele>264.000000</ele><time>2010-07-28T08:49:05Z</time></trkpt>
	<trkpt lat="51.7526" lon="-2.141585"><ele>259.000000</ele><time>2010-07-28T08:49:10Z</time></trkpt>
	<trkpt lat="51.752625" lon="-2.141591667"><ele>258.000000</ele><time>2010-07-28T08:49:15Z</time></trkpt>
	<trkpt lat="51.752655" lon="-2.14159"><ele>259.000000</ele><time>2010-07-28T08:49:20Z</time></trkpt>
	<trkpt lat="51.75268167" lon="-2.141595"><ele>260.000000</ele><time>2010-07-28T08:49:25Z</time></trkpt>
	<trkpt lat="51.75270667" lon="-2.1416"><ele>260.000000</ele><time>2010-07-28T08:49:30Z</time></trkpt>
	<trkpt lat="51.752715" lon="-2.141601667"><ele>260.000000</ele><time>2010-07-28T08:49:35Z</time></trkpt>
	<trkpt lat="51.75269167" lon="-2.141605"><ele>260.000000</ele><time>2010-07-28T08:49:41Z</time></trkpt>
	<trkpt lat="51.75265833" lon="-2.14162"><ele>260.000000</ele><time>2010-07-28T08:49:47Z</time></trkpt>
	<trkpt lat="51.75264833" lon="-2.141623333"><ele>260.000000</ele><time>2010-07-28T08:49:52Z</time></trkpt>
	<trkpt lat="51.75263167" lon="-2.14163"><ele>259.000000</ele><time>2010-07-28T08:49:57Z</time></trkpt>
	<trkpt lat="51.75263167" lon="-2.141626667"><ele>259.000000</ele><time>2010-07-28T08:50:02Z</time></trkpt>
	<trkpt lat="51.75263333" lon="-2.141628333"><ele>258.000000</ele><time>2010-07-28T08:50:07Z</time></trkpt>
	<trkpt lat="51.75268" lon="-2.141625"><ele>259.000000</ele><time>2010-07-28T08:50:12Z</time></trkpt>
	<trkpt lat="51.75273833" lon="-2.141635"><ele>259.000000</ele><time>2010-07-28T08:50:17Z</time></trkpt>
	<trkpt lat="51.75279" lon="-2.141615"><ele>260.000000</ele><time>2010-07-28T08:50:22Z</time></trkpt>
	<trkpt lat="51.75283" lon="-2.141591667"><ele>261.000000</ele><time>2010-07-28T08:50:27Z</time></trkpt>
	<trkpt lat="51.75286167" lon="-2.141565"><ele>263.000000</ele><time>2010-07-28T08:50:32Z</time></trkpt>
	<trkpt lat="51.75290667" lon="-2.14153"><ele>264.000000</ele><time>2010-07-28T08:50:37Z</time></trkpt>
	<trkpt lat="51.75295333" lon="-2.141498333"><ele>263.000000</ele><time>2010-07-28T08:50:42Z</time></trkpt>
	<trkpt lat="51.753015" lon="-2.14147"><ele>262.000000</ele><time>2010-07-28T08:50:48Z</time></trkpt>
	<trkpt lat="51.75306333" lon="-2.141501667"><ele>262.000000</ele><time>2010-07-28T08:50:53Z</time></trkpt>
	<trkpt lat="51.75312" lon="-2.141565"><ele>260.000000</ele><time>2010-07-28T08:50:59Z</time></trkpt>
	<trkpt lat="51.75314" lon="-2.141628333"><ele>260.000000</ele><time>2010-07-28T08:51:04Z</time></trkpt>
	<trkpt lat="51.75314333" lon="-2.141668333"><ele>256.000000</ele><time>2010-07-28T08:51:09Z</time></trkpt>
	<trkpt lat="51.75315" lon="-2.141665"><ele>255.000000</ele><time>2010-07-28T08:51:14Z</time></trkpt>
	<trkpt lat="51.75315" lon="-2.141641667"><ele>253.000000</ele><time>2010-07-28T08:51:19Z</time></trkpt>
	<trkpt lat="51.75315833" lon="-2.141645"><ele>252.000000</ele><time>2010-07-28T08:51:24Z</time></trkpt>
	<trkpt lat="51.75318" lon="-2.141658333"><ele>254.000000</ele><time>2010-07-28T08:51:30Z</time></trkpt>
	<trkpt lat="51.753185" lon="-2.141663333"><ele>256.000000</ele><time>2010-07-28T08:51:35Z</time></trkpt>
	<trkpt lat="51.7532" lon="-2.14163"><ele>255.000000</ele><time>2010-07-28T08:51:40Z</time></trkpt>
	<trkpt lat="51.75306667" lon="-2.141846667"><ele>255.000000</ele><time>2010-07-28T08:52:17Z</time></trkpt>
	<trkpt lat="51.75306" lon="-2.141911667"><ele>248.000000</ele><time>2010-07-28T08:52:28Z</time></trkpt>
	<trkpt lat="51.753055" lon="-2.141886667"><ele>248.000000</ele><time>2010-07-28T08:52:34Z</time></trkpt>
	<trkpt lat="51.75305167" lon="-2.141856667"><ele>243.000000</ele><time>2010-07-28T08:52:41Z</time></trkpt>
	<trkpt lat="51.75308" lon="-2.141798333"><ele>238.000000</ele><time>2010-07-28T08:52:46Z</time></trkpt>
	<trkpt lat="51.75303833" lon="-2.14189"><ele>237.000000</ele><time>2010-07-28T08:52:51Z</time></trkpt>
	<trkpt lat="51.75307" lon="-2.141766667"><ele>249.000000</ele><time>2010-07-28T08:53:16Z</time></trkpt>
	<trkpt lat="51.75293333" lon="-2.14175"><ele>225.000000</ele><time>2010-07-28T08:54:19Z</time></trkpt>
	<trkpt lat="51.75307" lon="-2.141728333"><ele>238.000000</ele><time>2010-07-28T08:54:24Z</time></trkpt>
	<trkpt lat="51.75314667" lon="-2.141721667"><ele>245.000000</ele><time>2010-07-28T08:54:30Z</time></trkpt>
	<trkpt lat="51.753145" lon="-2.141713333"><ele>243.000000</ele><time>2010-07-28T08:54:35Z</time></trkpt>
	<trkpt lat="51.75314333" lon="-2.14171"><ele>244.000000</ele><time>2010-07-28T08:54:41Z</time></trkpt>
	<trkpt lat="51.75314" lon="-2.141728333"><ele>247.000000</ele><time>2010-07-28T08:54:46Z</time></trkpt>
	<trkpt lat="51.753135" lon="-2.141778333"><ele>252.000000</ele><time>2010-07-28T08:54:51Z</time></trkpt>
	<trkpt lat="51.75312833" lon="-2.141775"><ele>254.000000</ele><time>2010-07-28T08:54:56Z</time></trkpt>
	<trkpt lat="51.75311667" lon="-2.141723333"><ele>250.000000</ele><time>2010-07-28T08:55:01Z</time></trkpt>
	<trkpt lat="51.75312" lon="-2.141695"><ele>247.000000</ele><time>2010-07-28T08:55:06Z</time></trkpt>
	<trkpt lat="51.753135" lon="-2.141693333"><ele>246.000000</ele><time>2010-07-28T08:55:11Z</time></trkpt>
	<trkpt lat="51.753175" lon="-2.14172"><ele>245.000000</ele><time>2010-07-28T08:55:16Z</time></trkpt>
	<trkpt lat="51.75321667" lon="-2.141756667"><ele>246.000000</ele><time>2010-07-28T08:55:21Z</time></trkpt>
	<trkpt lat="51.75326" lon="-2.141796667"><ele>246.000000</ele><time>2010-07-28T08:55:27Z</time></trkpt>
	<trkpt lat="51.75330333" lon="-2.141815"><ele>245.000000</ele><time>2010-07-28T08:55:32Z</time></trkpt>
	<trkpt lat="51.753355" lon="-2.141801667"><ele>243.000000</ele><time>2010-07-28T08:55:37Z</time></trkpt>
	<trkpt lat="51.75339" lon="-2.141765"><ele>244.000000</ele><time>2010-07-28T08:55:42Z</time></trkpt>
	<trkpt lat="51.75341833" lon="-2.141695"><ele>243.000000</ele><time>2010-07-28T08:55:47Z</time></trkpt>
	<trkpt lat="51.75344333" lon="-2.141601667"><ele>243.000000</ele><time>2010-07-28T08:55:53Z</time></trkpt>
	<trkpt lat="51.75346833" lon="-2.141545"><ele>243.000000</ele><time>2010-07-28T08:55:58Z</time></trkpt>
	<trkpt lat="51.753485" lon="-2.1415"><ele>243.000000</ele><time>2010-07-28T08:56:03Z</time></trkpt>
	<trkpt lat="51.75349" lon="-2.141491667"><ele>244.000000</ele><time>2010-07-28T08:56:08Z</time></trkpt>
	<trkpt lat="51.75349167" lon="-2.14149"><ele>244.000000</ele><time>2010-07-28T08:56:13Z</time></trkpt>
	<trkpt lat="51.75349833" lon="-2.141468333"><ele>243.000000</ele><time>2010-07-28T08:56:18Z</time></trkpt>
	<trkpt lat="51.75348333" lon="-2.141456667"><ele>242.000000</ele><time>2010-07-28T08:56:24Z</time></trkpt>
	<trkpt lat="51.75347167" lon="-2.141458333"><ele>241.000000</ele><time>2010-07-28T08:56:29Z</time></trkpt>
	<trkpt lat="51.75344833" lon="-2.141458333"><ele>241.000000</ele><time>2010-07-28T08:56:34Z</time></trkpt>
	<trkpt lat="51.75347" lon="-2.141438333"><ele>241.000000</ele><time>2010-07-28T08:56:39Z</time></trkpt>
	<trkpt lat="51.75348167" lon="-2.14143"><ele>242.000000</ele><time>2010-07-28T08:56:44Z</time></trkpt>
	<trkpt lat="51.75347667" lon="-2.141421667"><ele>242.000000</ele><time>2010-07-28T08:56:49Z</time></trkpt>
	<trkpt lat="51.75348" lon="-2.141428333"><ele>241.000000</ele><time>2010-07-28T08:56:54Z</time></trkpt>
	<trkpt lat="51.753485" lon="-2.14143"><ele>241.000000</ele><time>2010-07-28T08:57:00Z</time></trkpt>
	<trkpt lat="51.75348333" lon="-2.141418333"><ele>241.000000</ele><time>2010-07-28T08:57:05Z</time></trkpt>
	<trkpt lat="51.75348" lon="-2.141416667"><ele>241.000000</ele><time>2010-07-28T08:57:10Z</time></trkpt>
	<trkpt lat="51.75348167" lon="-2.14142"><ele>242.000000</ele><time>2010-07-28T08:57:15Z</time></trkpt>
	<trkpt lat="51.75348333" lon="-2.141421667"><ele>242.000000</ele><time>2010-07-28T08:57:20Z</time></trkpt>
	<trkpt lat="51.75348333" lon="-2.141415"><ele>241.000000</ele><time>2010-07-28T08:57:25Z</time></trkpt>
	<trkpt lat="51.75348333" lon="-2.1414"><ele>239.000000</ele><time>2010-07-28T08:57:30Z</time></trkpt>
	<trkpt lat="51.75348" lon="-2.141391667"><ele>238.000000</ele><time>2010-07-28T08:57:35Z</time></trkpt>
	<trkpt lat="51.75348167" lon="-2.141386667"><ele>238.000000</ele><time>2010-07-28T08:57:40Z</time></trkpt>
	<trkpt lat="51.75348667" lon="-2.14141"><ele>239.000000</ele><time>2010-07-28T08:57:45Z</time></trkpt>
	<trkpt lat="51.75348" lon="-2.141416667"><ele>239.000000</ele><time>2010-07-28T08:57:50Z</time></trkpt>
	<trkpt lat="51.753485" lon="-2.141426667"><ele>239.000000</ele><time>2010-07-28T08:57:55Z</time></trkpt>
	<trkpt lat="51.753485" lon="-2.141438333"><ele>240.000000</ele><time>2010-07-28T08:58:00Z</time></trkpt>
	<trkpt lat="51.753485" lon="-2.14144"><ele>241.000000</ele><time>2010-07-28T08:58:06Z</time></trkpt>
	<trkpt lat="51.75347667" lon="-2.141445"><ele>241.000000</ele><time>2010-07-28T08:58:11Z</time></trkpt>
	<trkpt lat="51.75348" lon="-2.141453333"><ele>241.000000</ele><time>2010-07-28T08:58:16Z</time></trkpt>
	<trkpt lat="51.75347333" lon="-2.141448333"><ele>241.000000</ele><time>2010-07-28T08:58:21Z</time></trkpt>
	<trkpt lat="51.75346667" lon="-2.141438333"><ele>241.000000</ele><time>2010-07-28T08:58:27Z</time></trkpt>
	<trkpt lat="51.753465" lon="-2.14144"><ele>242.000000</ele><time>2010-07-28T08:58:32Z</time></trkpt>
	<trkpt lat="51.75346167" lon="-2.141445"><ele>242.000000</ele><time>2010-07-28T08:58:37Z</time></trkpt>
	<trkpt lat="51.75346" lon="-2.141443333"><ele>242.000000</ele><time>2010-07-28T08:58:42Z</time></trkpt>
	<trkpt lat="51.75346" lon="-2.141451667"><ele>244.000000</ele><time>2010-07-28T08:58:48Z</time></trkpt>
	<trkpt lat="51.75346" lon="-2.141473333"><ele>245.000000</ele><time>2010-07-28T08:58:53Z</time></trkpt>
	<trkpt lat="51.753435" lon="-2.141461667"><ele>246.000000</ele><time>2010-07-28T08:58:59Z</time></trkpt>
	<trkpt lat="51.75341333" lon="-2.141455"><ele>247.000000</ele><time>2010-07-28T08:59:04Z</time></trkpt>
	<trkpt lat="51.75341167" lon="-2.141455"><ele>247.000000</ele><time>2010-07-28T08:59:09Z</time></trkpt>
	<trkpt lat="51.75340833" lon="-2.141453333"><ele>247.000000</ele><time>2010-07-28T08:59:14Z</time></trkpt>
	<trkpt lat="51.75341" lon="-2.14145"><ele>246.000000</ele><time>2010-07-28T08:59:19Z</time></trkpt>
	<trkpt lat="51.753415" lon="-2.141455"><ele>247.000000</ele><time>2010-07-28T08:59:24Z</time></trkpt>
	<trkpt lat="51.75342833" lon="-2.141456667"><ele>247.000000</ele><time>2010-07-28T08:59:29Z</time></trkpt>
	<trkpt lat="51.75343" lon="-2.141458333"><ele>248.000000</ele><time>2010-07-28T08:59:34Z</time></trkpt>
	<trkpt lat="51.753435" lon="-2.141455"><ele>248.000000</ele><time>2010-07-28T08:59:40Z</time></trkpt>
	<trkpt lat="51.75343833" lon="-2.141451667"><ele>248.000000</ele><time>2010-07-28T08:59:45Z</time></trkpt>
	<trkpt lat="51.75344" lon="-2.141445"><ele>248.000000</ele><time>2010-07-28T08:59:50Z</time></trkpt>
	<trkpt lat="51.753435" lon="-2.141438333"><ele>248.000000</ele><time>2010-07-28T08:59:55Z</time></trkpt>
	<trkpt lat="51.753435" lon="-2.141436667"><ele>248.000000</ele><time>2010-07-28T09:00:01Z</time></trkpt>
	<trkpt lat="51.753435" lon="-2.14143"><ele>246.000000</ele><time>2010-07-28T09:00:06Z</time></trkpt>
	<trkpt lat="51.753435" lon="-2.141435"><ele>246.000000</ele><time>2010-07-28T09:00:11Z</time></trkpt>
	<trkpt lat="51.75344" lon="-2.14143"><ele>245.000000</ele><time>2010-07-28T09:00:16Z</time></trkpt>
	<trkpt lat="51.75344333" lon="-2.141425"><ele>245.000000</ele><time>2010-07-28T09:00:21Z</time></trkpt>
	<trkpt lat="51.75344333" lon="-2.141435"><ele>244.000000</ele><time>2010-07-28T09:00:26Z</time></trkpt>
	<trkpt lat="51.75345167" lon="-2.14143"><ele>244.000000</ele><time>2010-07-28T09:00:32Z</time></trkpt>
	<trkpt lat="51.753455" lon="-2.141421667"><ele>244.000000</ele><time>2010-07-28T09:00:37Z</time></trkpt>
	<trkpt lat="51.75345833" lon="-2.141413333"><ele>243.000000</ele><time>2010-07-28T09:00:42Z</time></trkpt>
	<trkpt lat="51.75346167" lon="-2.14141"><ele>243.000000</ele><time>2010-07-28T09:00:47Z</time></trkpt>
	<trkpt lat="51.753465" lon="-2.141405"><ele>243.000000</ele><time>2010-07-28T09:00:52Z</time></trkpt>
	<trkpt lat="51.75346167" lon="-2.141421667"><ele>243.000000</ele><time>2010-07-28T09:00:57Z</time></trkpt>
	<trkpt lat="51.75345667" lon="-2.141426667"><ele>244.000000</ele><time>2010-07-28T09:01:02Z</time></trkpt>
	<trkpt lat="51.75346" lon="-2.141421667"><ele>244.000000</ele><time>2010-07-28T09:01:08Z</time></trkpt>
	<trkpt lat="51.75346167" lon="-2.141415"><ele>244.000000</ele><time>2010-07-28T09:01:13Z</time></trkpt>
	<trkpt lat="51.75345667" lon="-2.141425"><ele>246.000000</ele><time>2010-07-28T09:01:19Z</time></trkpt>
	<trkpt lat="51.75345833" lon="-2.141418333"><ele>246.000000</ele><time>2010-07-28T09:01:24Z</time></trkpt>
	<trkpt lat="51.75345833" lon="-2.141415"><ele>243.000000</ele><time>2010-07-28T09:01:30Z</time></trkpt>
	<trkpt lat="51.75345667" lon="-2.14142"><ele>244.000000</ele><time>2010-07-28T09:01:35Z</time></trkpt>
	<trkpt lat="51.75344833" lon="-2.141441667"><ele>246.000000</ele><time>2010-07-28T09:01:41Z</time></trkpt>
	<trkpt lat="51.75345167" lon="-2.141436667"><ele>246.000000</ele><time>2010-07-28T09:01:46Z</time></trkpt>
	<trkpt lat="51.75345167" lon="-2.141436667"><ele>247.000000</ele><time>2010-07-28T09:01:51Z</time></trkpt>
	<trkpt lat="51.75345333" lon="-2.141436667"><ele>247.000000</ele><time>2010-07-28T09:01:56Z</time></trkpt>
	<trkpt lat="51.75345833" lon="-2.14143"><ele>247.000000</ele><time>2010-07-28T09:02:01Z</time></trkpt>
	<trkpt lat="51.75346333" lon="-2.141438333"><ele>246.000000</ele><time>2010-07-28T09:02:06Z</time></trkpt>
	<trkpt lat="51.75346333" lon="-2.141451667"><ele>246.000000</ele><time>2010-07-28T09:02:12Z</time></trkpt>
	<trkpt lat="51.75346167" lon="-2.141463333"><ele>246.000000</ele><time>2010-07-28T09:02:17Z</time></trkpt>
	<trkpt lat="51.75346" lon="-2.141471667"><ele>246.000000</ele><time>2010-07-28T09:02:22Z</time></trkpt>
	<trkpt lat="51.75345667" lon="-2.14147"><ele>245.000000</ele><time>2010-07-28T09:02:27Z</time></trkpt>
	<trkpt lat="51.75345667" lon="-2.14147"><ele>244.000000</ele><time>2010-07-28T09:02:32Z</time></trkpt>
	<trkpt lat="51.753465" lon="-2.141473333"><ele>245.000000</ele><time>2010-07-28T09:02:37Z</time></trkpt>
	<trkpt lat="51.75347167" lon="-2.141453333"><ele>245.000000</ele><time>2010-07-28T09:02:42Z</time></trkpt>
	<trkpt lat="51.75346" lon="-2.14145"><ele>245.000000</ele><time>2010-07-28T09:02:48Z</time></trkpt>
	<trkpt lat="51.75346" lon="-2.14145"><ele>246.000000</ele><time>2010-07-28T09:02:53Z</time></trkpt>
	<trkpt lat="51.753455" lon="-2.141456667"><ele>247.000000</ele><time>2010-07-28T09:02:58Z</time></trkpt>
	<trkpt lat="51.753455" lon="-2.141466667"><ele>250.000000</ele><time>2010-07-28T09:03:03Z</time></trkpt>
	<trkpt lat="51.75346" lon="-2.14149"><ele>252.000000</ele><time>2010-07-28T09:03:09Z</time></trkpt>
	<trkpt lat="51.75345167" lon="-2.14147"><ele>248.000000</ele><time>2010-07-28T09:03:15Z</time></trkpt>
	<trkpt lat="51.75344167" lon="-2.141453333"><ele>244.000000</ele><time>2010-07-28T09:03:20Z</time></trkpt>
	<trkpt lat="51.75343" lon="-2.141436667"><ele>240.000000</ele><time>2010-07-28T09:03:26Z</time></trkpt>
	<trkpt lat="51.75342" lon="-2.141428333"><ele>237.000000</ele><time>2010-07-28T09:03:31Z</time></trkpt>
	<trkpt lat="51.75342" lon="-2.141425"><ele>237.000000</ele><time>2010-07-28T09:03:36Z</time></trkpt>
	<trkpt lat="51.75342333" lon="-2.141421667"><ele>237.000000</ele><time>2010-07-28T09:03:42Z</time></trkpt>
	<trkpt lat="51.75341833" lon="-2.141433333"><ele>240.000000</ele><time>2010-07-28T09:03:47Z</time></trkpt>
	<trkpt lat="51.75342333" lon="-2.141445"><ele>241.000000</ele><time>2010-07-28T09:03:53Z</time></trkpt>
	<trkpt lat="51.75342833" lon="-2.141448333"><ele>241.000000</ele><time>2010-07-28T09:03:58Z</time></trkpt>
	<trkpt lat="51.75343333" lon="-2.141445"><ele>241.000000</ele><time>2010-07-28T09:04:03Z</time></trkpt>
	<trkpt lat="51.753435" lon="-2.141443333"><ele>241.000000</ele><time>2010-07-28T09:04:08Z</time></trkpt>
	<trkpt lat="51.75343333" lon="-2.141438333"><ele>240.000000</ele><time>2010-07-28T09:04:13Z</time></trkpt>
	<trkpt lat="51.753435" lon="-2.141436667"><ele>240.000000</ele><time>2010-07-28T09:04:18Z</time></trkpt>
	<trkpt lat="51.75343833" lon="-2.141435"><ele>239.000000</ele><time>2010-07-28T09:04:23Z</time></trkpt>
	<trkpt lat="51.753435" lon="-2.141425"><ele>239.000000</ele><time>2010-07-28T09:04:29Z</time></trkpt>
	<trkpt lat="51.75343167" lon="-2.14143"><ele>238.000000</ele><time>2010-07-28T09:04:34Z</time></trkpt>
	<trkpt lat="51.75343" lon="-2.141435"><ele>239.000000</ele><time>2010-07-28T09:04:39Z</time></trkpt>
	<trkpt lat="51.75343833" lon="-2.141425"><ele>237.000000</ele><time>2010-07-28T09:04:45Z</time></trkpt>
	<trkpt lat="51.75343833" lon="-2.14142"><ele>237.000000</ele><time>2010-07-28T09:04:50Z</time></trkpt>
	<trkpt lat="51.75344" lon="-2.141415"><ele>236.000000</ele><time>2010-07-28T09:04:55Z</time></trkpt>
	<trkpt lat="51.75344167" lon="-2.141413333"><ele>236.000000</ele><time>2010-07-28T09:05:00Z</time></trkpt>
	<trkpt lat="51.75344333" lon="-2.141411667"><ele>237.000000</ele><time>2010-07-28T09:05:05Z</time></trkpt>
	<trkpt lat="51.75344333" lon="-2.141406667"><ele>237.000000</ele><time>2010-07-28T09:05:10Z</time></trkpt>
	<trkpt lat="51.75344167" lon="-2.141406667"><ele>237.000000</ele><time>2010-07-28T09:05:15Z</time></trkpt>
	<trkpt lat="51.75343833" lon="-2.141415"><ele>237.000000</ele><time>2010-07-28T09:05:21Z</time></trkpt>
	<trkpt lat="51.75342833" lon="-2.141438333"><ele>238.000000</ele><time>2010-07-28T09:05:27Z</time></trkpt>
	<trkpt lat="51.75342" lon="-2.141445"><ele>237.000000</ele><time>2010-07-28T09:05:32Z</time></trkpt>
	<trkpt lat="51.75341667" lon="-2.141451667"><ele>237.000000</ele><time>2010-07-28T09:05:38Z</time></trkpt>
	<trkpt lat="51.75341333" lon="-2.141463333"><ele>239.000000</ele><time>2010-07-28T09:05:43Z</time></trkpt>
	<trkpt lat="51.75342" lon="-2.141458333"><ele>239.000000</ele><time>2010-07-28T09:05:48Z</time></trkpt>
	<trkpt lat="51.753435" lon="-2.141458333"><ele>240.000000</ele><time>2010-07-28T09:05:53Z</time></trkpt>
	<trkpt lat="51.75344667" lon="-2.14144"><ele>240.000000</ele><time>2010-07-28T09:05:58Z</time></trkpt>
	<trkpt lat="51.75345667" lon="-2.141425"><ele>240.000000</ele><time>2010-07-28T09:06:04Z</time></trkpt>
	<trkpt lat="51.75345167" lon="-2.14143"><ele>240.000000</ele><time>2010-07-28T09:06:09Z</time></trkpt>
	<trkpt lat="51.75344833" lon="-2.141436667"><ele>241.000000</ele><time>2010-07-28T09:06:14Z</time></trkpt>
	<trkpt lat="51.75344667" lon="-2.14144"><ele>242.000000</ele><time>2010-07-28T09:06:19Z</time></trkpt>
	<trkpt lat="51.75345167" lon="-2.141458333"><ele>244.000000</ele><time>2010-07-28T09:06:24Z</time></trkpt>
	<trkpt lat="51.75345833" lon="-2.141445"><ele>241.000000</ele><time>2010-07-28T09:06:30Z</time></trkpt>
	<trkpt lat="51.75348" lon="-2.14144"><ele>243.000000</ele><time>2010-07-28T09:06:35Z</time></trkpt>
	<trkpt lat="51.75348667" lon="-2.14145"><ele>243.000000</ele><time>2010-07-28T09:06:40Z</time></trkpt>
	<trkpt lat="51.75347667" lon="-2.141453333"><ele>243.000000</ele><time>2010-07-28T09:06:45Z</time></trkpt>
	<trkpt lat="51.75346833" lon="-2.141493333"><ele>243.000000</ele><time>2010-07-28T09:06:50Z</time></trkpt>
	<trkpt lat="51.75346667" lon="-2.14153"><ele>243.000000</ele><time>2010-07-28T09:06:55Z</time></trkpt>
	<trkpt lat="51.753455" lon="-2.141565"><ele>243.000000</ele><time>2010-07-28T09:07:00Z</time></trkpt>
	<trkpt lat="51.75345167" lon="-2.141596667"><ele>243.000000</ele><time>2010-07-28T09:07:05Z</time></trkpt>
	<trkpt lat="51.75342" lon="-2.141658333"><ele>244.000000</ele><time>2010-07-28T09:07:11Z</time></trkpt>
	<trkpt lat="51.75336667" lon="-2.14171"><ele>243.000000</ele><time>2010-07-28T09:07:16Z</time></trkpt>
	<trkpt lat="51.75332333" lon="-2.141746667"><ele>242.000000</ele><time>2010-07-28T09:07:21Z</time></trkpt>
	<trkpt lat="51.75328" lon="-2.14174"><ele>244.000000</ele><time>2010-07-28T09:07:26Z</time></trkpt>
	<trkpt lat="51.75324833" lon="-2.141701667"><ele>245.000000</ele><time>2010-07-28T09:07:31Z</time></trkpt>
	<trkpt lat="51.75321667" lon="-2.141648333"><ele>245.000000</ele><time>2010-07-28T09:07:36Z</time></trkpt>
	<trkpt lat="51.753195" lon="-2.141573333"><ele>245.000000</ele><time>2010-07-28T09:07:41Z</time></trkpt>
	<trkpt lat="51.75316833" lon="-2.141485"><ele>245.000000</ele><time>2010-07-28T09:07:47Z</time></trkpt>
	<trkpt lat="51.75314" lon="-2.141456667"><ele>248.000000</ele><time>2010-07-28T09:07:52Z</time></trkpt>
	<trkpt lat="51.75305167" lon="-2.141445"><ele>244.000000</ele><time>2010-07-28T09:07:58Z</time></trkpt>
	<trkpt lat="51.75298833" lon="-2.141451667"><ele>243.000000</ele><time>2010-07-28T09:08:03Z</time></trkpt>
	<trkpt lat="51.75290667" lon="-2.14143"><ele>243.000000</ele><time>2010-07-28T09:08:08Z</time></trkpt>
	<trkpt lat="51.75282" lon="-2.141435"><ele>242.000000</ele><time>2010-07-28T09:08:13Z</time></trkpt>
	<trkpt lat="51.75277833" lon="-2.141491667"><ele>241.000000</ele><time>2010-07-28T09:08:18Z</time></trkpt>
	<trkpt lat="51.75279667" lon="-2.141528333"><ele>242.000000</ele><time>2010-07-28T09:08:23Z</time></trkpt>
	<trkpt lat="51.75278667" lon="-2.141578333"><ele>241.000000</ele><time>2010-07-28T09:08:29Z</time></trkpt>
	<trkpt lat="51.752765" lon="-2.14161"><ele>239.000000</ele><time>2010-07-28T09:08:34Z</time></trkpt>
	<trkpt lat="51.75274" lon="-2.141621667"><ele>240.000000</ele><time>2010-07-28T09:08:39Z</time></trkpt>
	<trkpt lat="51.75273333" lon="-2.141636667"><ele>240.000000</ele><time>2010-07-28T09:08:45Z</time></trkpt>
	<trkpt lat="51.752725" lon="-2.14163"><ele>240.000000</ele><time>2010-07-28T09:08:51Z</time></trkpt>
	<trkpt lat="51.75273667" lon="-2.141628333"><ele>240.000000</ele><time>2010-07-28T09:08:56Z</time></trkpt>
	<trkpt lat="51.75273333" lon="-2.141621667"><ele>239.000000</ele><time>2010-07-28T09:09:02Z</time></trkpt>
	<trkpt lat="51.75273" lon="-2.141618333"><ele>235.000000</ele><time>2010-07-28T09:09:07Z</time></trkpt>
	<trkpt lat="51.75271833" lon="-2.141623333"><ele>235.000000</ele><time>2010-07-28T09:09:13Z</time></trkpt>
	<trkpt lat="51.75274" lon="-2.14163"><ele>237.000000</ele><time>2010-07-28T09:09:18Z</time></trkpt>
	<trkpt lat="51.75275" lon="-2.141628333"><ele>242.000000</ele><time>2010-07-28T09:09:24Z</time></trkpt>
	<trkpt lat="51.75275333" lon="-2.14163"><ele>244.000000</ele><time>2010-07-28T09:09:29Z</time></trkpt>
	<trkpt lat="51.75273" lon="-2.141638333"><ele>242.000000</ele><time>2010-07-28T09:09:35Z</time></trkpt>
	<trkpt lat="51.75272667" lon="-2.141645"><ele>240.000000</ele><time>2010-07-28T09:09:41Z</time></trkpt>
	<trkpt lat="51.75272667" lon="-2.14165"><ele>239.000000</ele><time>2010-07-28T09:09:46Z</time></trkpt>
	<trkpt lat="51.75272167" lon="-2.141646667"><ele>239.000000</ele><time>2010-07-28T09:09:51Z</time></trkpt>
	<trkpt lat="51.75272" lon="-2.141651667"><ele>238.000000</ele><time>2010-07-28T09:09:56Z</time></trkpt>
	<trkpt lat="51.752715" lon="-2.141648333"><ele>237.000000</ele><time>2010-07-28T09:10:02Z</time></trkpt>
	<trkpt lat="51.75271833" lon="-2.141646667"><ele>236.000000</ele><time>2010-07-28T09:10:07Z</time></trkpt>
	<trkpt lat="51.752715" lon="-2.141646667"><ele>236.000000</ele><time>2010-07-28T09:10:13Z</time></trkpt>
	<trkpt lat="51.75272167" lon="-2.141646667"><ele>236.000000</ele><time>2010-07-28T09:10:18Z</time></trkpt>
	<trkpt lat="51.75271833" lon="-2.141648333"><ele>235.000000</ele><time>2010-07-28T09:10:23Z</time></trkpt>
	<trkpt lat="51.75272333" lon="-2.141648333"><ele>235.000000</ele><time>2010-07-28T09:10:28Z</time></trkpt>
	<trkpt lat="51.752705" lon="-2.14163"><ele>235.000000</ele><time>2010-07-28T09:10:33Z</time></trkpt>
	<trkpt lat="51.75266" lon="-2.14161"><ele>235.000000</ele><time>2010-07-28T09:10:38Z</time></trkpt>
	<trkpt lat="51.75261" lon="-2.141573333"><ele>234.000000</ele><time>2010-07-28T09:10:43Z</time></trkpt>
	<trkpt lat="51.75256333" lon="-2.141526667"><ele>233.000000</ele><time>2010-07-28T09:10:48Z</time></trkpt>
	<trkpt lat="51.75256167" lon="-2.141513333"><ele>238.000000</ele><time>2010-07-28T09:10:53Z</time></trkpt>
	<trkpt lat="51.75252667" lon="-2.141511667"><ele>240.000000</ele><time>2010-07-28T09:10:58Z</time></trkpt>
	<trkpt lat="51.752455" lon="-2.141473333"><ele>240.000000</ele><time>2010-07-28T09:11:03Z</time></trkpt>
	<trkpt lat="51.75239667" lon="-2.141471667"><ele>241.000000</ele><time>2010-07-28T09:11:08Z</time></trkpt>
	<trkpt lat="51.75237333" lon="-2.141456667"><ele>244.000000</ele><time>2010-07-28T09:11:13Z</time></trkpt>
	<trkpt lat="51.75232333" lon="-2.141418333"><ele>245.000000</ele><time>2010-07-28T09:11:18Z</time></trkpt>
	<trkpt lat="51.75226167" lon="-2.141385"><ele>245.000000</ele><time>2010-07-28T09:11:23Z</time></trkpt>
	<trkpt lat="51.75223333" lon="-2.141365"><ele>246.000000</ele><time>2010-07-28T09:11:28Z</time></trkpt>
	<trkpt lat="51.75220167" lon="-2.141386667"><ele>246.000000</ele><time>2010-07-28T09:11:33Z</time></trkpt>
	<trkpt lat="51.75214333" lon="-2.141398333"><ele>242.000000</ele><time>2010-07-28T09:11:38Z</time></trkpt>
	<trkpt lat="51.75210333" lon="-2.141398333"><ele>239.000000</ele><time>2010-07-28T09:11:44Z</time></trkpt>
	<trkpt lat="51.75206167" lon="-2.141386667"><ele>238.000000</ele><time>2010-07-28T09:11:49Z</time></trkpt>
	<trkpt lat="51.75202167" lon="-2.141373333"><ele>238.000000</ele><time>2010-07-28T09:11:55Z</time></trkpt>
	<trkpt lat="51.75201833" lon="-2.141371667"><ele>240.000000</ele><time>2010-07-28T09:12:00Z</time></trkpt>
	<trkpt lat="51.75198333" lon="-2.14134"><ele>239.000000</ele><time>2010-07-28T09:12:05Z</time></trkpt>
	<trkpt lat="51.75197167" lon="-2.141323333"><ele>240.000000</ele><time>2010-07-28T09:12:10Z</time></trkpt>
	<trkpt lat="51.75195" lon="-2.141281667"><ele>242.000000</ele><time>2010-07-28T09:12:15Z</time></trkpt>
	<trkpt lat="51.751925" lon="-2.141261667"><ele>243.000000</ele><time>2010-07-28T09:12:20Z</time></trkpt>
	<trkpt lat="51.75189167" lon="-2.141216667"><ele>246.000000</ele><time>2010-07-28T09:12:25Z</time></trkpt>
	<trkpt lat="51.75185" lon="-2.141193333"><ele>247.000000</ele><time>2010-07-28T09:12:30Z</time></trkpt>
	<trkpt lat="51.75178833" lon="-2.141161667"><ele>244.000000</ele><time>2010-07-28T09:12:35Z</time></trkpt>
	<trkpt lat="51.75175333" lon="-2.141136667"><ele>242.000000</ele><time>2010-07-28T09:12:40Z</time></trkpt>
	<trkpt lat="51.75172667" lon="-2.141113333"><ele>244.000000</ele><time>2010-07-28T09:12:45Z</time></trkpt>
	<trkpt lat="51.75169167" lon="-2.141113333"><ele>245.000000</ele><time>2010-07-28T09:12:50Z</time></trkpt>
	<trkpt lat="51.75164167" lon="-2.141091667"><ele>249.000000</ele><time>2010-07-28T09:12:55Z</time></trkpt>
	<trkpt lat="51.75160833" lon="-2.141083333"><ele>252.000000</ele><time>2010-07-28T09:13:00Z</time></trkpt>
	<trkpt lat="51.75158667" lon="-2.141135"><ele>250.000000</ele><time>2010-07-28T09:13:05Z</time></trkpt>
	<trkpt lat="51.75155667" lon="-2.141148333"><ele>247.000000</ele><time>2010-07-28T09:13:10Z</time></trkpt>
	<trkpt lat="51.751515" lon="-2.141123333"><ele>245.000000</ele><time>2010-07-28T09:13:15Z</time></trkpt>
	<trkpt lat="51.75146833" lon="-2.141091667"><ele>242.000000</ele><time>2010-07-28T09:13:20Z</time></trkpt>
	<trkpt lat="51.75140333" lon="-2.141073333"><ele>242.000000</ele><time>2010-07-28T09:13:25Z</time></trkpt>
	<trkpt lat="51.75135" lon="-2.141043333"><ele>239.000000</ele><time>2010-07-28T09:13:30Z</time></trkpt>
	<trkpt lat="51.75132667" lon="-2.141028333"><ele>243.000000</ele><time>2010-07-28T09:13:35Z</time></trkpt>
	<trkpt lat="51.75130333" lon="-2.140996667"><ele>244.000000</ele><time>2010-07-28T09:13:40Z</time></trkpt>
	<trkpt lat="51.75126833" lon="-2.140965"><ele>244.000000</ele><time>2010-07-28T09:13:45Z</time></trkpt>
	<trkpt lat="51.75118333" lon="-2.140936667"><ele>239.000000</ele><time>2010-07-28T09:13:50Z</time></trkpt>
	<trkpt lat="51.75116833" lon="-2.140901667"><ele>238.000000</ele><time>2010-07-28T09:13:55Z</time></trkpt>
	<trkpt lat="51.75113667" lon="-2.14088"><ele>235.000000</ele><time>2010-07-28T09:14:00Z</time></trkpt>
	<trkpt lat="51.751085" lon="-2.140848333"><ele>233.000000</ele><time>2010-07-28T09:14:05Z</time></trkpt>
	<trkpt lat="51.75102667" lon="-2.140833333"><ele>229.000000</ele><time>2010-07-28T09:14:10Z</time></trkpt>
	<trkpt lat="51.75100167" lon="-2.140806667"><ele>225.000000</ele><time>2010-07-28T09:14:15Z</time></trkpt>
	<trkpt lat="51.75097333" lon="-2.140768333"><ele>224.000000</ele><time>2010-07-28T09:14:20Z</time></trkpt>
	<trkpt lat="51.75095667" lon="-2.140758333"><ele>225.000000</ele><time>2010-07-28T09:14:25Z</time></trkpt>
	<trkpt lat="51.75095" lon="-2.14075"><ele>227.000000</ele><time>2010-07-28T09:14:30Z</time></trkpt>
	<trkpt lat="51.75095667" lon="-2.140763333"><ele>228.000000</ele><time>2010-07-28T09:14:35Z</time></trkpt>
	<trkpt lat="51.75094167" lon="-2.140765"><ele>228.000000</ele><time>2010-07-28T09:14:40Z</time></trkpt>
	<trkpt lat="51.75092667" lon="-2.14076"><ele>226.000000</ele><time>2010-07-28T09:14:45Z</time></trkpt>
	<trkpt lat="51.750915" lon="-2.140741667"><ele>226.000000</ele><time>2010-07-28T09:14:50Z</time></trkpt>
	<trkpt lat="51.75089667" lon="-2.14076"><ele>222.000000</ele><time>2010-07-28T09:14:55Z</time></trkpt>
	<trkpt lat="51.75094167" lon="-2.140828333"><ele>222.000000</ele><time>2010-07-28T09:15:00Z</time></trkpt>
	<trkpt lat="51.75090167" lon="-2.140865"><ele>223.000000</ele><time>2010-07-28T09:15:05Z</time></trkpt>
	<trkpt lat="51.75082" lon="-2.140916667"><ele>224.000000</ele><time>2010-07-28T09:15:11Z</time></trkpt>
	<trkpt lat="51.75073" lon="-2.140936667"><ele>225.000000</ele><time>2010-07-28T09:15:16Z</time></trkpt>
	<trkpt lat="51.75066" lon="-2.140966667"><ele>225.000000</ele><time>2010-07-28T09:15:21Z</time></trkpt>
	<trkpt lat="51.75059667" lon="-2.141"><ele>224.000000</ele><time>2010-07-28T09:15:26Z</time></trkpt>
	<trkpt lat="51.75054" lon="-2.141028333"><ele>226.000000</ele><time>2010-07-28T09:15:31Z</time></trkpt>
	<trkpt lat="51.75047167" lon="-2.141033333"><ele>226.000000</ele><time>2010-07-28T09:15:36Z</time></trkpt>
	<trkpt lat="51.75040667" lon="-2.141035"><ele>227.000000</ele><time>2010-07-28T09:15:41Z</time></trkpt>
	<trkpt lat="51.75035" lon="-2.141045"><ele>227.000000</ele><time>2010-07-28T09:15:47Z</time></trkpt>
	<trkpt lat="51.75032833" lon="-2.141078333"><ele>229.000000</ele><time>2010-07-28T09:15:52Z</time></trkpt>
	<trkpt lat="51.7503" lon="-2.141138333"><ele>228.000000</ele><time>2010-07-28T09:15:58Z</time></trkpt>
	<trkpt lat="51.75029833" lon="-2.141125"><ele>231.000000</ele><time>2010-07-28T09:16:03Z</time></trkpt>
	<trkpt lat="51.75027333" lon="-2.141173333"><ele>231.000000</ele><time>2010-07-28T09:16:08Z</time></trkpt>
	<trkpt lat="51.75021667" lon="-2.14121"><ele>231.000000</ele><time>2010-07-28T09:16:14Z</time></trkpt>
	<trkpt lat="51.75014333" lon="-2.141215"><ele>231.000000</ele><time>2010-07-28T09:16:19Z</time></trkpt>
	<trkpt lat="51.75007833" lon="-2.141261667"><ele>228.000000</ele><time>2010-07-28T09:16:24Z</time></trkpt>
	<trkpt lat="51.75004" lon="-2.141273333"><ele>226.000000</ele><time>2010-07-28T09:16:29Z</time></trkpt>
	<trkpt lat="51.74999833" lon="-2.141305"><ele>223.000000</ele><time>2010-07-28T09:16:34Z</time></trkpt>
	<trkpt lat="51.74995833" lon="-2.141341667"><ele>224.000000</ele><time>2010-07-28T09:16:39Z</time></trkpt>
	<trkpt lat="51.74993333" lon="-2.14135"><ele>229.000000</ele><time>2010-07-28T09:16:44Z</time></trkpt>
	<trkpt lat="51.74987333" lon="-2.141381667"><ele>228.000000</ele><time>2010-07-28T09:16:49Z</time></trkpt>
	<trkpt lat="51.749785" lon="-2.141383333"><ele>225.000000</ele><time>2010-07-28T09:16:54Z</time></trkpt>
	<trkpt lat="51.749695" lon="-2.141393333"><ele>226.000000</ele><time>2010-07-28T09:16:59Z</time></trkpt>
	<trkpt lat="51.74961" lon="-2.141418333"><ele>225.000000</ele><time>2010-07-28T09:17:04Z</time></trkpt>
	<trkpt lat="51.749515" lon="-2.141426667"><ele>225.000000</ele><time>2010-07-28T09:17:09Z</time></trkpt>
	<trkpt lat="51.74943333" lon="-2.141461667"><ele>227.000000</ele><time>2010-07-28T09:17:14Z</time></trkpt>
	<trkpt lat="51.749385" lon="-2.141536667"><ele>226.000000</ele><time>2010-07-28T09:17:19Z</time></trkpt>
	<trkpt lat="51.74934" lon="-2.141606667"><ele>224.000000</ele><time>2010-07-28T09:17:24Z</time></trkpt>
	<trkpt lat="51.7493" lon="-2.141671667"><ele>223.000000</ele><time>2010-07-28T09:17:29Z</time></trkpt>
	<trkpt lat="51.74926667" lon="-2.14174"><ele>223.000000</ele><time>2010-07-28T09:17:34Z</time></trkpt>
	<trkpt lat="51.74922167" lon="-2.14179"><ele>223.000000</ele><time>2010-07-28T09:17:39Z</time></trkpt>
	<trkpt lat="51.74916333" lon="-2.141845"><ele>223.000000</ele><time>2010-07-28T09:17:45Z</time></trkpt>
	<trkpt lat="51.74911667" lon="-2.141883333"><ele>223.000000</ele><time>2010-07-28T09:17:50Z</time></trkpt>
	<trkpt lat="51.74908" lon="-2.141948333"><ele>221.000000</ele><time>2010-07-28T09:17:55Z</time></trkpt>
	<trkpt lat="51.74904833" lon="-2.142006667"><ele>222.000000</ele><time>2010-07-28T09:18:00Z</time></trkpt>
	<trkpt lat="51.749065" lon="-2.142091667"><ele>227.000000</ele><time>2010-07-28T09:18:05Z</time></trkpt>
	<trkpt lat="51.74905667" lon="-2.142211667"><ele>228.000000</ele><time>2010-07-28T09:18:11Z</time></trkpt>
	<trkpt lat="51.74897333" lon="-2.142278333"><ele>224.000000</ele><time>2010-07-28T09:18:16Z</time></trkpt>
	<trkpt lat="51.74892833" lon="-2.142363333"><ele>220.000000</ele><time>2010-07-28T09:18:21Z</time></trkpt>
	<trkpt lat="51.74888333" lon="-2.142435"><ele>219.000000</ele><time>2010-07-28T09:18:26Z</time></trkpt>
	<trkpt lat="51.74886333" lon="-2.142491667"><ele>220.000000</ele><time>2010-07-28T09:18:31Z</time></trkpt>
	<trkpt lat="51.74880167" lon="-2.142511667"><ele>221.000000</ele><time>2010-07-28T09:18:36Z</time></trkpt>
	<trkpt lat="51.74878167" lon="-2.142561667"><ele>220.000000</ele><time>2010-07-28T09:18:41Z</time></trkpt>
	<trkpt lat="51.74875667" lon="-2.1426"><ele>217.000000</ele><time>2010-07-28T09:18:47Z</time></trkpt>
	<trkpt lat="51.748725" lon="-2.1426"><ele>218.000000</ele><time>2010-07-28T09:18:52Z</time></trkpt>
	<trkpt lat="51.74867167" lon="-2.142576667"><ele>219.000000</ele><time>2010-07-28T09:18:57Z</time></trkpt>
	<trkpt lat="51.74867167" lon="-2.142576667"><ele>224.000000</ele><time>2010-07-28T09:19:02Z</time></trkpt>
	<trkpt lat="51.74861333" lon="-2.142608333"><ele>225.000000</ele><time>2010-07-28T09:19:07Z</time></trkpt>
	<trkpt lat="51.748585" lon="-2.142671667"><ele>225.000000</ele><time>2010-07-28T09:19:12Z</time></trkpt>
	<trkpt lat="51.74854833" lon="-2.142705"><ele>221.000000</ele><time>2010-07-28T09:19:18Z</time></trkpt>
	<trkpt lat="51.74849667" lon="-2.142711667"><ele>220.000000</ele><time>2010-07-28T09:19:23Z</time></trkpt>
	<trkpt lat="51.74844333" lon="-2.142723333"><ele>217.000000</ele><time>2010-07-28T09:19:28Z</time></trkpt>
	<trkpt lat="51.74838333" lon="-2.142695"><ele>214.000000</ele><time>2010-07-28T09:19:33Z</time></trkpt>
	<trkpt lat="51.74836333" lon="-2.142648333"><ele>211.000000</ele><time>2010-07-28T09:19:38Z</time></trkpt>
	<trkpt lat="51.74833667" lon="-2.142615"><ele>210.000000</ele><time>2010-07-28T09:19:43Z</time></trkpt>
	<trkpt lat="51.74831667" lon="-2.142568333"><ele>212.000000</ele><time>2010-07-28T09:19:48Z</time></trkpt>
	<trkpt lat="51.74827333" lon="-2.142536667"><ele>212.000000</ele><time>2010-07-28T09:19:53Z</time></trkpt>
	<trkpt lat="51.74822" lon="-2.142508333"><ele>209.000000</ele><time>2010-07-28T09:19:58Z</time></trkpt>
	<trkpt lat="51.74815833" lon="-2.142498333"><ele>206.000000</ele><time>2010-07-28T09:20:03Z</time></trkpt>
	<trkpt lat="51.74811833" lon="-2.142496667"><ele>203.000000</ele><time>2010-07-28T09:20:08Z</time></trkpt>
	<trkpt lat="51.74811167" lon="-2.1425"><ele>204.000000</ele><time>2010-07-28T09:20:13Z</time></trkpt>
	<trkpt lat="51.748095" lon="-2.142461667"><ele>206.000000</ele><time>2010-07-28T09:20:18Z</time></trkpt>
	<trkpt lat="51.74805667" lon="-2.142443333"><ele>210.000000</ele><time>2010-07-28T09:20:23Z</time></trkpt>
	<trkpt lat="51.74804667" lon="-2.142455"><ele>212.000000</ele><time>2010-07-28T09:20:28Z</time></trkpt>
	<trkpt lat="51.74798333" lon="-2.14246"><ele>212.000000</ele><time>2010-07-28T09:20:33Z</time></trkpt>
	<trkpt lat="51.747925" lon="-2.14248"><ele>212.000000</ele><time>2010-07-28T09:20:38Z</time></trkpt>
	<trkpt lat="51.74789167" lon="-2.142526667"><ele>210.000000</ele><time>2010-07-28T09:20:43Z</time></trkpt>
	<trkpt lat="51.7478" lon="-2.142536667"><ele>207.000000</ele><time>2010-07-28T09:20:48Z</time></trkpt>
	<trkpt lat="51.74776" lon="-2.14257"><ele>204.000000</ele><time>2010-07-28T09:20:53Z</time></trkpt>
	<trkpt lat="51.747705" lon="-2.142581667"><ele>208.000000</ele><time>2010-07-28T09:20:58Z</time></trkpt>
	<trkpt lat="51.74766667" lon="-2.142618333"><ele>207.000000</ele><time>2010-07-28T09:21:03Z</time></trkpt>
	<trkpt lat="51.747635" lon="-2.142681667"><ele>204.000000</ele><time>2010-07-28T09:21:08Z</time></trkpt>
	<trkpt lat="51.74764" lon="-2.142746667"><ele>201.000000</ele><time>2010-07-28T09:21:13Z</time></trkpt>
	<trkpt lat="51.74761" lon="-2.142806667"><ele>198.000000</ele><time>2010-07-28T09:21:18Z</time></trkpt>
	<trkpt lat="51.74760833" lon="-2.142903333"><ele>198.000000</ele><time>2010-07-28T09:21:24Z</time></trkpt>
	<trkpt lat="51.74761167" lon="-2.142965"><ele>196.000000</ele><time>2010-07-28T09:21:29Z</time></trkpt>
	<trkpt lat="51.74756333" lon="-2.142998333"><ele>191.000000</ele><time>2010-07-28T09:21:35Z</time></trkpt>
	<trkpt lat="51.747515" lon="-2.143018333"><ele>189.000000</ele><time>2010-07-28T09:21:40Z</time></trkpt>
	<trkpt lat="51.74747667" lon="-2.143056667"><ele>189.000000</ele><time>2010-07-28T09:21:45Z</time></trkpt>
	<trkpt lat="51.74739833" lon="-2.143051667"><ele>189.000000</ele><time>2010-07-28T09:21:50Z</time></trkpt>
	<trkpt lat="51.74735167" lon="-2.143053333"><ele>186.000000</ele><time>2010-07-28T09:21:55Z</time></trkpt>
	<trkpt lat="51.74733" lon="-2.143083333"><ele>187.000000</ele><time>2010-07-28T09:22:00Z</time></trkpt>
	<trkpt lat="51.74729833" lon="-2.143111667"><ele>186.000000</ele><time>2010-07-28T09:22:05Z</time></trkpt>
	<trkpt lat="51.74724333" lon="-2.143113333"><ele>183.000000</ele><time>2010-07-28T09:22:10Z</time></trkpt>
	<trkpt lat="51.747185" lon="-2.143141667"><ele>184.000000</ele><time>2010-07-28T09:22:15Z</time></trkpt>
	<trkpt lat="51.747145" lon="-2.14317"><ele>184.000000</ele><time>2010-07-28T09:22:20Z</time></trkpt>
	<trkpt lat="51.74709333" lon="-2.143185"><ele>182.000000</ele><time>2010-07-28T09:22:25Z</time></trkpt>
	<trkpt lat="51.747045" lon="-2.1432"><ele>183.000000</ele><time>2010-07-28T09:22:30Z</time></trkpt>
	<trkpt lat="51.74700333" lon="-2.143218333"><ele>184.000000</ele><time>2010-07-28T09:22:35Z</time></trkpt>
	<trkpt lat="51.74698333" lon="-2.143213333"><ele>184.000000</ele><time>2010-07-28T09:22:40Z</time></trkpt>
	<trkpt lat="51.74694333" lon="-2.1432"><ele>183.000000</ele><time>2010-07-28T09:22:45Z</time></trkpt>
	<trkpt lat="51.746915" lon="-2.14321"><ele>183.000000</ele><time>2010-07-28T09:22:50Z</time></trkpt>
	<trkpt lat="51.746855" lon="-2.143235"><ele>182.000000</ele><time>2010-07-28T09:22:55Z</time></trkpt>
	<trkpt lat="51.74680167" lon="-2.143281667"><ele>183.000000</ele><time>2010-07-28T09:23:00Z</time></trkpt>
	<trkpt lat="51.74676167" lon="-2.143326667"><ele>185.000000</ele><time>2010-07-28T09:23:06Z</time></trkpt>
	<trkpt lat="51.74669833" lon="-2.143366667"><ele>184.000000</ele><time>2010-07-28T09:23:11Z</time></trkpt>
	<trkpt lat="51.74664167" lon="-2.14341"><ele>183.000000</ele><time>2010-07-28T09:23:16Z</time></trkpt>
	<trkpt lat="51.74658333" lon="-2.143455"><ele>181.000000</ele><time>2010-07-28T09:23:21Z</time></trkpt>
	<trkpt lat="51.746525" lon="-2.143501667"><ele>179.000000</ele><time>2010-07-28T09:23:26Z</time></trkpt>
	<trkpt lat="51.74647167" lon="-2.143546667"><ele>177.000000</ele><time>2010-07-28T09:23:31Z</time></trkpt>
	<trkpt lat="51.746415" lon="-2.14359"><ele>177.000000</ele><time>2010-07-28T09:23:36Z</time></trkpt>
	<trkpt lat="51.74635667" lon="-2.143646667"><ele>177.000000</ele><time>2010-07-28T09:23:42Z</time></trkpt>
	<trkpt lat="51.74630333" lon="-2.143688333"><ele>177.000000</ele><time>2010-07-28T09:23:47Z</time></trkpt>
	<trkpt lat="51.74626333" lon="-2.143748333"><ele>178.000000</ele><time>2010-07-28T09:23:52Z</time></trkpt>
	<trkpt lat="51.74622667" lon="-2.143811667"><ele>179.000000</ele><time>2010-07-28T09:23:57Z</time></trkpt>
	<trkpt lat="51.74619167" lon="-2.14387"><ele>179.000000</ele><time>2010-07-28T09:24:02Z</time></trkpt>
	<trkpt lat="51.74614167" lon="-2.143928333"><ele>180.000000</ele><time>2010-07-28T09:24:08Z</time></trkpt>
	<trkpt lat="51.74609333" lon="-2.143983333"><ele>180.000000</ele><time>2010-07-28T09:24:14Z</time></trkpt>
	<trkpt lat="51.74605333" lon="-2.144025"><ele>181.000000</ele><time>2010-07-28T09:24:19Z</time></trkpt>
	<trkpt lat="51.74600833" lon="-2.144065"><ele>182.000000</ele><time>2010-07-28T09:24:25Z</time></trkpt>
	<trkpt lat="51.745975" lon="-2.144101667"><ele>182.000000</ele><time>2010-07-28T09:24:30Z</time></trkpt>
	<trkpt lat="51.74593333" lon="-2.144133333"><ele>183.000000</ele><time>2010-07-28T09:24:35Z</time></trkpt>
	<trkpt lat="51.74589333" lon="-2.144168333"><ele>184.000000</ele><time>2010-07-28T09:24:41Z</time></trkpt>
	<trkpt lat="51.74584833" lon="-2.144203333"><ele>185.000000</ele><time>2010-07-28T09:24:47Z</time></trkpt>
	<trkpt lat="51.74580333" lon="-2.144233333"><ele>186.000000</ele><time>2010-07-28T09:24:53Z</time></trkpt>
	<trkpt lat="51.74576667" lon="-2.14426"><ele>186.000000</ele><time>2010-07-28T09:24:58Z</time></trkpt>
	<trkpt lat="51.74572667" lon="-2.144283333"><ele>186.000000</ele><time>2010-07-28T09:25:03Z</time></trkpt>
	<trkpt lat="51.745685" lon="-2.144301667"><ele>187.000000</ele><time>2010-07-28T09:25:08Z</time></trkpt>
	<trkpt lat="51.74563667" lon="-2.144321667"><ele>187.000000</ele><time>2010-07-28T09:25:14Z</time></trkpt>
	<trkpt lat="51.74559667" lon="-2.144331667"><ele>188.000000</ele><time>2010-07-28T09:25:19Z</time></trkpt>
	<trkpt lat="51.74555833" lon="-2.144335"><ele>189.000000</ele><time>2010-07-28T09:25:24Z</time></trkpt>
	<trkpt lat="51.74551" lon="-2.144335"><ele>189.000000</ele><time>2010-07-28T09:25:30Z</time></trkpt>
	<trkpt lat="51.745475" lon="-2.144331667"><ele>190.000000</ele><time>2010-07-28T09:25:35Z</time></trkpt>
	<trkpt lat="51.74546" lon="-2.144326667"><ele>190.000000</ele><time>2010-07-28T09:25:40Z</time></trkpt>
	<trkpt lat="51.74551333" lon="-2.144336667"><ele>195.000000</ele><time>2010-07-28T09:25:45Z</time></trkpt>
	<trkpt lat="51.74553167" lon="-2.144335"><ele>197.000000</ele><time>2010-07-28T09:25:50Z</time></trkpt>
	<trkpt lat="51.74551167" lon="-2.144331667"><ele>196.000000</ele><time>2010-07-28T09:25:55Z</time></trkpt>
	<trkpt lat="51.74548667" lon="-2.144326667"><ele>196.000000</ele><time>2010-07-28T09:26:00Z</time></trkpt>
	<trkpt lat="51.74546833" lon="-2.144323333"><ele>195.000000</ele><time>2010-07-28T09:26:05Z</time></trkpt>
	<trkpt lat="51.74546833" lon="-2.144311667"><ele>197.000000</ele><time>2010-07-28T09:26:10Z</time></trkpt>
	<trkpt lat="51.74546167" lon="-2.144305"><ele>195.000000</ele><time>2010-07-28T09:26:15Z</time></trkpt>
	<trkpt lat="51.74543833" lon="-2.144296667"><ele>195.000000</ele><time>2010-07-28T09:26:20Z</time></trkpt>
	<trkpt lat="51.74539667" lon="-2.144298333"><ele>195.000000</ele><time>2010-07-28T09:26:25Z</time></trkpt>
	<trkpt lat="51.74537167" lon="-2.144316667"><ele>196.000000</ele><time>2010-07-28T09:26:30Z</time></trkpt>
	<trkpt lat="51.74535667" lon="-2.144321667"><ele>196.000000</ele><time>2010-07-28T09:26:35Z</time></trkpt>
	<trkpt lat="51.74533167" lon="-2.144326667"><ele>198.000000</ele><time>2010-07-28T09:26:40Z</time></trkpt>
	<trkpt lat="51.745265" lon="-2.144358333"><ele>199.000000</ele><time>2010-07-28T09:26:45Z</time></trkpt>
	<trkpt lat="51.74519667" lon="-2.144418333"><ele>197.000000</ele><time>2010-07-28T09:26:50Z</time></trkpt>
	<trkpt lat="51.74513167" lon="-2.144476667"><ele>196.000000</ele><time>2010-07-28T09:26:55Z</time></trkpt>
	<trkpt lat="51.74507833" lon="-2.144531667"><ele>196.000000</ele><time>2010-07-28T09:27:00Z</time></trkpt>
	<trkpt lat="51.745045" lon="-2.144588333"><ele>197.000000</ele><time>2010-07-28T09:27:05Z</time></trkpt>
	<trkpt lat="51.74498667" lon="-2.144635"><ele>198.000000</ele><time>2010-07-28T09:27:10Z</time></trkpt>
	<trkpt lat="51.74496667" lon="-2.144711667"><ele>200.000000</ele><time>2010-07-28T09:27:15Z</time></trkpt>
	<trkpt lat="51.74492833" lon="-2.144793333"><ele>199.000000</ele><time>2010-07-28T09:27:20Z</time></trkpt>
	<trkpt lat="51.74489167" lon="-2.144848333"><ele>199.000000</ele><time>2010-07-28T09:27:25Z</time></trkpt>
	<trkpt lat="51.74487333" lon="-2.144955"><ele>200.000000</ele><time>2010-07-28T09:27:31Z</time></trkpt>
	<trkpt lat="51.74482333" lon="-2.145026667"><ele>199.000000</ele><time>2010-07-28T09:27:36Z</time></trkpt>
	<trkpt lat="51.74478333" lon="-2.145088333"><ele>200.000000</ele><time>2010-07-28T09:27:41Z</time></trkpt>
	<trkpt lat="51.74478333" lon="-2.145165"><ele>202.000000</ele><time>2010-07-28T09:27:46Z</time></trkpt>
	<trkpt lat="51.74471" lon="-2.145191667"><ele>204.000000</ele><time>2010-07-28T09:27:51Z</time></trkpt>
	<trkpt lat="51.744645" lon="-2.145233333"><ele>206.000000</ele><time>2010-07-28T09:27:56Z</time></trkpt>
	<trkpt lat="51.74459" lon="-2.145308333"><ele>206.000000</ele><time>2010-07-28T09:28:01Z</time></trkpt>
	<trkpt lat="51.74457" lon="-2.145391667"><ele>206.000000</ele><time>2010-07-28T09:28:06Z</time></trkpt>
	<trkpt lat="51.74458833" lon="-2.145491667"><ele>208.000000</ele><time>2010-07-28T09:28:11Z</time></trkpt>
	<trkpt lat="51.74454" lon="-2.145553333"><ele>206.000000</ele><time>2010-07-28T09:28:16Z</time></trkpt>
	<trkpt lat="51.74449833" lon="-2.145623333"><ele>205.000000</ele><time>2010-07-28T09:28:21Z</time></trkpt>
	<trkpt lat="51.74444167" lon="-2.145653333"><ele>205.000000</ele><time>2010-07-28T09:28:26Z</time></trkpt>
	<trkpt lat="51.74438667" lon="-2.145701667"><ele>206.000000</ele><time>2010-07-28T09:28:31Z</time></trkpt>
	<trkpt lat="51.74433667" lon="-2.14575"><ele>207.000000</ele><time>2010-07-28T09:28:36Z</time></trkpt>
	<trkpt lat="51.74431333" lon="-2.145838333"><ele>209.000000</ele><time>2010-07-28T09:28:41Z</time></trkpt>
	<trkpt lat="51.74430667" lon="-2.145956667"><ele>211.000000</ele><time>2010-07-28T09:28:46Z</time></trkpt>
	<trkpt lat="51.744325" lon="-2.146056667"><ele>212.000000</ele><time>2010-07-28T09:28:51Z</time></trkpt>
	<trkpt lat="51.7443" lon="-2.146168333"><ele>210.000000</ele><time>2010-07-28T09:28:56Z</time></trkpt>
	<trkpt lat="51.74426333" lon="-2.146241667"><ele>207.000000</ele><time>2010-07-28T09:29:01Z</time></trkpt>
	<trkpt lat="51.74422833" lon="-2.146313333"><ele>206.000000</ele><time>2010-07-28T09:29:06Z</time></trkpt>
	<trkpt lat="51.74418667" lon="-2.146373333"><ele>206.000000</ele><time>2010-07-28T09:29:11Z</time></trkpt>
	<trkpt lat="51.74415167" lon="-2.146443333"><ele>205.000000</ele><time>2010-07-28T09:29:16Z</time></trkpt>
	<trkpt lat="51.744135" lon="-2.14651"><ele>206.000000</ele><time>2010-07-28T09:29:21Z</time></trkpt>
	<trkpt lat="51.74408667" lon="-2.14657"><ele>208.000000</ele><time>2010-07-28T09:29:27Z</time></trkpt>
	<trkpt lat="51.74405667" lon="-2.146635"><ele>209.000000</ele><time>2010-07-28T09:29:32Z</time></trkpt>
	<trkpt lat="51.744035" lon="-2.146708333"><ele>210.000000</ele><time>2010-07-28T09:29:37Z</time></trkpt>
	<trkpt lat="51.74398833" lon="-2.146771667"><ele>211.000000</ele><time>2010-07-28T09:29:42Z</time></trkpt>
	<trkpt lat="51.74393833" lon="-2.146816667"><ele>211.000000</ele><time>2010-07-28T09:29:47Z</time></trkpt>
	<trkpt lat="51.74389" lon="-2.146861667"><ele>211.000000</ele><time>2010-07-28T09:29:52Z</time></trkpt>
	<trkpt lat="51.74385333" lon="-2.146923333"><ele>211.000000</ele><time>2010-07-28T09:29:57Z</time></trkpt>
	<trkpt lat="51.74382667" lon="-2.146978333"><ele>210.000000</ele><time>2010-07-28T09:30:02Z</time></trkpt>
	<trkpt lat="51.74383" lon="-2.14699"><ele>210.000000</ele><time>2010-07-28T09:30:07Z</time></trkpt>
	<trkpt lat="51.74383333" lon="-2.147021667"><ele>208.000000</ele><time>2010-07-28T09:30:12Z</time></trkpt>
	<trkpt lat="51.74383333" lon="-2.147038333"><ele>208.000000</ele><time>2010-07-28T09:30:17Z</time></trkpt>
	<trkpt lat="51.74381333" lon="-2.147106667"><ele>209.000000</ele><time>2010-07-28T09:30:23Z</time></trkpt>
	<trkpt lat="51.74378667" lon="-2.14715"><ele>211.000000</ele><time>2010-07-28T09:30:28Z</time></trkpt>
	<trkpt lat="51.743735" lon="-2.14718"><ele>212.000000</ele><time>2010-07-28T09:30:33Z</time></trkpt>
	<trkpt lat="51.74371" lon="-2.147208333"><ele>213.000000</ele><time>2010-07-28T09:30:38Z</time></trkpt>
	<trkpt lat="51.743705" lon="-2.14723"><ele>213.000000</ele><time>2010-07-28T09:30:43Z</time></trkpt>
	<trkpt lat="51.74369333" lon="-2.14723"><ele>212.000000</ele><time>2010-07-28T09:30:48Z</time></trkpt>
	<trkpt lat="51.743695" lon="-2.147265"><ele>214.000000</ele><time>2010-07-28T09:30:53Z</time></trkpt>
	<trkpt lat="51.74370333" lon="-2.147278333"><ele>214.000000</ele><time>2010-07-28T09:30:58Z</time></trkpt>
	<trkpt lat="51.74370667" lon="-2.147285"><ele>214.000000</ele><time>2010-07-28T09:31:03Z</time></trkpt>
	<trkpt lat="51.743715" lon="-2.147291667"><ele>215.000000</ele><time>2010-07-28T09:31:09Z</time></trkpt>
	<trkpt lat="51.74370833" lon="-2.147276667"><ele>214.000000</ele><time>2010-07-28T09:31:14Z</time></trkpt>
	<trkpt lat="51.743715" lon="-2.14728"><ele>214.000000</ele><time>2010-07-28T09:31:19Z</time></trkpt>
	<trkpt lat="51.74371333" lon="-2.147286667"><ele>215.000000</ele><time>2010-07-28T09:31:25Z</time></trkpt>
	<trkpt lat="51.74371" lon="-2.147326667"><ele>215.000000</ele><time>2010-07-28T09:31:30Z</time></trkpt>
	<trkpt lat="51.743695" lon="-2.14737"><ele>215.000000</ele><time>2010-07-28T09:31:35Z</time></trkpt>
	<trkpt lat="51.743685" lon="-2.147413333"><ele>214.000000</ele><time>2010-07-28T09:31:40Z</time></trkpt>
	<trkpt lat="51.74367667" lon="-2.147471667"><ele>213.000000</ele><time>2010-07-28T09:31:45Z</time></trkpt>
	<trkpt lat="51.74367" lon="-2.147521667"><ele>213.000000</ele><time>2010-07-28T09:31:50Z</time></trkpt>
	<trkpt lat="51.74366833" lon="-2.147571667"><ele>213.000000</ele><time>2010-07-28T09:31:55Z</time></trkpt>
	<trkpt lat="51.743655" lon="-2.147633333"><ele>211.000000</ele><time>2010-07-28T09:32:00Z</time></trkpt>
	<trkpt lat="51.74364" lon="-2.147695"><ele>211.000000</ele><time>2010-07-28T09:32:05Z</time></trkpt>
	<trkpt lat="51.74361833" lon="-2.147743333"><ele>211.000000</ele><time>2010-07-28T09:32:10Z</time></trkpt>
	<trkpt lat="51.74360833" lon="-2.147813333"><ele>210.000000</ele><time>2010-07-28T09:32:15Z</time></trkpt>
	<trkpt lat="51.743585" lon="-2.147873333"><ele>209.000000</ele><time>2010-07-28T09:32:20Z</time></trkpt>
	<trkpt lat="51.74358" lon="-2.147908333"><ele>209.000000</ele><time>2010-07-28T09:32:25Z</time></trkpt>
	<trkpt lat="51.743565" lon="-2.147913333"><ele>207.000000</ele><time>2010-07-28T09:32:30Z</time></trkpt>
	<trkpt lat="51.74355667" lon="-2.147963333"><ele>207.000000</ele><time>2010-07-28T09:32:35Z</time></trkpt>
	<trkpt lat="51.74354167" lon="-2.148076667"><ele>210.000000</ele><time>2010-07-28T09:32:40Z</time></trkpt>
	<trkpt lat="51.743485" lon="-2.148136667"><ele>206.000000</ele><time>2010-07-28T09:32:45Z</time></trkpt>
	<trkpt lat="51.74346333" lon="-2.148218333"><ele>205.000000</ele><time>2010-07-28T09:32:50Z</time></trkpt>
	<trkpt lat="51.74345" lon="-2.14828"><ele>206.000000</ele><time>2010-07-28T09:32:55Z</time></trkpt>
	<trkpt lat="51.74342333" lon="-2.148316667"><ele>201.000000</ele><time>2010-07-28T09:33:00Z</time></trkpt>
	<trkpt lat="51.743385" lon="-2.148403333"><ele>204.000000</ele><time>2010-07-28T09:33:05Z</time></trkpt>
	<trkpt lat="51.74335167" lon="-2.148498333"><ele>206.000000</ele><time>2010-07-28T09:33:10Z</time></trkpt>
	<trkpt lat="51.74333833" lon="-2.148548333"><ele>204.000000</ele><time>2010-07-28T09:33:15Z</time></trkpt>
	<trkpt lat="51.743325" lon="-2.148608333"><ele>203.000000</ele><time>2010-07-28T09:33:20Z</time></trkpt>
	<trkpt lat="51.74329333" lon="-2.14868"><ele>205.000000</ele><time>2010-07-28T09:33:25Z</time></trkpt>
	<trkpt lat="51.74325833" lon="-2.148705"><ele>202.000000</ele><time>2010-07-28T09:33:30Z</time></trkpt>
	<trkpt lat="51.74322" lon="-2.148775"><ele>204.000000</ele><time>2010-07-28T09:33:35Z</time></trkpt>
	<trkpt lat="51.74318167" lon="-2.148855"><ele>208.000000</ele><time>2010-07-28T09:33:40Z</time></trkpt>
	<trkpt lat="51.743165" lon="-2.14892"><ele>209.000000</ele><time>2010-07-28T09:33:45Z</time></trkpt>
	<trkpt lat="51.74316667" lon="-2.14897"><ele>208.000000</ele><time>2010-07-28T09:33:50Z</time></trkpt>
	<trkpt lat="51.74317833" lon="-2.14905"><ele>207.000000</ele><time>2010-07-28T09:33:56Z</time></trkpt>
	<trkpt lat="51.74318333" lon="-2.149113333"><ele>206.000000</ele><time>2010-07-28T09:34:01Z</time></trkpt>
	<trkpt lat="51.74317667" lon="-2.149176667"><ele>205.000000</ele><time>2010-07-28T09:34:06Z</time></trkpt>
	<trkpt lat="51.74318667" lon="-2.149225"><ele>205.000000</ele><time>2010-07-28T09:34:11Z</time></trkpt>
	<trkpt lat="51.74316833" lon="-2.149275"><ele>204.000000</ele><time>2010-07-28T09:34:16Z</time></trkpt>
	<trkpt lat="51.74315667" lon="-2.149325"><ele>202.000000</ele><time>2010-07-28T09:34:21Z</time></trkpt>
	<trkpt lat="51.74313833" lon="-2.149391667"><ele>202.000000</ele><time>2010-07-28T09:34:27Z</time></trkpt>
	<trkpt lat="51.74312167" lon="-2.14946"><ele>202.000000</ele><time>2010-07-28T09:34:32Z</time></trkpt>
	<trkpt lat="51.74311167" lon="-2.149533333"><ele>203.000000</ele><time>2010-07-28T09:34:37Z</time></trkpt>
	<trkpt lat="51.74308667" lon="-2.149596667"><ele>202.000000</ele><time>2010-07-28T09:34:42Z</time></trkpt>
	<trkpt lat="51.74305667" lon="-2.149655"><ele>202.000000</ele><time>2010-07-28T09:34:47Z</time></trkpt>
	<trkpt lat="51.74303" lon="-2.149718333"><ele>202.000000</ele><time>2010-07-28T09:34:52Z</time></trkpt>
	<trkpt lat="51.74300333" lon="-2.149781667"><ele>203.000000</ele><time>2010-07-28T09:34:57Z</time></trkpt>
	<trkpt lat="51.74297" lon="-2.14984"><ele>203.000000</ele><time>2010-07-28T09:35:02Z</time></trkpt>
	<trkpt lat="51.74294333" lon="-2.149903333"><ele>204.000000</ele><time>2010-07-28T09:35:07Z</time></trkpt>
	<trkpt lat="51.74291667" lon="-2.149975"><ele>204.000000</ele><time>2010-07-28T09:35:12Z</time></trkpt>
	<trkpt lat="51.74288167" lon="-2.150033333"><ele>205.000000</ele><time>2010-07-28T09:35:17Z</time></trkpt>
	<trkpt lat="51.742865" lon="-2.150091667"><ele>209.000000</ele><time>2010-07-28T09:35:22Z</time></trkpt>
	<trkpt lat="51.74283167" lon="-2.150123333"><ele>209.000000</ele><time>2010-07-28T09:35:27Z</time></trkpt>
	<trkpt lat="51.74279833" lon="-2.150156667"><ele>208.000000</ele><time>2010-07-28T09:35:32Z</time></trkpt>
	<trkpt lat="51.74277833" lon="-2.150206667"><ele>207.000000</ele><time>2010-07-28T09:35:37Z</time></trkpt>
	<trkpt lat="51.74279167" lon="-2.150286667"><ele>205.000000</ele><time>2010-07-28T09:35:42Z</time></trkpt>
	<trkpt lat="51.74279833" lon="-2.150353333"><ele>204.000000</ele><time>2010-07-28T09:35:47Z</time></trkpt>
	<trkpt lat="51.742805" lon="-2.150446667"><ele>205.000000</ele><time>2010-07-28T09:35:52Z</time></trkpt>
	<trkpt lat="51.74279167" lon="-2.15052"><ele>204.000000</ele><time>2010-07-28T09:35:57Z</time></trkpt>
	<trkpt lat="51.74279" lon="-2.150598333"><ele>202.000000</ele><time>2010-07-28T09:36:03Z</time></trkpt>
	<trkpt lat="51.74278667" lon="-2.150655"><ele>201.000000</ele><time>2010-07-28T09:36:08Z</time></trkpt>
	<trkpt lat="51.74276833" lon="-2.150733333"><ele>202.000000</ele><time>2010-07-28T09:36:13Z</time></trkpt>
	<trkpt lat="51.74275667" lon="-2.150808333"><ele>203.000000</ele><time>2010-07-28T09:36:18Z</time></trkpt>
	<trkpt lat="51.742745" lon="-2.150891667"><ele>204.000000</ele><time>2010-07-28T09:36:23Z</time></trkpt>
	<trkpt lat="51.74274167" lon="-2.15098"><ele>204.000000</ele><time>2010-07-28T09:36:28Z</time></trkpt>
	<trkpt lat="51.74273667" lon="-2.151061667"><ele>205.000000</ele><time>2010-07-28T09:36:33Z</time></trkpt>
	<trkpt lat="51.74273333" lon="-2.151151667"><ele>205.000000</ele><time>2010-07-28T09:36:38Z</time></trkpt>
	<trkpt lat="51.742725" lon="-2.15124"><ele>205.000000</ele><time>2010-07-28T09:36:43Z</time></trkpt>
	<trkpt lat="51.74271833" lon="-2.151343333"><ele>203.000000</ele><time>2010-07-28T09:36:48Z</time></trkpt>
	<trkpt lat="51.74271" lon="-2.15141"><ele>201.000000</ele><time>2010-07-28T09:36:53Z</time></trkpt>
	<trkpt lat="51.74270333" lon="-2.151446667"><ele>200.000000</ele><time>2010-07-28T09:36:58Z</time></trkpt>
	<trkpt lat="51.74270333" lon="-2.151488333"><ele>200.000000</ele><time>2010-07-28T09:37:03Z</time></trkpt>
	<trkpt lat="51.742695" lon="-2.15157"><ele>200.000000</ele><time>2010-07-28T09:37:08Z</time></trkpt>
	<trkpt lat="51.74268667" lon="-2.151661667"><ele>200.000000</ele><time>2010-07-28T09:37:13Z</time></trkpt>
	<trkpt lat="51.74267333" lon="-2.151751667"><ele>200.000000</ele><time>2010-07-28T09:37:18Z</time></trkpt>
	<trkpt lat="51.74266167" lon="-2.151831667"><ele>199.000000</ele><time>2010-07-28T09:37:23Z</time></trkpt>
	<trkpt lat="51.74264333" lon="-2.151906667"><ele>199.000000</ele><time>2010-07-28T09:37:28Z</time></trkpt>
	<trkpt lat="51.742635" lon="-2.151986667"><ele>198.000000</ele><time>2010-07-28T09:37:33Z</time></trkpt>
	<trkpt lat="51.74261833" lon="-2.15205"><ele>198.000000</ele><time>2010-07-28T09:37:38Z</time></trkpt>
	<trkpt lat="51.74259833" lon="-2.152135"><ele>199.000000</ele><time>2010-07-28T09:37:43Z</time></trkpt>
	<trkpt lat="51.74257667" lon="-2.152221667"><ele>199.000000</ele><time>2010-07-28T09:37:48Z</time></trkpt>
	<trkpt lat="51.74255833" lon="-2.152303333"><ele>199.000000</ele><time>2010-07-28T09:37:53Z</time></trkpt>
	<trkpt lat="51.74253833" lon="-2.152381667"><ele>199.000000</ele><time>2010-07-28T09:37:58Z</time></trkpt>
	<trkpt lat="51.74252" lon="-2.152466667"><ele>199.000000</ele><time>2010-07-28T09:38:03Z</time></trkpt>
	<trkpt lat="51.74250167" lon="-2.15255"><ele>200.000000</ele><time>2010-07-28T09:38:08Z</time></trkpt>
	<trkpt lat="51.74248333" lon="-2.152631667"><ele>201.000000</ele><time>2010-07-28T09:38:13Z</time></trkpt>
	<trkpt lat="51.74246333" lon="-2.152715"><ele>201.000000</ele><time>2010-07-28T09:38:18Z</time></trkpt>
	<trkpt lat="51.74245333" lon="-2.152771667"><ele>201.000000</ele><time>2010-07-28T09:38:23Z</time></trkpt>
	<trkpt lat="51.74243333" lon="-2.152846667"><ele>202.000000</ele><time>2010-07-28T09:38:28Z</time></trkpt>
	<trkpt lat="51.74241333" lon="-2.152916667"><ele>203.000000</ele><time>2010-07-28T09:38:33Z</time></trkpt>
	<trkpt lat="51.74240667" lon="-2.15297"><ele>203.000000</ele><time>2010-07-28T09:38:38Z</time></trkpt>
	<trkpt lat="51.74239333" lon="-2.153031667"><ele>204.000000</ele><time>2010-07-28T09:38:43Z</time></trkpt>
	<trkpt lat="51.74238" lon="-2.153108333"><ele>205.000000</ele><time>2010-07-28T09:38:48Z</time></trkpt>
	<trkpt lat="51.74237" lon="-2.15318"><ele>206.000000</ele><time>2010-07-28T09:38:53Z</time></trkpt>
	<trkpt lat="51.74235667" lon="-2.153245"><ele>206.000000</ele><time>2010-07-28T09:38:58Z</time></trkpt>
	<trkpt lat="51.74233333" lon="-2.153286667"><ele>208.000000</ele><time>2010-07-28T09:39:03Z</time></trkpt>
	<trkpt lat="51.74231333" lon="-2.153336667"><ele>209.000000</ele><time>2010-07-28T09:39:08Z</time></trkpt>
	<trkpt lat="51.74229833" lon="-2.153388333"><ele>211.000000</ele><time>2010-07-28T09:39:13Z</time></trkpt>
	<trkpt lat="51.74227833" lon="-2.153443333"><ele>211.000000</ele><time>2010-07-28T09:39:18Z</time></trkpt>
	<trkpt lat="51.74226333" lon="-2.153511667"><ele>212.000000</ele><time>2010-07-28T09:39:23Z</time></trkpt>
	<trkpt lat="51.742245" lon="-2.153588333"><ele>212.000000</ele><time>2010-07-28T09:39:28Z</time></trkpt>
	<trkpt lat="51.74223" lon="-2.15367"><ele>212.000000</ele><time>2010-07-28T09:39:33Z</time></trkpt>
	<trkpt lat="51.7422" lon="-2.153743333"><ele>212.000000</ele><time>2010-07-28T09:39:38Z</time></trkpt>
	<trkpt lat="51.74216833" lon="-2.153815"><ele>212.000000</ele><time>2010-07-28T09:39:43Z</time></trkpt>
	<trkpt lat="51.74214" lon="-2.15389"><ele>213.000000</ele><time>2010-07-28T09:39:48Z</time></trkpt>
	<trkpt lat="51.74213333" lon="-2.153998333"><ele>211.000000</ele><time>2010-07-28T09:39:53Z</time></trkpt>
	<trkpt lat="51.74212167" lon="-2.15409"><ele>211.000000</ele><time>2010-07-28T09:39:58Z</time></trkpt>
	<trkpt lat="51.74210333" lon="-2.154171667"><ele>211.000000</ele><time>2010-07-28T09:40:03Z</time></trkpt>
	<trkpt lat="51.74208667" lon="-2.154258333"><ele>211.000000</ele><time>2010-07-28T09:40:08Z</time></trkpt>
	<trkpt lat="51.74206667" lon="-2.154343333"><ele>211.000000</ele><time>2010-07-28T09:40:13Z</time></trkpt>
	<trkpt lat="51.74204833" lon="-2.15443"><ele>211.000000</ele><time>2010-07-28T09:40:18Z</time></trkpt>
	<trkpt lat="51.74202833" lon="-2.154518333"><ele>211.000000</ele><time>2010-07-28T09:40:23Z</time></trkpt>
	<trkpt lat="51.742005" lon="-2.154601667"><ele>211.000000</ele><time>2010-07-28T09:40:28Z</time></trkpt>
	<trkpt lat="51.74198833" lon="-2.154691667"><ele>211.000000</ele><time>2010-07-28T09:40:33Z</time></trkpt>
	<trkpt lat="51.741965" lon="-2.154775"><ele>211.000000</ele><time>2010-07-28T09:40:38Z</time></trkpt>
	<trkpt lat="51.74195" lon="-2.15487"><ele>210.000000</ele><time>2010-07-28T09:40:43Z</time></trkpt>
	<trkpt lat="51.74192833" lon="-2.154958333"><ele>210.000000</ele><time>2010-07-28T09:40:48Z</time></trkpt>
	<trkpt lat="51.7419" lon="-2.155035"><ele>210.000000</ele><time>2010-07-28T09:40:53Z</time></trkpt>
	<trkpt lat="51.74187" lon="-2.155108333"><ele>210.000000</ele><time>2010-07-28T09:40:58Z</time></trkpt>
	<trkpt lat="51.741845" lon="-2.155188333"><ele>210.000000</ele><time>2010-07-28T09:41:03Z</time></trkpt>
	<trkpt lat="51.74181667" lon="-2.155266667"><ele>210.000000</ele><time>2010-07-28T09:41:08Z</time></trkpt>
	<trkpt lat="51.74178667" lon="-2.155336667"><ele>210.000000</ele><time>2010-07-28T09:41:13Z</time></trkpt>
	<trkpt lat="51.74175833" lon="-2.155411667"><ele>210.000000</ele><time>2010-07-28T09:41:18Z</time></trkpt>
	<trkpt lat="51.741725" lon="-2.155483333"><ele>210.000000</ele><time>2010-07-28T09:41:23Z</time></trkpt>
	<trkpt lat="51.741695" lon="-2.155555"><ele>210.000000</ele><time>2010-07-28T09:41:28Z</time></trkpt>
	<trkpt lat="51.74166167" lon="-2.155628333"><ele>210.000000</ele><time>2010-07-28T09:41:33Z</time></trkpt>
	<trkpt lat="51.74163833" lon="-2.155716667"><ele>209.000000</ele><time>2010-07-28T09:41:38Z</time></trkpt>
	<trkpt lat="51.74160833" lon="-2.155798333"><ele>209.000000</ele><time>2010-07-28T09:41:43Z</time></trkpt>
	<trkpt lat="51.741565" lon="-2.15586"><ele>209.000000</ele><time>2010-07-28T09:41:48Z</time></trkpt>
	<trkpt lat="51.74152167" lon="-2.155923333"><ele>209.000000</ele><time>2010-07-28T09:41:53Z</time></trkpt>
	<trkpt lat="51.74148" lon="-2.155983333"><ele>209.000000</ele><time>2010-07-28T09:41:58Z</time></trkpt>
	<trkpt lat="51.74143333" lon="-2.156033333"><ele>209.000000</ele><time>2010-07-28T09:42:03Z</time></trkpt>
	<trkpt lat="51.74139" lon="-2.156081667"><ele>209.000000</ele><time>2010-07-28T09:42:08Z</time></trkpt>
	<trkpt lat="51.74134667" lon="-2.156126667"><ele>210.000000</ele><time>2010-07-28T09:42:13Z</time></trkpt>
	<trkpt lat="51.7413" lon="-2.156175"><ele>210.000000</ele><time>2010-07-28T09:42:18Z</time></trkpt>
	<trkpt lat="51.74125333" lon="-2.15622"><ele>210.000000</ele><time>2010-07-28T09:42:23Z</time></trkpt>
	<trkpt lat="51.74120833" lon="-2.156266667"><ele>210.000000</ele><time>2010-07-28T09:42:28Z</time></trkpt>
	<trkpt lat="51.74116333" lon="-2.156306667"><ele>210.000000</ele><time>2010-07-28T09:42:33Z</time></trkpt>
	<trkpt lat="51.741115" lon="-2.156341667"><ele>210.000000</ele><time>2010-07-28T09:42:38Z</time></trkpt>
	<trkpt lat="51.74106333" lon="-2.156378333"><ele>210.000000</ele><time>2010-07-28T09:42:43Z</time></trkpt>
	<trkpt lat="51.74101333" lon="-2.156411667"><ele>210.000000</ele><time>2010-07-28T09:42:48Z</time></trkpt>
	<trkpt lat="51.74096333" lon="-2.15644"><ele>211.000000</ele><time>2010-07-28T09:42:53Z</time></trkpt>
	<trkpt lat="51.74091333" lon="-2.15647"><ele>211.000000</ele><time>2010-07-28T09:42:58Z</time></trkpt>
	<trkpt lat="51.74086333" lon="-2.156508333"><ele>211.000000</ele><time>2010-07-28T09:43:03Z</time></trkpt>
	<trkpt lat="51.74081333" lon="-2.156541667"><ele>211.000000</ele><time>2010-07-28T09:43:08Z</time></trkpt>
	<trkpt lat="51.74076833" lon="-2.15658"><ele>211.000000</ele><time>2010-07-28T09:43:13Z</time></trkpt>
	<trkpt lat="51.74072833" lon="-2.156613333"><ele>211.000000</ele><time>2010-07-28T09:43:18Z</time></trkpt>
	<trkpt lat="51.74068667" lon="-2.156653333"><ele>211.000000</ele><time>2010-07-28T09:43:23Z</time></trkpt>
	<trkpt lat="51.740665" lon="-2.156651667"><ele>210.000000</ele><time>2010-07-28T09:43:28Z</time></trkpt>
	<trkpt lat="51.74062667" lon="-2.156668333"><ele>210.000000</ele><time>2010-07-28T09:43:33Z</time></trkpt>
	<trkpt lat="51.74058167" lon="-2.156686667"><ele>210.000000</ele><time>2010-07-28T09:43:38Z</time></trkpt>
	<trkpt lat="51.74053" lon="-2.156713333"><ele>210.000000</ele><time>2010-07-28T09:43:43Z</time></trkpt>
	<trkpt lat="51.74047833" lon="-2.15674"><ele>210.000000</ele><time>2010-07-28T09:43:48Z</time></trkpt>
	<trkpt lat="51.74043333" lon="-2.156765"><ele>209.000000</ele><time>2010-07-28T09:43:53Z</time></trkpt>
	<trkpt lat="51.740385" lon="-2.156791667"><ele>210.000000</ele><time>2010-07-28T09:43:58Z</time></trkpt>
	<trkpt lat="51.74033167" lon="-2.156816667"><ele>209.000000</ele><time>2010-07-28T09:44:03Z</time></trkpt>
	<trkpt lat="51.74028333" lon="-2.156855"><ele>210.000000</ele><time>2010-07-28T09:44:08Z</time></trkpt>
	<trkpt lat="51.74023333" lon="-2.156886667"><ele>210.000000</ele><time>2010-07-28T09:44:13Z</time></trkpt>
	<trkpt lat="51.74019" lon="-2.156923333"><ele>210.000000</ele><time>2010-07-28T09:44:18Z</time></trkpt>
	<trkpt lat="51.740165" lon="-2.15697"><ele>210.000000</ele><time>2010-07-28T09:44:23Z</time></trkpt>
	<trkpt lat="51.74014833" lon="-2.157018333"><ele>210.000000</ele><time>2010-07-28T09:44:28Z</time></trkpt>
	<trkpt lat="51.74015" lon="-2.157023333"><ele>211.000000</ele><time>2010-07-28T09:44:33Z</time></trkpt>
	<trkpt lat="51.74014" lon="-2.157015"><ele>211.000000</ele><time>2010-07-28T09:44:38Z</time></trkpt>
	<trkpt lat="51.74011667" lon="-2.157021667"><ele>210.000000</ele><time>2010-07-28T09:44:43Z</time></trkpt>
	<trkpt lat="51.74011833" lon="-2.157021667"><ele>210.000000</ele><time>2010-07-28T09:44:48Z</time></trkpt>
	<trkpt lat="51.74012333" lon="-2.157016667"><ele>210.000000</ele><time>2010-07-28T09:44:53Z</time></trkpt>
	<trkpt lat="51.740125" lon="-2.157015"><ele>210.000000</ele><time>2010-07-28T09:44:58Z</time></trkpt>
	<trkpt lat="51.74012" lon="-2.157006667"><ele>210.000000</ele><time>2010-07-28T09:45:03Z</time></trkpt>
	<trkpt lat="51.740125" lon="-2.157005"><ele>210.000000</ele><time>2010-07-28T09:45:08Z</time></trkpt>
	<trkpt lat="51.740135" lon="-2.156995"><ele>212.000000</ele><time>2010-07-28T09:45:13Z</time></trkpt>
	<trkpt lat="51.74014" lon="-2.156998333"><ele>211.000000</ele><time>2010-07-28T09:45:18Z</time></trkpt>
	<trkpt lat="51.74014333" lon="-2.156995"><ele>211.000000</ele><time>2010-07-28T09:45:23Z</time></trkpt>
	<trkpt lat="51.740145" lon="-2.156993333"><ele>210.000000</ele><time>2010-07-28T09:45:28Z</time></trkpt>
	<trkpt lat="51.740145" lon="-2.156993333"><ele>210.000000</ele><time>2010-07-28T09:45:33Z</time></trkpt>
	<trkpt lat="51.74014" lon="-2.156991667"><ele>210.000000</ele><time>2010-07-28T09:45:38Z</time></trkpt>
	<trkpt lat="51.740145" lon="-2.156995"><ele>211.000000</ele><time>2010-07-28T09:45:43Z</time></trkpt>
	<trkpt lat="51.74014" lon="-2.156998333"><ele>211.000000</ele><time>2010-07-28T09:45:48Z</time></trkpt>
	<trkpt lat="51.74012167" lon="-2.156996667"><ele>211.000000</ele><time>2010-07-28T09:45:53Z</time></trkpt>
	<trkpt lat="51.74012167" lon="-2.157015"><ele>211.000000</ele><time>2010-07-28T09:45:58Z</time></trkpt>
	<trkpt lat="51.740125" lon="-2.157015"><ele>210.000000</ele><time>2010-07-28T09:46:03Z</time></trkpt>
	<trkpt lat="51.74012333" lon="-2.15702"><ele>209.000000</ele><time>2010-07-28T09:46:08Z</time></trkpt>
	<trkpt lat="51.74013" lon="-2.157025"><ele>208.000000</ele><time>2010-07-28T09:46:13Z</time></trkpt>
	<trkpt lat="51.740135" lon="-2.157045"><ele>209.000000</ele><time>2010-07-28T09:46:18Z</time></trkpt>
	<trkpt lat="51.74012167" lon="-2.157075"><ele>208.000000</ele><time>2010-07-28T09:46:23Z</time></trkpt>
	<trkpt lat="51.74010833" lon="-2.157083333"><ele>207.000000</ele><time>2010-07-28T09:46:28Z</time></trkpt>
	<trkpt lat="51.74010333" lon="-2.157083333"><ele>208.000000</ele><time>2010-07-28T09:46:33Z</time></trkpt>
	<trkpt lat="51.7401" lon="-2.157083333"><ele>208.000000</ele><time>2010-07-28T09:46:38Z</time></trkpt>
	<trkpt lat="51.74009667" lon="-2.157086667"><ele>208.000000</ele><time>2010-07-28T09:46:43Z</time></trkpt>
	<trkpt lat="51.740095" lon="-2.157086667"><ele>208.000000</ele><time>2010-07-28T09:46:48Z</time></trkpt>
	<trkpt lat="51.74007333" lon="-2.157096667"><ele>207.000000</ele><time>2010-07-28T09:46:53Z</time></trkpt>
	<trkpt lat="51.74004" lon="-2.157116667"><ele>206.000000</ele><time>2010-07-28T09:46:58Z</time></trkpt>
	<trkpt lat="51.74001167" lon="-2.157141667"><ele>205.000000</ele><time>2010-07-28T09:47:03Z</time></trkpt>
	<trkpt lat="51.73997667" lon="-2.157155"><ele>204.000000</ele><time>2010-07-28T09:47:08Z</time></trkpt>
	<trkpt lat="51.739935" lon="-2.157165"><ele>202.000000</ele><time>2010-07-28T09:47:13Z</time></trkpt>
	<trkpt lat="51.73989333" lon="-2.157183333"><ele>201.000000</ele><time>2010-07-28T09:47:18Z</time></trkpt>
	<trkpt lat="51.739845" lon="-2.157208333"><ele>200.000000</ele><time>2010-07-28T09:47:23Z</time></trkpt>
	<trkpt lat="51.73980333" lon="-2.157231667"><ele>199.000000</ele><time>2010-07-28T09:47:28Z</time></trkpt>
	<trkpt lat="51.73979667" lon="-2.157241667"><ele>199.000000</ele><time>2010-07-28T09:47:33Z</time></trkpt>
	<trkpt lat="51.73978" lon="-2.157255"><ele>199.000000</ele><time>2010-07-28T09:47:38Z</time></trkpt>
	<trkpt lat="51.73973833" lon="-2.157293333"><ele>198.000000</ele><time>2010-07-28T09:47:43Z</time></trkpt>
	<trkpt lat="51.739695" lon="-2.157323333"><ele>198.000000</ele><time>2010-07-28T09:47:48Z</time></trkpt>
	<trkpt lat="51.73965333" lon="-2.157358333"><ele>197.000000</ele><time>2010-07-28T09:47:53Z</time></trkpt>
	<trkpt lat="51.739615" lon="-2.15739"><ele>196.000000</ele><time>2010-07-28T09:47:58Z</time></trkpt>
	<trkpt lat="51.73958167" lon="-2.157411667"><ele>196.000000</ele><time>2010-07-28T09:48:03Z</time></trkpt>
	<trkpt lat="51.73954333" lon="-2.157438333"><ele>194.000000</ele><time>2010-07-28T09:48:08Z</time></trkpt>
	<trkpt lat="51.73948" lon="-2.157465"><ele>194.000000</ele><time>2010-07-28T09:48:13Z</time></trkpt>
	<trkpt lat="51.73944" lon="-2.157501667"><ele>191.000000</ele><time>2010-07-28T09:48:18Z</time></trkpt>
	<trkpt lat="51.73941167" lon="-2.157555"><ele>190.000000</ele><time>2010-07-28T09:48:23Z</time></trkpt>
	<trkpt lat="51.73938833" lon="-2.157601667"><ele>189.000000</ele><time>2010-07-28T09:48:28Z</time></trkpt>
	<trkpt lat="51.73936833" lon="-2.157666667"><ele>189.000000</ele><time>2010-07-28T09:48:33Z</time></trkpt>
	<trkpt lat="51.73937167" lon="-2.157726667"><ele>191.000000</ele><time>2010-07-28T09:48:38Z</time></trkpt>
	<trkpt lat="51.73935" lon="-2.157768333"><ele>193.000000</ele><time>2010-07-28T09:48:43Z</time></trkpt>
	<trkpt lat="51.7393" lon="-2.1578"><ele>194.000000</ele><time>2010-07-28T09:48:48Z</time></trkpt>
	<trkpt lat="51.73924667" lon="-2.157853333"><ele>195.000000</ele><time>2010-07-28T09:48:53Z</time></trkpt>
	<trkpt lat="51.73920667" lon="-2.157943333"><ele>194.000000</ele><time>2010-07-28T09:48:58Z</time></trkpt>
	<trkpt lat="51.73916167" lon="-2.158015"><ele>193.000000</ele><time>2010-07-28T09:49:03Z</time></trkpt>
	<trkpt lat="51.73914167" lon="-2.15808"><ele>194.000000</ele><time>2010-07-28T09:49:08Z</time></trkpt>
	<trkpt lat="51.73911833" lon="-2.15814"><ele>195.000000</ele><time>2010-07-28T09:49:13Z</time></trkpt>
	<trkpt lat="51.73908667" lon="-2.158185"><ele>196.000000</ele><time>2010-07-28T09:49:18Z</time></trkpt>
	<trkpt lat="51.73903667" lon="-2.15822"><ele>192.000000</ele><time>2010-07-28T09:49:23Z</time></trkpt>
	<trkpt lat="51.73900333" lon="-2.158233333"><ele>188.000000</ele><time>2010-07-28T09:49:28Z</time></trkpt>
	<trkpt lat="51.73894833" lon="-2.158248333"><ele>184.000000</ele><time>2010-07-28T09:49:33Z</time></trkpt>
	<trkpt lat="51.73888667" lon="-2.158268333"><ele>179.000000</ele><time>2010-07-28T09:49:38Z</time></trkpt>
	<trkpt lat="51.73881167" lon="-2.158296667"><ele>172.000000</ele><time>2010-07-28T09:49:43Z</time></trkpt>
	<trkpt lat="51.738745" lon="-2.158331667"><ele>167.000000</ele><time>2010-07-28T09:49:48Z</time></trkpt>
	<trkpt lat="51.73872333" lon="-2.158351667"><ele>164.000000</ele><time>2010-07-28T09:49:53Z</time></trkpt>
	<trkpt lat="51.73869333" lon="-2.158416667"><ele>169.000000</ele><time>2010-07-28T09:49:58Z</time></trkpt>
	<trkpt lat="51.73867167" lon="-2.158478333"><ele>175.000000</ele><time>2010-07-28T09:50:03Z</time></trkpt>
	<trkpt lat="51.73865167" lon="-2.15855"><ele>176.000000</ele><time>2010-07-28T09:50:08Z</time></trkpt>
	<trkpt lat="51.73863833" lon="-2.158631667"><ele>176.000000</ele><time>2010-07-28T09:50:13Z</time></trkpt>
	<trkpt lat="51.73859333" lon="-2.158685"><ele>176.000000</ele><time>2010-07-28T09:50:18Z</time></trkpt>
	<trkpt lat="51.73856667" lon="-2.158738333"><ele>177.000000</ele><time>2010-07-28T09:50:23Z</time></trkpt>
	<trkpt lat="51.73853667" lon="-2.158791667"><ele>178.000000</ele><time>2010-07-28T09:50:28Z</time></trkpt>
	<trkpt lat="51.73851667" lon="-2.158831667"><ele>179.000000</ele><time>2010-07-28T09:50:33Z</time></trkpt>
	<trkpt lat="51.73849667" lon="-2.158896667"><ele>179.000000</ele><time>2010-07-28T09:50:38Z</time></trkpt>
	<trkpt lat="51.73849667" lon="-2.158965"><ele>181.000000</ele><time>2010-07-28T09:50:43Z</time></trkpt>
	<trkpt lat="51.73848667" lon="-2.159038333"><ele>182.000000</ele><time>2010-07-28T09:50:48Z</time></trkpt>
	<trkpt lat="51.73847" lon="-2.159103333"><ele>182.000000</ele><time>2010-07-28T09:50:53Z</time></trkpt>
	<trkpt lat="51.73848" lon="-2.159166667"><ele>186.000000</ele><time>2010-07-28T09:50:58Z</time></trkpt>
	<trkpt lat="51.738475" lon="-2.159198333"><ele>186.000000</ele><time>2010-07-28T09:51:03Z</time></trkpt>
	<trkpt lat="51.73846167" lon="-2.159235"><ele>186.000000</ele><time>2010-07-28T09:51:09Z</time></trkpt>
	<trkpt lat="51.73845" lon="-2.159273333"><ele>186.000000</ele><time>2010-07-28T09:51:14Z</time></trkpt>
	<trkpt lat="51.73845" lon="-2.159271667"><ele>185.000000</ele><time>2010-07-28T09:51:19Z</time></trkpt>
	<trkpt lat="51.73843833" lon="-2.159305"><ele>188.000000</ele><time>2010-07-28T09:51:24Z</time></trkpt>
	<trkpt lat="51.73841167" lon="-2.159341667"><ele>189.000000</ele><time>2010-07-28T09:51:29Z</time></trkpt>
	<trkpt lat="51.73837" lon="-2.159366667"><ele>188.000000</ele><time>2010-07-28T09:51:34Z</time></trkpt>
	<trkpt lat="51.73832667" lon="-2.159395"><ele>188.000000</ele><time>2010-07-28T09:51:39Z</time></trkpt>
	<trkpt lat="51.738295" lon="-2.159445"><ele>189.000000</ele><time>2010-07-28T09:51:44Z</time></trkpt>
	<trkpt lat="51.73826333" lon="-2.159506667"><ele>190.000000</ele><time>2010-07-28T09:51:49Z</time></trkpt>
	<trkpt lat="51.73824167" lon="-2.15956"><ele>192.000000</ele><time>2010-07-28T09:51:54Z</time></trkpt>
	<trkpt lat="51.738225" lon="-2.159621667"><ele>193.000000</ele><time>2010-07-28T09:51:59Z</time></trkpt>
	<trkpt lat="51.73819167" lon="-2.159678333"><ele>195.000000</ele><time>2010-07-28T09:52:04Z</time></trkpt>
	<trkpt lat="51.73819667" lon="-2.15968"><ele>199.000000</ele><time>2010-07-28T09:52:09Z</time></trkpt>
	<trkpt lat="51.73820667" lon="-2.159685"><ele>201.000000</ele><time>2010-07-28T09:52:14Z</time></trkpt>
	<trkpt lat="51.7382" lon="-2.159705"><ele>199.000000</ele><time>2010-07-28T09:52:19Z</time></trkpt>
	<trkpt lat="51.7382" lon="-2.159698333"><ele>199.000000</ele><time>2010-07-28T09:52:24Z</time></trkpt>
	<trkpt lat="51.73818833" lon="-2.159671667"><ele>200.000000</ele><time>2010-07-28T09:52:29Z</time></trkpt>
	<trkpt lat="51.73817667" lon="-2.159651667"><ele>201.000000</ele><time>2010-07-28T09:52:34Z</time></trkpt>
	<trkpt lat="51.738165" lon="-2.159645"><ele>201.000000</ele><time>2010-07-28T09:52:39Z</time></trkpt>
	<trkpt lat="51.73816167" lon="-2.159645"><ele>201.000000</ele><time>2010-07-28T09:52:44Z</time></trkpt>
	<trkpt lat="51.73816167" lon="-2.159638333"><ele>202.000000</ele><time>2010-07-28T09:52:49Z</time></trkpt>
	<trkpt lat="51.73816" lon="-2.159633333"><ele>203.000000</ele><time>2010-07-28T09:52:54Z</time></trkpt>
	<trkpt lat="51.73816" lon="-2.159638333"><ele>203.000000</ele><time>2010-07-28T09:52:59Z</time></trkpt>
	<trkpt lat="51.73815" lon="-2.159655"><ele>202.000000</ele><time>2010-07-28T09:53:04Z</time></trkpt>
	<trkpt lat="51.73813833" lon="-2.159666667"><ele>201.000000</ele><time>2010-07-28T09:53:09Z</time></trkpt>
	<trkpt lat="51.73813167" lon="-2.159665"><ele>201.000000</ele><time>2010-07-28T09:53:14Z</time></trkpt>
	<trkpt lat="51.738135" lon="-2.159663333"><ele>202.000000</ele><time>2010-07-28T09:53:19Z</time></trkpt>
	<trkpt lat="51.73815167" lon="-2.159655"><ele>204.000000</ele><time>2010-07-28T09:53:24Z</time></trkpt>
	<trkpt lat="51.738165" lon="-2.159646667"><ele>205.000000</ele><time>2010-07-28T09:53:30Z</time></trkpt>
	<trkpt lat="51.73816833" lon="-2.159633333"><ele>206.000000</ele><time>2010-07-28T09:53:35Z</time></trkpt>
	<trkpt lat="51.73816833" lon="-2.159621667"><ele>205.000000</ele><time>2010-07-28T09:53:40Z</time></trkpt>
	<trkpt lat="51.73816667" lon="-2.159613333"><ele>205.000000</ele><time>2010-07-28T09:53:45Z</time></trkpt>
	<trkpt lat="51.738165" lon="-2.159608333"><ele>205.000000</ele><time>2010-07-28T09:53:50Z</time></trkpt>
	<trkpt lat="51.73816167" lon="-2.159608333"><ele>205.000000</ele><time>2010-07-28T09:53:55Z</time></trkpt>
	<trkpt lat="51.73814667" lon="-2.159623333"><ele>205.000000</ele><time>2010-07-28T09:54:00Z</time></trkpt>
	<trkpt lat="51.73815167" lon="-2.159638333"><ele>207.000000</ele><time>2010-07-28T09:54:06Z</time></trkpt>
	<trkpt lat="51.73816167" lon="-2.159633333"><ele>206.000000</ele><time>2010-07-28T09:54:11Z</time></trkpt>
	<trkpt lat="51.73816667" lon="-2.159628333"><ele>207.000000</ele><time>2010-07-28T09:54:16Z</time></trkpt>
	<trkpt lat="51.73816167" lon="-2.159636667"><ele>207.000000</ele><time>2010-07-28T09:54:21Z</time></trkpt>
	<trkpt lat="51.73815833" lon="-2.159643333"><ele>208.000000</ele><time>2010-07-28T09:54:26Z</time></trkpt>
	<trkpt lat="51.73816167" lon="-2.159641667"><ele>209.000000</ele><time>2010-07-28T09:54:31Z</time></trkpt>
	<trkpt lat="51.738165" lon="-2.159638333"><ele>209.000000</ele><time>2010-07-28T09:54:36Z</time></trkpt>
	<trkpt lat="51.73816667" lon="-2.159638333"><ele>210.000000</ele><time>2010-07-28T09:54:41Z</time></trkpt>
	<trkpt lat="51.73817" lon="-2.159638333"><ele>210.000000</ele><time>2010-07-28T09:54:46Z</time></trkpt>
	<trkpt lat="51.73817333" lon="-2.159638333"><ele>211.000000</ele><time>2010-07-28T09:54:51Z</time></trkpt>
	<trkpt lat="51.738175" lon="-2.159638333"><ele>211.000000</ele><time>2010-07-28T09:54:56Z</time></trkpt>
	<trkpt lat="51.73817667" lon="-2.159638333"><ele>211.000000</ele><time>2010-07-28T09:55:01Z</time></trkpt>
	<trkpt lat="51.73818" lon="-2.159638333"><ele>212.000000</ele><time>2010-07-28T09:55:06Z</time></trkpt>
	<trkpt lat="51.73818167" lon="-2.159636667"><ele>212.000000</ele><time>2010-07-28T09:55:11Z</time></trkpt>
	<trkpt lat="51.73818167" lon="-2.159636667"><ele>212.000000</ele><time>2010-07-28T09:55:16Z</time></trkpt>
	<trkpt lat="51.73817667" lon="-2.159635"><ele>211.000000</ele><time>2010-07-28T09:55:21Z</time></trkpt>
	<trkpt lat="51.73817667" lon="-2.159635"><ele>211.000000</ele><time>2010-07-28T09:55:26Z</time></trkpt>
	<trkpt lat="51.738175" lon="-2.159633333"><ele>211.000000</ele><time>2010-07-28T09:55:31Z</time></trkpt>
	<trkpt lat="51.73817333" lon="-2.159635"><ele>211.000000</ele><time>2010-07-28T09:55:36Z</time></trkpt>
	<trkpt lat="51.73817333" lon="-2.159635"><ele>211.000000</ele><time>2010-07-28T09:55:41Z</time></trkpt>
	<trkpt lat="51.73817333" lon="-2.159636667"><ele>211.000000</ele><time>2010-07-28T09:55:46Z</time></trkpt>
	<trkpt lat="51.73817333" lon="-2.159636667"><ele>211.000000</ele><time>2010-07-28T09:55:51Z</time></trkpt>
	<trkpt lat="51.738175" lon="-2.159636667"><ele>211.000000</ele><time>2010-07-28T09:55:56Z</time></trkpt>
	<trkpt lat="51.738175" lon="-2.159635"><ele>210.000000</ele><time>2010-07-28T09:56:01Z</time></trkpt>
	<trkpt lat="51.73817333" lon="-2.159633333"><ele>210.000000</ele><time>2010-07-28T09:56:06Z</time></trkpt>
	<trkpt lat="51.73817333" lon="-2.159633333"><ele>210.000000</ele><time>2010-07-28T09:56:11Z</time></trkpt>
	<trkpt lat="51.738155" lon="-2.159651667"><ele>210.000000</ele><time>2010-07-28T09:56:16Z</time></trkpt>
	<trkpt lat="51.73814" lon="-2.159673333"><ele>210.000000</ele><time>2010-07-28T09:56:21Z</time></trkpt>
	<trkpt lat="51.73813167" lon="-2.159681667"><ele>211.000000</ele><time>2010-07-28T09:56:26Z</time></trkpt>
	<trkpt lat="51.73812833" lon="-2.159683333"><ele>211.000000</ele><time>2010-07-28T09:56:31Z</time></trkpt>
	<trkpt lat="51.73813" lon="-2.159685"><ele>211.000000</ele><time>2010-07-28T09:56:36Z</time></trkpt>
	<trkpt lat="51.73813" lon="-2.159683333"><ele>211.000000</ele><time>2010-07-28T09:56:41Z</time></trkpt>
	<trkpt lat="51.73813167" lon="-2.159683333"><ele>211.000000</ele><time>2010-07-28T09:56:46Z</time></trkpt>
	<trkpt lat="51.738135" lon="-2.15968"><ele>211.000000</ele><time>2010-07-28T09:56:51Z</time></trkpt>
	<trkpt lat="51.73813833" lon="-2.159675"><ele>211.000000</ele><time>2010-07-28T09:56:56Z</time></trkpt>
	<trkpt lat="51.73814" lon="-2.159671667"><ele>210.000000</ele><time>2010-07-28T09:57:01Z</time></trkpt>
	<trkpt lat="51.73814333" lon="-2.159666667"><ele>210.000000</ele><time>2010-07-28T09:57:06Z</time></trkpt>
	<trkpt lat="51.738145" lon="-2.159661667"><ele>210.000000</ele><time>2010-07-28T09:57:11Z</time></trkpt>
	<trkpt lat="51.73814667" lon="-2.159656667"><ele>209.000000</ele><time>2010-07-28T09:57:16Z</time></trkpt>
	<trkpt lat="51.73814667" lon="-2.159651667"><ele>209.000000</ele><time>2010-07-28T09:57:21Z</time></trkpt>
	<trkpt lat="51.73815" lon="-2.15965"><ele>209.000000</ele><time>2010-07-28T09:57:26Z</time></trkpt>
	<trkpt lat="51.73815333" lon="-2.159646667"><ele>209.000000</ele><time>2010-07-28T09:57:31Z</time></trkpt>
	<trkpt lat="51.73815667" lon="-2.159643333"><ele>208.000000</ele><time>2010-07-28T09:57:36Z</time></trkpt>
	<trkpt lat="51.73815833" lon="-2.159638333"><ele>208.000000</ele><time>2010-07-28T09:57:41Z</time></trkpt>
	<trkpt lat="51.73816" lon="-2.159636667"><ele>208.000000</ele><time>2010-07-28T09:57:46Z</time></trkpt>
	<trkpt lat="51.73816167" lon="-2.159635"><ele>208.000000</ele><time>2010-07-28T09:57:51Z</time></trkpt>
	<trkpt lat="51.73816" lon="-2.159633333"><ele>207.000000</ele><time>2010-07-28T09:57:56Z</time></trkpt>
	<trkpt lat="51.73816" lon="-2.15963"><ele>207.000000</ele><time>2010-07-28T09:58:01Z</time></trkpt>
	<trkpt lat="51.73816167" lon="-2.159626667"><ele>206.000000</ele><time>2010-07-28T09:58:06Z</time></trkpt>
	<trkpt lat="51.738165" lon="-2.159626667"><ele>207.000000</ele><time>2010-07-28T09:58:12Z</time></trkpt>
	<trkpt lat="51.73817" lon="-2.159636667"><ele>209.000000</ele><time>2010-07-28T09:58:17Z</time></trkpt>
	<trkpt lat="51.73817" lon="-2.159643333"><ele>210.000000</ele><time>2010-07-28T09:58:22Z</time></trkpt>
	<trkpt lat="51.73816833" lon="-2.159641667"><ele>210.000000</ele><time>2010-07-28T09:58:27Z</time></trkpt>
	<trkpt lat="51.73816833" lon="-2.159641667"><ele>210.000000</ele><time>2010-07-28T09:58:32Z</time></trkpt>
	<trkpt lat="51.73816833" lon="-2.159641667"><ele>209.000000</ele><time>2010-07-28T09:58:37Z</time></trkpt>
	<trkpt lat="51.73816667" lon="-2.159643333"><ele>209.000000</ele><time>2010-07-28T09:58:42Z</time></trkpt>
	<trkpt lat="51.73816167" lon="-2.159645"><ele>209.000000</ele><time>2010-07-28T09:58:47Z</time></trkpt>
	<trkpt lat="51.73816167" lon="-2.159646667"><ele>209.000000</ele><time>2010-07-28T09:58:52Z</time></trkpt>
	<trkpt lat="51.738155" lon="-2.15965"><ele>209.000000</ele><time>2010-07-28T09:58:57Z</time></trkpt>
	<trkpt lat="51.73815333" lon="-2.15965"><ele>208.000000</ele><time>2010-07-28T09:59:02Z</time></trkpt>
	<trkpt lat="51.73815167" lon="-2.159651667"><ele>208.000000</ele><time>2010-07-28T09:59:07Z</time></trkpt>
	<trkpt lat="51.73814667" lon="-2.159651667"><ele>208.000000</ele><time>2010-07-28T09:59:12Z</time></trkpt>
	<trkpt lat="51.73814333" lon="-2.159655"><ele>207.000000</ele><time>2010-07-28T09:59:17Z</time></trkpt>
	<trkpt lat="51.738145" lon="-2.159656667"><ele>207.000000</ele><time>2010-07-28T09:59:22Z</time></trkpt>
	<trkpt lat="51.738145" lon="-2.159656667"><ele>208.000000</ele><time>2010-07-28T09:59:27Z</time></trkpt>
	<trkpt lat="51.73813833" lon="-2.159658333"><ele>207.000000</ele><time>2010-07-28T09:59:32Z</time></trkpt>
	<trkpt lat="51.73814333" lon="-2.15966"><ele>208.000000</ele><time>2010-07-28T09:59:37Z</time></trkpt>
	<trkpt lat="51.73814333" lon="-2.15966"><ele>208.000000</ele><time>2010-07-28T09:59:42Z</time></trkpt>
	<trkpt lat="51.73814333" lon="-2.159661667"><ele>208.000000</ele><time>2010-07-28T09:59:47Z</time></trkpt>
	<trkpt lat="51.73814667" lon="-2.159666667"><ele>209.000000</ele><time>2010-07-28T09:59:52Z</time></trkpt>
	<trkpt lat="51.73816167" lon="-2.15968"><ele>213.000000</ele><time>2010-07-28T09:59:57Z</time></trkpt>
	<trkpt lat="51.738165" lon="-2.159675"><ele>213.000000</ele><time>2010-07-28T10:00:03Z</time></trkpt>
	<trkpt lat="51.73814667" lon="-2.159688333"><ele>212.000000</ele><time>2010-07-28T10:00:08Z</time></trkpt>
	<trkpt lat="51.73814333" lon="-2.15969"><ele>212.000000</ele><time>2010-07-28T10:00:13Z</time></trkpt>
	<trkpt lat="51.73814" lon="-2.159688333"><ele>211.000000</ele><time>2010-07-28T10:00:18Z</time></trkpt>
	<trkpt lat="51.73814333" lon="-2.159683333"><ele>211.000000</ele><time>2010-07-28T10:00:23Z</time></trkpt>
	<trkpt lat="51.738145" lon="-2.159681667"><ele>211.000000</ele><time>2010-07-28T10:00:28Z</time></trkpt>
	<trkpt lat="51.73814667" lon="-2.159678333"><ele>211.000000</ele><time>2010-07-28T10:00:33Z</time></trkpt>
	<trkpt lat="51.73814667" lon="-2.159675"><ele>211.000000</ele><time>2010-07-28T10:00:38Z</time></trkpt>
	<trkpt lat="51.73815" lon="-2.159671667"><ele>210.000000</ele><time>2010-07-28T10:00:43Z</time></trkpt>
	<trkpt lat="51.73815" lon="-2.159666667"><ele>210.000000</ele><time>2010-07-28T10:00:48Z</time></trkpt>
	<trkpt lat="51.73815167" lon="-2.159663333"><ele>209.000000</ele><time>2010-07-28T10:00:53Z</time></trkpt>
	<trkpt lat="51.73815167" lon="-2.15966"><ele>209.000000</ele><time>2010-07-28T10:00:58Z</time></trkpt>
	<trkpt lat="51.73815167" lon="-2.159656667"><ele>208.000000</ele><time>2010-07-28T10:01:03Z</time></trkpt>
	<trkpt lat="51.73815167" lon="-2.159651667"><ele>208.000000</ele><time>2010-07-28T10:01:08Z</time></trkpt>
	<trkpt lat="51.73815167" lon="-2.15965"><ele>207.000000</ele><time>2010-07-28T10:01:13Z</time></trkpt>
	<trkpt lat="51.73815" lon="-2.159646667"><ele>207.000000</ele><time>2010-07-28T10:01:18Z</time></trkpt>
	<trkpt lat="51.73814667" lon="-2.159645"><ele>206.000000</ele><time>2010-07-28T10:01:23Z</time></trkpt>
	<trkpt lat="51.73815333" lon="-2.159643333"><ele>206.000000</ele><time>2010-07-28T10:01:28Z</time></trkpt>
	<trkpt lat="51.73815667" lon="-2.159638333"><ele>206.000000</ele><time>2010-07-28T10:01:33Z</time></trkpt>
	<trkpt lat="51.73815667" lon="-2.159638333"><ele>206.000000</ele><time>2010-07-28T10:01:38Z</time></trkpt>
	<trkpt lat="51.73815333" lon="-2.159638333"><ele>206.000000</ele><time>2010-07-28T10:01:43Z</time></trkpt>
	<trkpt lat="51.73815" lon="-2.159638333"><ele>206.000000</ele><time>2010-07-28T10:01:48Z</time></trkpt>
	<trkpt lat="51.73814667" lon="-2.159638333"><ele>206.000000</ele><time>2010-07-28T10:01:53Z</time></trkpt>
	<trkpt lat="51.73814667" lon="-2.159638333"><ele>206.000000</ele><time>2010-07-28T10:01:58Z</time></trkpt>
	<trkpt lat="51.73814667" lon="-2.159638333"><ele>207.000000</ele><time>2010-07-28T10:02:03Z</time></trkpt>
	<trkpt lat="51.73814667" lon="-2.159638333"><ele>206.000000</ele><time>2010-07-28T10:02:08Z</time></trkpt>
	<trkpt lat="51.73815667" lon="-2.159631667"><ele>206.000000</ele><time>2010-07-28T10:02:13Z</time></trkpt>
	<trkpt lat="51.73816167" lon="-2.159623333"><ele>206.000000</ele><time>2010-07-28T10:02:18Z</time></trkpt>
	<trkpt lat="51.73816833" lon="-2.159621667"><ele>206.000000</ele><time>2010-07-28T10:02:23Z</time></trkpt>
	<trkpt lat="51.73817" lon="-2.159621667"><ele>206.000000</ele><time>2010-07-28T10:02:28Z</time></trkpt>
	<trkpt lat="51.73817333" lon="-2.159623333"><ele>207.000000</ele><time>2010-07-28T10:02:33Z</time></trkpt>
	<trkpt lat="51.738175" lon="-2.159623333"><ele>207.000000</ele><time>2010-07-28T10:02:38Z</time></trkpt>
	<trkpt lat="51.738175" lon="-2.159626667"><ele>207.000000</ele><time>2010-07-28T10:02:43Z</time></trkpt>
	<trkpt lat="51.738175" lon="-2.159628333"><ele>207.000000</ele><time>2010-07-28T10:02:48Z</time></trkpt>
	<trkpt lat="51.73817333" lon="-2.15963"><ele>207.000000</ele><time>2010-07-28T10:02:53Z</time></trkpt>
	<trkpt lat="51.73817333" lon="-2.159631667"><ele>207.000000</ele><time>2010-07-28T10:02:58Z</time></trkpt>
	<trkpt lat="51.738175" lon="-2.159631667"><ele>207.000000</ele><time>2010-07-28T10:03:03Z</time></trkpt>
	<trkpt lat="51.738175" lon="-2.159631667"><ele>207.000000</ele><time>2010-07-28T10:03:08Z</time></trkpt>
	<trkpt lat="51.73817667" lon="-2.159631667"><ele>207.000000</ele><time>2010-07-28T10:03:13Z</time></trkpt>
	<trkpt lat="51.73817667" lon="-2.159631667"><ele>207.000000</ele><time>2010-07-28T10:03:18Z</time></trkpt>
	<trkpt lat="51.73817667" lon="-2.15963"><ele>207.000000</ele><time>2010-07-28T10:03:23Z</time></trkpt>
	<trkpt lat="51.73818" lon="-2.15963"><ele>207.000000</ele><time>2010-07-28T10:03:28Z</time></trkpt>
	<trkpt lat="51.73818" lon="-2.15963"><ele>207.000000</ele><time>2010-07-28T10:03:33Z</time></trkpt>
	<trkpt lat="51.73818167" lon="-2.15963"><ele>207.000000</ele><time>2010-07-28T10:03:38Z</time></trkpt>
	<trkpt lat="51.73818" lon="-2.15963"><ele>207.000000</ele><time>2010-07-28T10:03:43Z</time></trkpt>
	<trkpt lat="51.73818" lon="-2.15963"><ele>207.000000</ele><time>2010-07-28T10:03:48Z</time></trkpt>
	<trkpt lat="51.73817667" lon="-2.15963"><ele>207.000000</ele><time>2010-07-28T10:03:53Z</time></trkpt>
	<trkpt lat="51.73817667" lon="-2.15963"><ele>206.000000</ele><time>2010-07-28T10:03:58Z</time></trkpt>
	<trkpt lat="51.73817667" lon="-2.15963"><ele>206.000000</ele><time>2010-07-28T10:04:03Z</time></trkpt>
	<trkpt lat="51.73817667" lon="-2.159628333"><ele>206.000000</ele><time>2010-07-28T10:04:08Z</time></trkpt>
	<trkpt lat="51.73818" lon="-2.159623333"><ele>206.000000</ele><time>2010-07-28T10:04:13Z</time></trkpt>
	<trkpt lat="51.73818" lon="-2.159623333"><ele>206.000000</ele><time>2010-07-28T10:04:18Z</time></trkpt>
	<trkpt lat="51.738185" lon="-2.15962"><ele>206.000000</ele><time>2010-07-28T10:04:23Z</time></trkpt>
	<trkpt lat="51.738185" lon="-2.159621667"><ele>206.000000</ele><time>2010-07-28T10:04:28Z</time></trkpt>
	<trkpt lat="51.73818167" lon="-2.159623333"><ele>206.000000</ele><time>2010-07-28T10:04:33Z</time></trkpt>
	<trkpt lat="51.738195" lon="-2.159623333"><ele>208.000000</ele><time>2010-07-28T10:04:39Z</time></trkpt>
	<trkpt lat="51.73820167" lon="-2.159623333"><ele>208.000000</ele><time>2010-07-28T10:04:44Z</time></trkpt>
	<trkpt lat="51.73820667" lon="-2.159621667"><ele>209.000000</ele><time>2010-07-28T10:04:49Z</time></trkpt>
	<trkpt lat="51.73821167" lon="-2.159618333"><ele>209.000000</ele><time>2010-07-28T10:04:54Z</time></trkpt>
	<trkpt lat="51.73820333" lon="-2.159623333"><ele>209.000000</ele><time>2010-07-28T10:04:59Z</time></trkpt>
	<trkpt lat="51.73819667" lon="-2.159623333"><ele>209.000000</ele><time>2010-07-28T10:05:04Z</time></trkpt>
	<trkpt lat="51.73819167" lon="-2.159626667"><ele>208.000000</ele><time>2010-07-28T10:05:09Z</time></trkpt>
	<trkpt lat="51.73818833" lon="-2.159626667"><ele>208.000000</ele><time>2010-07-28T10:05:14Z</time></trkpt>
	<trkpt lat="51.738185" lon="-2.159626667"><ele>208.000000</ele><time>2010-07-28T10:05:19Z</time></trkpt>
	<trkpt lat="51.73818333" lon="-2.159626667"><ele>208.000000</ele><time>2010-07-28T10:05:24Z</time></trkpt>
	<trkpt lat="51.73818167" lon="-2.159628333"><ele>207.000000</ele><time>2010-07-28T10:05:29Z</time></trkpt>
	<trkpt lat="51.73818167" lon="-2.159628333"><ele>207.000000</ele><time>2010-07-28T10:05:34Z</time></trkpt>
	<trkpt lat="51.73818" lon="-2.159628333"><ele>207.000000</ele><time>2010-07-28T10:05:39Z</time></trkpt>
	<trkpt lat="51.73818" lon="-2.159628333"><ele>207.000000</ele><time>2010-07-28T10:05:44Z</time></trkpt>
	<trkpt lat="51.73818" lon="-2.159628333"><ele>207.000000</ele><time>2010-07-28T10:05:49Z</time></trkpt>
	<trkpt lat="51.73818" lon="-2.159628333"><ele>207.000000</ele><time>2010-07-28T10:05:54Z</time></trkpt>
	<trkpt lat="51.73818" lon="-2.15963"><ele>207.000000</ele><time>2010-07-28T10:05:59Z</time></trkpt>
	<trkpt lat="51.73818" lon="-2.15963"><ele>207.000000</ele><time>2010-07-28T10:06:05Z</time></trkpt>
	<trkpt lat="51.73818" lon="-2.15963"><ele>207.000000</ele><time>2010-07-28T10:06:10Z</time></trkpt>
	<trkpt lat="51.73818" lon="-2.159631667"><ele>207.000000</ele><time>2010-07-28T10:06:15Z</time></trkpt>
	<trkpt lat="51.73818" lon="-2.159631667"><ele>207.000000</ele><time>2010-07-28T10:06:20Z</time></trkpt>
	<trkpt lat="51.73818" lon="-2.159631667"><ele>207.000000</ele><time>2010-07-28T10:06:25Z</time></trkpt>
	<trkpt lat="51.73818" lon="-2.159631667"><ele>207.000000</ele><time>2010-07-28T10:06:30Z</time></trkpt>
	<trkpt lat="51.73818" lon="-2.159631667"><ele>207.000000</ele><time>2010-07-28T10:06:35Z</time></trkpt>
	<trkpt lat="51.73817667" lon="-2.159631667"><ele>207.000000</ele><time>2010-07-28T10:06:40Z</time></trkpt>
	<trkpt lat="51.73817667" lon="-2.159633333"><ele>207.000000</ele><time>2010-07-28T10:06:45Z</time></trkpt>
	<trkpt lat="51.73817667" lon="-2.159633333"><ele>207.000000</ele><time>2010-07-28T10:06:50Z</time></trkpt>
	<trkpt lat="51.73817667" lon="-2.159633333"><ele>207.000000</ele><time>2010-07-28T10:06:55Z</time></trkpt>
	<trkpt lat="51.73817667" lon="-2.159633333"><ele>207.000000</ele><time>2010-07-28T10:07:00Z</time></trkpt>
	<trkpt lat="51.73817167" lon="-2.159638333"><ele>206.000000</ele><time>2010-07-28T10:07:05Z</time></trkpt>
	<trkpt lat="51.73816167" lon="-2.159643333"><ele>205.000000</ele><time>2010-07-28T10:07:10Z</time></trkpt>
	<trkpt lat="51.73815167" lon="-2.159646667"><ele>203.000000</ele><time>2010-07-28T10:07:15Z</time></trkpt>
	<trkpt lat="51.73814333" lon="-2.15965"><ele>202.000000</ele><time>2010-07-28T10:07:20Z</time></trkpt>
	<trkpt lat="51.73814167" lon="-2.159651667"><ele>202.000000</ele><time>2010-07-28T10:07:25Z</time></trkpt>
	<trkpt lat="51.73814167" lon="-2.159651667"><ele>203.000000</ele><time>2010-07-28T10:07:30Z</time></trkpt>
	<trkpt lat="51.73814167" lon="-2.159651667"><ele>202.000000</ele><time>2010-07-28T10:07:36Z</time></trkpt>
	<trkpt lat="51.73813833" lon="-2.159651667"><ele>202.000000</ele><time>2010-07-28T10:07:41Z</time></trkpt>
	<trkpt lat="51.73813667" lon="-2.159655"><ele>202.000000</ele><time>2010-07-28T10:07:46Z</time></trkpt>
	<trkpt lat="51.73813667" lon="-2.159655"><ele>202.000000</ele><time>2010-07-28T10:07:51Z</time></trkpt>
	<trkpt lat="51.73813667" lon="-2.159655"><ele>202.000000</ele><time>2010-07-28T10:07:56Z</time></trkpt>
	<trkpt lat="51.73813667" lon="-2.159665"><ele>203.000000</ele><time>2010-07-28T10:08:02Z</time></trkpt>
	<trkpt lat="51.73814167" lon="-2.15967"><ele>203.000000</ele><time>2010-07-28T10:08:07Z</time></trkpt>
	<trkpt lat="51.73814" lon="-2.159666667"><ele>203.000000</ele><time>2010-07-28T10:08:12Z</time></trkpt>
	<trkpt lat="51.738135" lon="-2.15967"><ele>204.000000</ele><time>2010-07-28T10:08:17Z</time></trkpt>
	<trkpt lat="51.73810167" lon="-2.159685"><ele>205.000000</ele><time>2010-07-28T10:08:22Z</time></trkpt>
	<trkpt lat="51.73808" lon="-2.159688333"><ele>206.000000</ele><time>2010-07-28T10:08:27Z</time></trkpt>
	<trkpt lat="51.73807167" lon="-2.159673333"><ele>209.000000</ele><time>2010-07-28T10:08:32Z</time></trkpt>
	<trkpt lat="51.73808667" lon="-2.159666667"><ele>211.000000</ele><time>2010-07-28T10:08:37Z</time></trkpt>
	<trkpt lat="51.73809667" lon="-2.159656667"><ele>212.000000</ele><time>2010-07-28T10:08:42Z</time></trkpt>
	<trkpt lat="51.73808333" lon="-2.15965"><ele>213.000000</ele><time>2010-07-28T10:08:47Z</time></trkpt>
	<trkpt lat="51.73804167" lon="-2.15969"><ele>214.000000</ele><time>2010-07-28T10:08:53Z</time></trkpt>
	<trkpt lat="51.73800333" lon="-2.159733333"><ele>215.000000</ele><time>2010-07-28T10:08:58Z</time></trkpt>
	<trkpt lat="51.73797167" lon="-2.159746667"><ele>215.000000</ele><time>2010-07-28T10:09:03Z</time></trkpt>
	<trkpt lat="51.73795333" lon="-2.159738333"><ele>215.000000</ele><time>2010-07-28T10:09:08Z</time></trkpt>
	<trkpt lat="51.73794" lon="-2.159726667"><ele>215.000000</ele><time>2010-07-28T10:09:13Z</time></trkpt>
	<trkpt lat="51.73793333" lon="-2.15971"><ele>218.000000</ele><time>2010-07-28T10:09:18Z</time></trkpt>
	<trkpt lat="51.73793667" lon="-2.1597"><ele>219.000000</ele><time>2010-07-28T10:09:23Z</time></trkpt>
	<trkpt lat="51.73792333" lon="-2.159743333"><ele>214.000000</ele><time>2010-07-28T10:09:28Z</time></trkpt>
	<trkpt lat="51.73789" lon="-2.15978"><ele>210.000000</ele><time>2010-07-28T10:09:33Z</time></trkpt>
	<trkpt lat="51.73789167" lon="-2.159816667"><ele>209.000000</ele><time>2010-07-28T10:09:38Z</time></trkpt>
	<trkpt lat="51.737885" lon="-2.15982"><ele>208.000000</ele><time>2010-07-28T10:09:43Z</time></trkpt>
	<trkpt lat="51.737885" lon="-2.159816667"><ele>209.000000</ele><time>2010-07-28T10:09:48Z</time></trkpt>
	<trkpt lat="51.73788333" lon="-2.159815"><ele>210.000000</ele><time>2010-07-28T10:09:53Z</time></trkpt>
	<trkpt lat="51.73788167" lon="-2.159815"><ele>210.000000</ele><time>2010-07-28T10:09:58Z</time></trkpt>
	<trkpt lat="51.73788" lon="-2.159815"><ele>210.000000</ele><time>2010-07-28T10:10:03Z</time></trkpt>
	<trkpt lat="51.73788167" lon="-2.159823333"><ele>209.000000</ele><time>2010-07-28T10:10:08Z</time></trkpt>
	<trkpt lat="51.737885" lon="-2.159828333"><ele>208.000000</ele><time>2010-07-28T10:10:13Z</time></trkpt>
	<trkpt lat="51.73788667" lon="-2.159831667"><ele>208.000000</ele><time>2010-07-28T10:10:18Z</time></trkpt>
	<trkpt lat="51.73788833" lon="-2.159838333"><ele>208.000000</ele><time>2010-07-28T10:10:23Z</time></trkpt>
	<trkpt lat="51.737885" lon="-2.159845"><ele>208.000000</ele><time>2010-07-28T10:10:28Z</time></trkpt>
	<trkpt lat="51.73788833" lon="-2.159845"><ele>209.000000</ele><time>2010-07-28T10:10:33Z</time></trkpt>
	<trkpt lat="51.73787667" lon="-2.159841667"><ele>210.000000</ele><time>2010-07-28T10:10:38Z</time></trkpt>
	<trkpt lat="51.737825" lon="-2.159863333"><ele>209.000000</ele><time>2010-07-28T10:10:43Z</time></trkpt>
	<trkpt lat="51.7378" lon="-2.159878333"><ele>207.000000</ele><time>2010-07-28T10:10:48Z</time></trkpt>
	<trkpt lat="51.73781833" lon="-2.15987"><ele>208.000000</ele><time>2010-07-28T10:10:54Z</time></trkpt>
	<trkpt lat="51.737835" lon="-2.159856667"><ele>208.000000</ele><time>2010-07-28T10:10:59Z</time></trkpt>
	<trkpt lat="51.73785" lon="-2.159843333"><ele>209.000000</ele><time>2010-07-28T10:11:04Z</time></trkpt>
	<trkpt lat="51.73785667" lon="-2.159838333"><ele>209.000000</ele><time>2010-07-28T10:11:09Z</time></trkpt>
	<trkpt lat="51.73785833" lon="-2.159838333"><ele>209.000000</ele><time>2010-07-28T10:11:14Z</time></trkpt>
	<trkpt lat="51.73786167" lon="-2.159836667"><ele>210.000000</ele><time>2010-07-28T10:11:19Z</time></trkpt>
	<trkpt lat="51.73785333" lon="-2.159833333"><ele>209.000000</ele><time>2010-07-28T10:11:24Z</time></trkpt>
	<trkpt lat="51.737855" lon="-2.159823333"><ele>209.000000</ele><time>2010-07-28T10:11:29Z</time></trkpt>
	<trkpt lat="51.73787" lon="-2.1598"><ele>209.000000</ele><time>2010-07-28T10:11:34Z</time></trkpt>
	<trkpt lat="51.737875" lon="-2.159788333"><ele>209.000000</ele><time>2010-07-28T10:11:39Z</time></trkpt>
	<trkpt lat="51.73785333" lon="-2.159811667"><ele>209.000000</ele><time>2010-07-28T10:11:44Z</time></trkpt>
	<trkpt lat="51.73783667" lon="-2.159843333"><ele>209.000000</ele><time>2010-07-28T10:11:49Z</time></trkpt>
	<trkpt lat="51.73784167" lon="-2.159845"><ele>208.000000</ele><time>2010-07-28T10:11:54Z</time></trkpt>
	<trkpt lat="51.73784333" lon="-2.159848333"><ele>208.000000</ele><time>2010-07-28T10:11:59Z</time></trkpt>
	<trkpt lat="51.73784833" lon="-2.159848333"><ele>206.000000</ele><time>2010-07-28T10:12:05Z</time></trkpt>
	<trkpt lat="51.73784667" lon="-2.159851667"><ele>206.000000</ele><time>2010-07-28T10:12:10Z</time></trkpt>
	<trkpt lat="51.73782833" lon="-2.159876667"><ele>205.000000</ele><time>2010-07-28T10:12:15Z</time></trkpt>
	<trkpt lat="51.73781833" lon="-2.1599"><ele>204.000000</ele><time>2010-07-28T10:12:20Z</time></trkpt>
	<trkpt lat="51.73782" lon="-2.159901667"><ele>204.000000</ele><time>2010-07-28T10:12:25Z</time></trkpt>
	<trkpt lat="51.73782167" lon="-2.1599"><ele>203.000000</ele><time>2010-07-28T10:12:30Z</time></trkpt>
	<trkpt lat="51.73780333" lon="-2.159923333"><ele>203.000000</ele><time>2010-07-28T10:12:35Z</time></trkpt>
	<trkpt lat="51.73776833" lon="-2.15996"><ele>203.000000</ele><time>2010-07-28T10:12:40Z</time></trkpt>
	<trkpt lat="51.73774" lon="-2.160005"><ele>203.000000</ele><time>2010-07-28T10:12:45Z</time></trkpt>
	<trkpt lat="51.73772333" lon="-2.160073333"><ele>204.000000</ele><time>2010-07-28T10:12:50Z</time></trkpt>
	<trkpt lat="51.73770333" lon="-2.160146667"><ele>205.000000</ele><time>2010-07-28T10:12:55Z</time></trkpt>
	<trkpt lat="51.73767833" lon="-2.1602"><ele>205.000000</ele><time>2010-07-28T10:13:00Z</time></trkpt>
	<trkpt lat="51.73765333" lon="-2.160233333"><ele>205.000000</ele><time>2010-07-28T10:13:05Z</time></trkpt>
	<trkpt lat="51.73763667" lon="-2.160251667"><ele>205.000000</ele><time>2010-07-28T10:13:10Z</time></trkpt>
	<trkpt lat="51.737625" lon="-2.160268333"><ele>206.000000</ele><time>2010-07-28T10:13:15Z</time></trkpt>
	<trkpt lat="51.737605" lon="-2.160286667"><ele>206.000000</ele><time>2010-07-28T10:13:20Z</time></trkpt>
	<trkpt lat="51.73759167" lon="-2.160305"><ele>210.000000</ele><time>2010-07-28T10:13:25Z</time></trkpt>
	<trkpt lat="51.73759833" lon="-2.160336667"><ele>214.000000</ele><time>2010-07-28T10:13:30Z</time></trkpt>
	<trkpt lat="51.73757333" lon="-2.16038"><ele>216.000000</ele><time>2010-07-28T10:13:35Z</time></trkpt>
	<trkpt lat="51.73753" lon="-2.160431667"><ele>216.000000</ele><time>2010-07-28T10:13:40Z</time></trkpt>
	<trkpt lat="51.73748" lon="-2.160488333"><ele>215.000000</ele><time>2010-07-28T10:13:45Z</time></trkpt>
	<trkpt lat="51.73745667" lon="-2.160503333"><ele>216.000000</ele><time>2010-07-28T10:13:50Z</time></trkpt>
	<trkpt lat="51.73742" lon="-2.160541667"><ele>217.000000</ele><time>2010-07-28T10:13:55Z</time></trkpt>
	<trkpt lat="51.73737833" lon="-2.160576667"><ele>218.000000</ele><time>2010-07-28T10:14:00Z</time></trkpt>
	<trkpt lat="51.73733833" lon="-2.160618333"><ele>218.000000</ele><time>2010-07-28T10:14:05Z</time></trkpt>
	<trkpt lat="51.73731333" lon="-2.160628333"><ele>219.000000</ele><time>2010-07-28T10:14:10Z</time></trkpt>
	<trkpt lat="51.73730667" lon="-2.160605"><ele>222.000000</ele><time>2010-07-28T10:14:15Z</time></trkpt>
	<trkpt lat="51.73729167" lon="-2.160595"><ele>223.000000</ele><time>2010-07-28T10:14:20Z</time></trkpt>
	<trkpt lat="51.73730833" lon="-2.160608333"><ele>228.000000</ele><time>2010-07-28T10:14:25Z</time></trkpt>
	<trkpt lat="51.73731833" lon="-2.160591667"><ele>235.000000</ele><time>2010-07-28T10:14:30Z</time></trkpt>
	<trkpt lat="51.73729333" lon="-2.160616667"><ele>231.000000</ele><time>2010-07-28T10:14:35Z</time></trkpt>
	<trkpt lat="51.73728333" lon="-2.160648333"><ele>226.000000</ele><time>2010-07-28T10:14:40Z</time></trkpt>
	<trkpt lat="51.73724333" lon="-2.1607"><ele>223.000000</ele><time>2010-07-28T10:14:45Z</time></trkpt>
	<trkpt lat="51.737195" lon="-2.160735"><ele>221.000000</ele><time>2010-07-28T10:14:50Z</time></trkpt>
	<trkpt lat="51.73716" lon="-2.160775"><ele>222.000000</ele><time>2010-07-28T10:14:55Z</time></trkpt>
	<trkpt lat="51.73712667" lon="-2.160823333"><ele>219.000000</ele><time>2010-07-28T10:15:00Z</time></trkpt>
	<trkpt lat="51.73713167" lon="-2.160808333"><ele>217.000000</ele><time>2010-07-28T10:15:05Z</time></trkpt>
	<trkpt lat="51.73713333" lon="-2.160805"><ele>215.000000</ele><time>2010-07-28T10:15:10Z</time></trkpt>
	<trkpt lat="51.73713333" lon="-2.160813333"><ele>214.000000</ele><time>2010-07-28T10:15:15Z</time></trkpt>
	<trkpt lat="51.73714333" lon="-2.160806667"><ele>214.000000</ele><time>2010-07-28T10:15:20Z</time></trkpt>
	<trkpt lat="51.737135" lon="-2.1608"><ele>212.000000</ele><time>2010-07-28T10:15:25Z</time></trkpt>
	<trkpt lat="51.73715" lon="-2.160791667"><ele>212.000000</ele><time>2010-07-28T10:15:30Z</time></trkpt>
	<trkpt lat="51.73717167" lon="-2.160758333"><ele>210.000000</ele><time>2010-07-28T10:15:35Z</time></trkpt>
	<trkpt lat="51.737205" lon="-2.160725"><ele>211.000000</ele><time>2010-07-28T10:15:40Z</time></trkpt>
	<trkpt lat="51.73725" lon="-2.16069"><ele>212.000000</ele><time>2010-07-28T10:15:45Z</time></trkpt>
	<trkpt lat="51.73726667" lon="-2.160665"><ele>212.000000</ele><time>2010-07-28T10:15:50Z</time></trkpt>
	<trkpt lat="51.73728333" lon="-2.160645"><ele>211.000000</ele><time>2010-07-28T10:15:55Z</time></trkpt>
	<trkpt lat="51.73729167" lon="-2.160628333"><ele>210.000000</ele><time>2010-07-28T10:16:00Z</time></trkpt>
	<trkpt lat="51.73738333" lon="-2.160588333"><ele>216.000000</ele><time>2010-07-28T10:16:05Z</time></trkpt>
	<trkpt lat="51.73745833" lon="-2.160573333"><ele>222.000000</ele><time>2010-07-28T10:16:10Z</time></trkpt>
	<trkpt lat="51.73751333" lon="-2.160571667"><ele>229.000000</ele><time>2010-07-28T10:16:15Z</time></trkpt>
	<trkpt lat="51.73754833" lon="-2.160606667"><ele>231.000000</ele><time>2010-07-28T10:16:20Z</time></trkpt>
	<trkpt lat="51.737575" lon="-2.160655"><ele>232.000000</ele><time>2010-07-28T10:16:25Z</time></trkpt>
	<trkpt lat="51.73759833" lon="-2.160735"><ele>230.000000</ele><time>2010-07-28T10:16:30Z</time></trkpt>
	<trkpt lat="51.73764" lon="-2.16077"><ele>231.000000</ele><time>2010-07-28T10:16:35Z</time></trkpt>
	<trkpt lat="51.737645" lon="-2.160803333"><ele>230.000000</ele><time>2010-07-28T10:16:40Z</time></trkpt>
	<trkpt lat="51.737625" lon="-2.160845"><ele>226.000000</ele><time>2010-07-28T10:16:45Z</time></trkpt>
	<trkpt lat="51.73760833" lon="-2.160901667"><ele>220.000000</ele><time>2010-07-28T10:16:50Z</time></trkpt>
	<trkpt lat="51.73760333" lon="-2.160913333"><ele>218.000000</ele><time>2010-07-28T10:16:55Z</time></trkpt>
	<trkpt lat="51.73761833" lon="-2.160921667"><ele>218.000000</ele><time>2010-07-28T10:17:00Z</time></trkpt>
	<trkpt lat="51.73765167" lon="-2.160946667"><ele>219.000000</ele><time>2010-07-28T10:17:05Z</time></trkpt>
	<trkpt lat="51.73769" lon="-2.160996667"><ele>218.000000</ele><time>2010-07-28T10:17:10Z</time></trkpt>
	<trkpt lat="51.73772" lon="-2.161056667"><ele>214.000000</ele><time>2010-07-28T10:17:15Z</time></trkpt>
	<trkpt lat="51.73776167" lon="-2.161093333"><ele>210.000000</ele><time>2010-07-28T10:17:20Z</time></trkpt>
	<trkpt lat="51.73778" lon="-2.161146667"><ele>204.000000</ele><time>2010-07-28T10:17:25Z</time></trkpt>
	<trkpt lat="51.737815" lon="-2.161145"><ele>204.000000</ele><time>2010-07-28T10:17:30Z</time></trkpt>
	<trkpt lat="51.737865" lon="-2.161156667"><ele>209.000000</ele><time>2010-07-28T10:17:35Z</time></trkpt>
	<trkpt lat="51.73786667" lon="-2.161213333"><ele>211.000000</ele><time>2010-07-28T10:17:40Z</time></trkpt>
	<trkpt lat="51.73786333" lon="-2.161273333"><ele>213.000000</ele><time>2010-07-28T10:17:45Z</time></trkpt>
	<trkpt lat="51.73787833" lon="-2.161343333"><ele>214.000000</ele><time>2010-07-28T10:17:50Z</time></trkpt>
	<trkpt lat="51.73791167" lon="-2.161365"><ele>215.000000</ele><time>2010-07-28T10:17:55Z</time></trkpt>
	<trkpt lat="51.73792167" lon="-2.161381667"><ele>209.000000</ele><time>2010-07-28T10:18:00Z</time></trkpt>
	<trkpt lat="51.73794667" lon="-2.161365"><ele>203.000000</ele><time>2010-07-28T10:18:05Z</time></trkpt>
	<trkpt lat="51.737985" lon="-2.161361667"><ele>201.000000</ele><time>2010-07-28T10:18:10Z</time></trkpt>
	<trkpt lat="51.73801167" lon="-2.161383333"><ele>200.000000</ele><time>2010-07-28T10:18:15Z</time></trkpt>
	<trkpt lat="51.738065" lon="-2.161388333"><ele>200.000000</ele><time>2010-07-28T10:18:20Z</time></trkpt>
	<trkpt lat="51.73808333" lon="-2.161383333"><ele>198.000000</ele><time>2010-07-28T10:18:25Z</time></trkpt>
	<trkpt lat="51.738135" lon="-2.161375"><ele>197.000000</ele><time>2010-07-28T10:18:30Z</time></trkpt>
	<trkpt lat="51.73817333" lon="-2.161373333"><ele>200.000000</ele><time>2010-07-28T10:18:35Z</time></trkpt>
	<trkpt lat="51.73821833" lon="-2.161365"><ele>204.000000</ele><time>2010-07-28T10:18:41Z</time></trkpt>
	<trkpt lat="51.73826667" lon="-2.161373333"><ele>208.000000</ele><time>2010-07-28T10:18:47Z</time></trkpt>
	<trkpt lat="51.73829" lon="-2.161385"><ele>210.000000</ele><time>2010-07-28T10:18:52Z</time></trkpt>
	<trkpt lat="51.73829667" lon="-2.161445"><ele>205.000000</ele><time>2010-07-28T10:18:57Z</time></trkpt>
	<trkpt lat="51.73829" lon="-2.161503333"><ele>200.000000</ele><time>2010-07-28T10:19:02Z</time></trkpt>
	<trkpt lat="51.73829" lon="-2.161521667"><ele>198.000000</ele><time>2010-07-28T10:19:07Z</time></trkpt>
	<trkpt lat="51.73828833" lon="-2.161535"><ele>196.000000</ele><time>2010-07-28T10:19:12Z</time></trkpt>
	<trkpt lat="51.73828167" lon="-2.16156"><ele>192.000000</ele><time>2010-07-28T10:19:17Z</time></trkpt>
	<trkpt lat="51.73829167" lon="-2.161565"><ele>192.000000</ele><time>2010-07-28T10:19:22Z</time></trkpt>
	<trkpt lat="51.73829" lon="-2.161568333"><ele>191.000000</ele><time>2010-07-28T10:19:27Z</time></trkpt>
	<trkpt lat="51.738275" lon="-2.161576667"><ele>191.000000</ele><time>2010-07-28T10:19:33Z</time></trkpt>
	<trkpt lat="51.73827167" lon="-2.161558333"><ele>192.000000</ele><time>2010-07-28T10:19:38Z</time></trkpt>
	<trkpt lat="51.73831833" lon="-2.16152"><ele>195.000000</ele><time>2010-07-28T10:19:44Z</time></trkpt>
	<trkpt lat="51.73832667" lon="-2.161513333"><ele>192.000000</ele><time>2010-07-28T10:19:49Z</time></trkpt>
	<trkpt lat="51.73833" lon="-2.161496667"><ele>191.000000</ele><time>2010-07-28T10:19:54Z</time></trkpt>
	<trkpt lat="51.73836333" lon="-2.161445"><ele>191.000000</ele><time>2010-07-28T10:19:59Z</time></trkpt>
	<trkpt lat="51.73839" lon="-2.161431667"><ele>191.000000</ele><time>2010-07-28T10:20:04Z</time></trkpt>
	<trkpt lat="51.73843667" lon="-2.161398333"><ele>191.000000</ele><time>2010-07-28T10:20:10Z</time></trkpt>
	<trkpt lat="51.73845833" lon="-2.161388333"><ele>189.000000</ele><time>2010-07-28T10:20:15Z</time></trkpt>
	<trkpt lat="51.73849833" lon="-2.16134"><ele>190.000000</ele><time>2010-07-28T10:20:20Z</time></trkpt>
	<trkpt lat="51.73852" lon="-2.161313333"><ele>189.000000</ele><time>2010-07-28T10:20:25Z</time></trkpt>
	<trkpt lat="51.73852167" lon="-2.161278333"><ele>186.000000</ele><time>2010-07-28T10:20:30Z</time></trkpt>
	<trkpt lat="51.738555" lon="-2.161253333"><ele>183.000000</ele><time>2010-07-28T10:20:35Z</time></trkpt>
	<trkpt lat="51.73860167" lon="-2.16122"><ele>183.000000</ele><time>2010-07-28T10:20:40Z</time></trkpt>
	<trkpt lat="51.73863333" lon="-2.161186667"><ele>180.000000</ele><time>2010-07-28T10:20:45Z</time></trkpt>
	<trkpt lat="51.73866667" lon="-2.161148333"><ele>181.000000</ele><time>2010-07-28T10:20:50Z</time></trkpt>
	<trkpt lat="51.73867833" lon="-2.161136667"><ele>182.000000</ele><time>2010-07-28T10:20:55Z</time></trkpt>
	<trkpt lat="51.73869667" lon="-2.161121667"><ele>183.000000</ele><time>2010-07-28T10:21:00Z</time></trkpt>
	<trkpt lat="51.73872" lon="-2.161098333"><ele>182.000000</ele><time>2010-07-28T10:21:05Z</time></trkpt>
	<trkpt lat="51.73875" lon="-2.16108"><ele>184.000000</ele><time>2010-07-28T10:21:10Z</time></trkpt>
	<trkpt lat="51.73875333" lon="-2.161076667"><ele>185.000000</ele><time>2010-07-28T10:21:15Z</time></trkpt>
	<trkpt lat="51.73877333" lon="-2.161033333"><ele>184.000000</ele><time>2010-07-28T10:21:20Z</time></trkpt>
	<trkpt lat="51.73882833" lon="-2.160948333"><ele>189.000000</ele><time>2010-07-28T10:21:26Z</time></trkpt>
	<trkpt lat="51.738835" lon="-2.16094"><ele>190.000000</ele><time>2010-07-28T10:21:31Z</time></trkpt>
	<trkpt lat="51.73883167" lon="-2.160943333"><ele>189.000000</ele><time>2010-07-28T10:21:36Z</time></trkpt>
	<trkpt lat="51.73883667" lon="-2.16095"><ele>191.000000</ele><time>2010-07-28T10:21:42Z</time></trkpt>
	<trkpt lat="51.73885167" lon="-2.160936667"><ele>191.000000</ele><time>2010-07-28T10:21:47Z</time></trkpt>
	<trkpt lat="51.73887333" lon="-2.160941667"><ele>196.000000</ele><time>2010-07-28T10:21:53Z</time></trkpt>
	<trkpt lat="51.73886833" lon="-2.160983333"><ele>197.000000</ele><time>2010-07-28T10:21:58Z</time></trkpt>
	<trkpt lat="51.738855" lon="-2.161018333"><ele>196.000000</ele><time>2010-07-28T10:22:03Z</time></trkpt>
	<trkpt lat="51.738845" lon="-2.161063333"><ele>196.000000</ele><time>2010-07-28T10:22:08Z</time></trkpt>
	<trkpt lat="51.73884667" lon="-2.161113333"><ele>195.000000</ele><time>2010-07-28T10:22:13Z</time></trkpt>
	<trkpt lat="51.73885167" lon="-2.16116"><ele>193.000000</ele><time>2010-07-28T10:22:18Z</time></trkpt>
	<trkpt lat="51.738875" lon="-2.161186667"><ele>194.000000</ele><time>2010-07-28T10:22:23Z</time></trkpt>
	<trkpt lat="51.73890833" lon="-2.161225"><ele>194.000000</ele><time>2010-07-28T10:22:28Z</time></trkpt>
	<trkpt lat="51.73891833" lon="-2.16133"><ele>190.000000</ele><time>2010-07-28T10:22:33Z</time></trkpt>
	<trkpt lat="51.73893" lon="-2.161403333"><ele>191.000000</ele><time>2010-07-28T10:22:38Z</time></trkpt>
	<trkpt lat="51.73893" lon="-2.161475"><ele>191.000000</ele><time>2010-07-28T10:22:43Z</time></trkpt>
	<trkpt lat="51.73894167" lon="-2.161531667"><ele>192.000000</ele><time>2010-07-28T10:22:48Z</time></trkpt>
	<trkpt lat="51.738935" lon="-2.161606667"><ele>192.000000</ele><time>2010-07-28T10:22:53Z</time></trkpt>
	<trkpt lat="51.73890833" lon="-2.161685"><ele>189.000000</ele><time>2010-07-28T10:22:59Z</time></trkpt>
	<trkpt lat="51.738895" lon="-2.161753333"><ele>188.000000</ele><time>2010-07-28T10:23:04Z</time></trkpt>
	<trkpt lat="51.738895" lon="-2.161803333"><ele>188.000000</ele><time>2010-07-28T10:23:09Z</time></trkpt>
	<trkpt lat="51.73888833" lon="-2.16184"><ele>189.000000</ele><time>2010-07-28T10:23:14Z</time></trkpt>
	<trkpt lat="51.73891" lon="-2.161898333"><ele>190.000000</ele><time>2010-07-28T10:23:19Z</time></trkpt>
	<trkpt lat="51.738945" lon="-2.16195"><ele>192.000000</ele><time>2010-07-28T10:23:24Z</time></trkpt>
	<trkpt lat="51.73896833" lon="-2.162016667"><ele>192.000000</ele><time>2010-07-28T10:23:29Z</time></trkpt>
	<trkpt lat="51.73899" lon="-2.1621"><ele>191.000000</ele><time>2010-07-28T10:23:34Z</time></trkpt>
	<trkpt lat="51.73900667" lon="-2.162178333"><ele>189.000000</ele><time>2010-07-28T10:23:39Z</time></trkpt>
	<trkpt lat="51.73902167" lon="-2.162248333"><ele>188.000000</ele><time>2010-07-28T10:23:44Z</time></trkpt>
	<trkpt lat="51.73904167" lon="-2.162325"><ele>185.000000</ele><time>2010-07-28T10:23:49Z</time></trkpt>
	<trkpt lat="51.73905833" lon="-2.162386667"><ele>184.000000</ele><time>2010-07-28T10:23:54Z</time></trkpt>
	<trkpt lat="51.73907833" lon="-2.162453333"><ele>180.000000</ele><time>2010-07-28T10:23:59Z</time></trkpt>
	<trkpt lat="51.73907333" lon="-2.162495"><ele>175.000000</ele><time>2010-07-28T10:24:04Z</time></trkpt>
	<trkpt lat="51.73909833" lon="-2.162536667"><ele>172.000000</ele><time>2010-07-28T10:24:09Z</time></trkpt>
	<trkpt lat="51.73912833" lon="-2.16257"><ele>169.000000</ele><time>2010-07-28T10:24:14Z</time></trkpt>
	<trkpt lat="51.73915167" lon="-2.162588333"><ele>166.000000</ele><time>2010-07-28T10:24:19Z</time></trkpt>
	<trkpt lat="51.73917" lon="-2.162598333"><ele>164.000000</ele><time>2010-07-28T10:24:24Z</time></trkpt>
	<trkpt lat="51.739185" lon="-2.162598333"><ele>162.000000</ele><time>2010-07-28T10:24:29Z</time></trkpt>
	<trkpt lat="51.73919167" lon="-2.1626"><ele>157.000000</ele><time>2010-07-28T10:24:34Z</time></trkpt>
	<trkpt lat="51.73921167" lon="-2.162578333"><ele>154.000000</ele><time>2010-07-28T10:24:39Z</time></trkpt>
	<trkpt lat="51.73922333" lon="-2.162561667"><ele>151.000000</ele><time>2010-07-28T10:24:44Z</time></trkpt>
	<trkpt lat="51.73923833" lon="-2.162531667"><ele>150.000000</ele><time>2010-07-28T10:24:49Z</time></trkpt>
	<trkpt lat="51.73928167" lon="-2.162495"><ele>151.000000</ele><time>2010-07-28T10:24:54Z</time></trkpt>
	<trkpt lat="51.73932167" lon="-2.162436667"><ele>149.000000</ele><time>2010-07-28T10:24:59Z</time></trkpt>
	<trkpt lat="51.73935" lon="-2.162405"><ele>150.000000</ele><time>2010-07-28T10:25:04Z</time></trkpt>
	<trkpt lat="51.73938" lon="-2.16237"><ele>149.000000</ele><time>2010-07-28T10:25:09Z</time></trkpt>
	<trkpt lat="51.73938667" lon="-2.162341667"><ele>146.000000</ele><time>2010-07-28T10:25:14Z</time></trkpt>
	<trkpt lat="51.73941667" lon="-2.162288333"><ele>143.000000</ele><time>2010-07-28T10:25:19Z</time></trkpt>
	<trkpt lat="51.73943167" lon="-2.162248333"><ele>141.000000</ele><time>2010-07-28T10:25:24Z</time></trkpt>
	<trkpt lat="51.739455" lon="-2.1622"><ele>137.000000</ele><time>2010-07-28T10:25:30Z</time></trkpt>
	<trkpt lat="51.7395" lon="-2.162155"><ele>135.000000</ele><time>2010-07-28T10:25:35Z</time></trkpt>
	<trkpt lat="51.73953" lon="-2.162143333"><ele>134.000000</ele><time>2010-07-28T10:25:41Z</time></trkpt>
	<trkpt lat="51.739575" lon="-2.162083333"><ele>133.000000</ele><time>2010-07-28T10:25:47Z</time></trkpt>
	<trkpt lat="51.73968333" lon="-2.16196"><ele>135.000000</ele><time>2010-07-28T10:25:52Z</time></trkpt>
	<trkpt lat="51.73972" lon="-2.161926667"><ele>135.000000</ele><time>2010-07-28T10:25:57Z</time></trkpt>
	<trkpt lat="51.73978167" lon="-2.161875"><ele>136.000000</ele><time>2010-07-28T10:26:02Z</time></trkpt>
	<trkpt lat="51.73983" lon="-2.161803333"><ele>136.000000</ele><time>2010-07-28T10:26:07Z</time></trkpt>
	<trkpt lat="51.73985167" lon="-2.161765"><ele>131.000000</ele><time>2010-07-28T10:26:12Z</time></trkpt>
	<trkpt lat="51.73990167" lon="-2.16172"><ele>130.000000</ele><time>2010-07-28T10:26:18Z</time></trkpt>
	<trkpt lat="51.73992667" lon="-2.16169"><ele>128.000000</ele><time>2010-07-28T10:26:23Z</time></trkpt>
	<trkpt lat="51.73998833" lon="-2.161663333"><ele>130.000000</ele><time>2010-07-28T10:26:28Z</time></trkpt>
	<trkpt lat="51.74009333" lon="-2.161588333"><ele>135.000000</ele><time>2010-07-28T10:26:33Z</time></trkpt>
	<trkpt lat="51.740165" lon="-2.161598333"><ele>138.000000</ele><time>2010-07-28T10:26:38Z</time></trkpt>
	<trkpt lat="51.74018833" lon="-2.16164"><ele>135.000000</ele><time>2010-07-28T10:26:43Z</time></trkpt>
	<trkpt lat="51.74022833" lon="-2.16169"><ele>132.000000</ele><time>2010-07-28T10:26:49Z</time></trkpt>
	<trkpt lat="51.74028333" lon="-2.161716667"><ele>134.000000</ele><time>2010-07-28T10:26:54Z</time></trkpt>
	<trkpt lat="51.74035333" lon="-2.161745"><ele>138.000000</ele><time>2010-07-28T10:26:59Z</time></trkpt>
	<trkpt lat="51.740385" lon="-2.161781667"><ele>136.000000</ele><time>2010-07-28T10:27:05Z</time></trkpt>
	<trkpt lat="51.74040167" lon="-2.161821667"><ele>133.000000</ele><time>2010-07-28T10:27:10Z</time></trkpt>
	<trkpt lat="51.740465" lon="-2.161845"><ele>134.000000</ele><time>2010-07-28T10:27:15Z</time></trkpt>
	<trkpt lat="51.74048" lon="-2.161878333"><ele>131.000000</ele><time>2010-07-28T10:27:20Z</time></trkpt>
	<trkpt lat="51.74054167" lon="-2.161876667"><ele>134.000000</ele><time>2010-07-28T10:27:26Z</time></trkpt>
	<trkpt lat="51.74055667" lon="-2.161891667"><ele>138.000000</ele><time>2010-07-28T10:27:31Z</time></trkpt>
	<trkpt lat="51.74058667" lon="-2.161918333"><ele>137.000000</ele><time>2010-07-28T10:27:36Z</time></trkpt>
	<trkpt lat="51.740645" lon="-2.161923333"><ele>140.000000</ele><time>2010-07-28T10:27:42Z</time></trkpt>
	<trkpt lat="51.74068667" lon="-2.161948333"><ele>143.000000</ele><time>2010-07-28T10:27:47Z</time></trkpt>
	<trkpt lat="51.74069167" lon="-2.161993333"><ele>138.000000</ele><time>2010-07-28T10:27:53Z</time></trkpt>
	<trkpt lat="51.74070833" lon="-2.162048333"><ele>134.000000</ele><time>2010-07-28T10:27:58Z</time></trkpt>
	<trkpt lat="51.74075167" lon="-2.16205"><ele>133.000000</ele><time>2010-07-28T10:28:03Z</time></trkpt>
	<trkpt lat="51.74078167" lon="-2.162055"><ele>135.000000</ele><time>2010-07-28T10:28:08Z</time></trkpt>
	<trkpt lat="51.74081167" lon="-2.162061667"><ele>135.000000</ele><time>2010-07-28T10:28:13Z</time></trkpt>
	<trkpt lat="51.74081" lon="-2.162073333"><ele>137.000000</ele><time>2010-07-28T10:28:18Z</time></trkpt>
	<trkpt lat="51.74087333" lon="-2.162055"><ele>141.000000</ele><time>2010-07-28T10:28:24Z</time></trkpt>
	<trkpt lat="51.74093" lon="-2.162055"><ele>145.000000</ele><time>2010-07-28T10:28:29Z</time></trkpt>
	<trkpt lat="51.740945" lon="-2.16206"><ele>145.000000</ele><time>2010-07-28T10:28:35Z</time></trkpt>
	<trkpt lat="51.741005" lon="-2.162056667"><ele>149.000000</ele><time>2010-07-28T10:28:41Z</time></trkpt>
	<trkpt lat="51.74103167" lon="-2.162061667"><ele>147.000000</ele><time>2010-07-28T10:28:46Z</time></trkpt>
	<trkpt lat="51.74106833" lon="-2.16205"><ele>148.000000</ele><time>2010-07-28T10:28:51Z</time></trkpt>
	<trkpt lat="51.74111833" lon="-2.16201"><ele>147.000000</ele><time>2010-07-28T10:28:56Z</time></trkpt>
	<trkpt lat="51.74109333" lon="-2.16201"><ele>144.000000</ele><time>2010-07-28T10:29:01Z</time></trkpt>
	<trkpt lat="51.74111167" lon="-2.161996667"><ele>143.000000</ele><time>2010-07-28T10:29:06Z</time></trkpt>
	<trkpt lat="51.74111667" lon="-2.161978333"><ele>142.000000</ele><time>2010-07-28T10:29:11Z</time></trkpt>
	<trkpt lat="51.74114667" lon="-2.16196"><ele>141.000000</ele><time>2010-07-28T10:29:17Z</time></trkpt>
	<trkpt lat="51.74122" lon="-2.161886667"><ele>147.000000</ele><time>2010-07-28T10:29:22Z</time></trkpt>
	<trkpt lat="51.74129333" lon="-2.161848333"><ele>149.000000</ele><time>2010-07-28T10:29:27Z</time></trkpt>
	<trkpt lat="51.74133667" lon="-2.161841667"><ele>149.000000</ele><time>2010-07-28T10:29:32Z</time></trkpt>
	<trkpt lat="51.741335" lon="-2.161885"><ele>145.000000</ele><time>2010-07-28T10:29:37Z</time></trkpt>
	<trkpt lat="51.74138167" lon="-2.161898333"><ele>140.000000</ele><time>2010-07-28T10:29:42Z</time></trkpt>
	<trkpt lat="51.741495" lon="-2.161875"><ele>138.000000</ele><time>2010-07-28T10:29:48Z</time></trkpt>
	<trkpt lat="51.74158" lon="-2.161855"><ele>137.000000</ele><time>2010-07-28T10:29:53Z</time></trkpt>
	<trkpt lat="51.74163167" lon="-2.161863333"><ele>131.000000</ele><time>2010-07-28T10:29:58Z</time></trkpt>
	<trkpt lat="51.741685" lon="-2.161856667"><ele>131.000000</ele><time>2010-07-28T10:30:04Z</time></trkpt>
	<trkpt lat="51.74172167" lon="-2.161783333"><ele>140.000000</ele><time>2010-07-28T10:30:09Z</time></trkpt>
	<trkpt lat="51.741755" lon="-2.161741667"><ele>146.000000</ele><time>2010-07-28T10:30:14Z</time></trkpt>
	<trkpt lat="51.74178167" lon="-2.161778333"><ele>143.000000</ele><time>2010-07-28T10:30:19Z</time></trkpt>
	<trkpt lat="51.741835" lon="-2.161765"><ele>142.000000</ele><time>2010-07-28T10:30:24Z</time></trkpt>
	<trkpt lat="51.741905" lon="-2.161783333"><ele>139.000000</ele><time>2010-07-28T10:30:30Z</time></trkpt>
	<trkpt lat="51.741945" lon="-2.161776667"><ele>135.000000</ele><time>2010-07-28T10:30:35Z</time></trkpt>
	<trkpt lat="51.74197333" lon="-2.161786667"><ele>134.000000</ele><time>2010-07-28T10:30:40Z</time></trkpt>
	<trkpt lat="51.74202333" lon="-2.161781667"><ele>135.000000</ele><time>2010-07-28T10:30:45Z</time></trkpt>
	<trkpt lat="51.74207167" lon="-2.161776667"><ele>135.000000</ele><time>2010-07-28T10:30:50Z</time></trkpt>
	<trkpt lat="51.742115" lon="-2.161756667"><ele>138.000000</ele><time>2010-07-28T10:30:55Z</time></trkpt>
	<trkpt lat="51.74216833" lon="-2.161711667"><ele>142.000000</ele><time>2010-07-28T10:31:00Z</time></trkpt>
	<trkpt lat="51.74220167" lon="-2.161671667"><ele>143.000000</ele><time>2010-07-28T10:31:06Z</time></trkpt>
	<trkpt lat="51.74218833" lon="-2.16167"><ele>139.000000</ele><time>2010-07-28T10:31:12Z</time></trkpt>
	<trkpt lat="51.742215" lon="-2.161646667"><ele>138.000000</ele><time>2010-07-28T10:31:17Z</time></trkpt>
	<trkpt lat="51.74223833" lon="-2.16161"><ele>138.000000</ele><time>2010-07-28T10:31:22Z</time></trkpt>
	<trkpt lat="51.74225167" lon="-2.161586667"><ele>139.000000</ele><time>2010-07-28T10:31:27Z</time></trkpt>
	<trkpt lat="51.74230667" lon="-2.161516667"><ele>140.000000</ele><time>2010-07-28T10:31:32Z</time></trkpt>
	<trkpt lat="51.742385" lon="-2.161456667"><ele>140.000000</ele><time>2010-07-28T10:31:38Z</time></trkpt>
	<trkpt lat="51.74243333" lon="-2.161411667"><ele>142.000000</ele><time>2010-07-28T10:31:43Z</time></trkpt>
	<trkpt lat="51.74246333" lon="-2.161371667"><ele>140.000000</ele><time>2010-07-28T10:31:49Z</time></trkpt>
	<trkpt lat="51.74252167" lon="-2.16132"><ele>139.000000</ele><time>2010-07-28T10:31:54Z</time></trkpt>
	<trkpt lat="51.74257667" lon="-2.161245"><ele>139.000000</ele><time>2010-07-28T10:31:59Z</time></trkpt>
	<trkpt lat="51.74267333" lon="-2.161161667"><ele>139.000000</ele><time>2010-07-28T10:32:04Z</time></trkpt>
	<trkpt lat="51.74276833" lon="-2.161113333"><ele>139.000000</ele><time>2010-07-28T10:32:10Z</time></trkpt>
	<trkpt lat="51.74279" lon="-2.161086667"><ele>138.000000</ele><time>2010-07-28T10:32:15Z</time></trkpt>
	<trkpt lat="51.74283" lon="-2.161021667"><ele>136.000000</ele><time>2010-07-28T10:32:20Z</time></trkpt>
	<trkpt lat="51.74288333" lon="-2.160981667"><ele>141.000000</ele><time>2010-07-28T10:32:25Z</time></trkpt>
	<trkpt lat="51.74296333" lon="-2.160901667"><ele>145.000000</ele><time>2010-07-28T10:32:30Z</time></trkpt>
	<trkpt lat="51.74301167" lon="-2.160856667"><ele>146.000000</ele><time>2010-07-28T10:32:35Z</time></trkpt>
	<trkpt lat="51.74303833" lon="-2.160826667"><ele>145.000000</ele><time>2010-07-28T10:32:40Z</time></trkpt>
	<trkpt lat="51.743085" lon="-2.160808333"><ele>141.000000</ele><time>2010-07-28T10:32:46Z</time></trkpt>
	<trkpt lat="51.74309" lon="-2.160808333"><ele>134.000000</ele><time>2010-07-28T10:32:51Z</time></trkpt>
	<trkpt lat="51.74316" lon="-2.160815"><ele>131.000000</ele><time>2010-07-28T10:32:56Z</time></trkpt>
	<trkpt lat="51.74324167" lon="-2.160816667"><ele>132.000000</ele><time>2010-07-28T10:33:01Z</time></trkpt>
	<trkpt lat="51.74328" lon="-2.160843333"><ele>124.000000</ele><time>2010-07-28T10:33:06Z</time></trkpt>
	<trkpt lat="51.74331667" lon="-2.16085"><ele>123.000000</ele><time>2010-07-28T10:33:12Z</time></trkpt>
	<trkpt lat="51.74335333" lon="-2.160833333"><ele>123.000000</ele><time>2010-07-28T10:33:17Z</time></trkpt>
	<trkpt lat="51.74340833" lon="-2.160811667"><ele>122.000000</ele><time>2010-07-28T10:33:23Z</time></trkpt>
	<trkpt lat="51.74346333" lon="-2.160805"><ele>123.000000</ele><time>2010-07-28T10:33:29Z</time></trkpt>
	<trkpt lat="51.743495" lon="-2.160805"><ele>124.000000</ele><time>2010-07-28T10:33:35Z</time></trkpt>
	<trkpt lat="51.743525" lon="-2.160783333"><ele>126.000000</ele><time>2010-07-28T10:33:40Z</time></trkpt>
	<trkpt lat="51.743535" lon="-2.160791667"><ele>126.000000</ele><time>2010-07-28T10:33:45Z</time></trkpt>
	<trkpt lat="51.74355" lon="-2.160786667"><ele>127.000000</ele><time>2010-07-28T10:33:51Z</time></trkpt>
	<trkpt lat="51.74355833" lon="-2.16078"><ele>127.000000</ele><time>2010-07-28T10:33:56Z</time></trkpt>
	<trkpt lat="51.743575" lon="-2.160776667"><ele>128.000000</ele><time>2010-07-28T10:34:01Z</time></trkpt>
	<trkpt lat="51.74360833" lon="-2.160761667"><ele>130.000000</ele><time>2010-07-28T10:34:07Z</time></trkpt>
	<trkpt lat="51.74364" lon="-2.16072"><ele>131.000000</ele><time>2010-07-28T10:34:12Z</time></trkpt>
	<trkpt lat="51.743635" lon="-2.160711667"><ele>133.000000</ele><time>2010-07-28T10:34:17Z</time></trkpt>
	<trkpt lat="51.743655" lon="-2.160668333"><ele>133.000000</ele><time>2010-07-28T10:34:22Z</time></trkpt>
	<trkpt lat="51.743655" lon="-2.160643333"><ele>134.000000</ele><time>2010-07-28T10:34:27Z</time></trkpt>
	<trkpt lat="51.743645" lon="-2.160631667"><ele>136.000000</ele><time>2010-07-28T10:34:32Z</time></trkpt>
	<trkpt lat="51.74367" lon="-2.160585"><ele>136.000000</ele><time>2010-07-28T10:34:38Z</time></trkpt>
	<trkpt lat="51.743665" lon="-2.160526667"><ele>126.000000</ele><time>2010-07-28T10:34:43Z</time></trkpt>
	<trkpt lat="51.74361333" lon="-2.160501667"><ele>118.000000</ele><time>2010-07-28T10:34:48Z</time></trkpt>
	<trkpt lat="51.743675" lon="-2.160415"><ele>123.000000</ele><time>2010-07-28T10:34:53Z</time></trkpt>
	<trkpt lat="51.74372167" lon="-2.160336667"><ele>126.000000</ele><time>2010-07-28T10:34:58Z</time></trkpt>
	<trkpt lat="51.74375" lon="-2.160275"><ele>128.000000</ele><time>2010-07-28T10:35:03Z</time></trkpt>
	<trkpt lat="51.74376" lon="-2.160285"><ele>127.000000</ele><time>2010-07-28T10:35:08Z</time></trkpt>
	<trkpt lat="51.743855" lon="-2.160176667"><ele>132.000000</ele><time>2010-07-28T10:35:14Z</time></trkpt>
	<trkpt lat="51.74393667" lon="-2.160108333"><ele>137.000000</ele><time>2010-07-28T10:35:19Z</time></trkpt>
	<trkpt lat="51.74395333" lon="-2.160063333"><ele>139.000000</ele><time>2010-07-28T10:35:24Z</time></trkpt>
	<trkpt lat="51.74395" lon="-2.16"><ele>140.000000</ele><time>2010-07-28T10:35:29Z</time></trkpt>
	<trkpt lat="51.74392167" lon="-2.159941667"><ele>133.000000</ele><time>2010-07-28T10:35:34Z</time></trkpt>
	<trkpt lat="51.743915" lon="-2.159901667"><ele>129.000000</ele><time>2010-07-28T10:35:39Z</time></trkpt>
	<trkpt lat="51.74392833" lon="-2.15979"><ele>134.000000</ele><time>2010-07-28T10:35:45Z</time></trkpt>
	<trkpt lat="51.74394" lon="-2.159728333"><ele>140.000000</ele><time>2010-07-28T10:35:50Z</time></trkpt>
	<trkpt lat="51.74395" lon="-2.15965"><ele>143.000000</ele><time>2010-07-28T10:35:56Z</time></trkpt>
	<trkpt lat="51.74399333" lon="-2.159541667"><ele>147.000000</ele><time>2010-07-28T10:36:01Z</time></trkpt>
	<trkpt lat="51.74403833" lon="-2.159443333"><ele>149.000000</ele><time>2010-07-28T10:36:07Z</time></trkpt>
	<trkpt lat="51.744065" lon="-2.1594"><ele>143.000000</ele><time>2010-07-28T10:36:12Z</time></trkpt>
	<trkpt lat="51.74406833" lon="-2.159391667"><ele>141.000000</ele><time>2010-07-28T10:36:18Z</time></trkpt>
	<trkpt lat="51.74408833" lon="-2.159355"><ele>139.000000</ele><time>2010-07-28T10:36:23Z</time></trkpt>
	<trkpt lat="51.74409" lon="-2.159295"><ele>136.000000</ele><time>2010-07-28T10:36:29Z</time></trkpt>
	<trkpt lat="51.74414" lon="-2.159216667"><ele>138.000000</ele><time>2010-07-28T10:36:34Z</time></trkpt>
	<trkpt lat="51.74418" lon="-2.159151667"><ele>139.000000</ele><time>2010-07-28T10:36:40Z</time></trkpt>
	<trkpt lat="51.74421833" lon="-2.159073333"><ele>146.000000</ele><time>2010-07-28T10:36:46Z</time></trkpt>
	<trkpt lat="51.74422833" lon="-2.159018333"><ele>151.000000</ele><time>2010-07-28T10:36:51Z</time></trkpt>
	<trkpt lat="51.74418" lon="-2.158956667"><ele>152.000000</ele><time>2010-07-28T10:36:56Z</time></trkpt>
	<trkpt lat="51.744195" lon="-2.158878333"><ele>154.000000</ele><time>2010-07-28T10:37:01Z</time></trkpt>
	<trkpt lat="51.74422667" lon="-2.158786667"><ele>155.000000</ele><time>2010-07-28T10:37:06Z</time></trkpt>
	<trkpt lat="51.74427167" lon="-2.1587"><ele>153.000000</ele><time>2010-07-28T10:37:11Z</time></trkpt>
	<trkpt lat="51.74429" lon="-2.158618333"><ele>151.000000</ele><time>2010-07-28T10:37:17Z</time></trkpt>
	<trkpt lat="51.744315" lon="-2.158521667"><ele>161.000000</ele><time>2010-07-28T10:37:22Z</time></trkpt>
	<trkpt lat="51.74432" lon="-2.158465"><ele>164.000000</ele><time>2010-07-28T10:37:27Z</time></trkpt>
	<trkpt lat="51.74436" lon="-2.158403333"><ele>167.000000</ele><time>2010-07-28T10:37:32Z</time></trkpt>
	<trkpt lat="51.74432833" lon="-2.158366667"><ele>166.000000</ele><time>2010-07-28T10:37:38Z</time></trkpt>
	<trkpt lat="51.74429167" lon="-2.158351667"><ele>166.000000</ele><time>2010-07-28T10:37:43Z</time></trkpt>
	<trkpt lat="51.74425833" lon="-2.158311667"><ele>170.000000</ele><time>2010-07-28T10:37:48Z</time></trkpt>
	<trkpt lat="51.74425" lon="-2.158275"><ele>178.000000</ele><time>2010-07-28T10:37:54Z</time></trkpt>
	<trkpt lat="51.744255" lon="-2.158253333"><ele>179.000000</ele><time>2010-07-28T10:38:00Z</time></trkpt>
	<trkpt lat="51.74425333" lon="-2.158225"><ele>181.000000</ele><time>2010-07-28T10:38:06Z</time></trkpt>
	<trkpt lat="51.74425333" lon="-2.158165"><ele>180.000000</ele><time>2010-07-28T10:38:11Z</time></trkpt>
	<trkpt lat="51.74427667" lon="-2.158096667"><ele>182.000000</ele><time>2010-07-28T10:38:16Z</time></trkpt>
	<trkpt lat="51.74434" lon="-2.15799"><ele>186.000000</ele><time>2010-07-28T10:38:21Z</time></trkpt>
	<trkpt lat="51.74439667" lon="-2.15792"><ele>190.000000</ele><time>2010-07-28T10:38:26Z</time></trkpt>
	<trkpt lat="51.74439167" lon="-2.157871667"><ele>189.000000</ele><time>2010-07-28T10:38:31Z</time></trkpt>
	<trkpt lat="51.74442" lon="-2.157746667"><ele>182.000000</ele><time>2010-07-28T10:38:36Z</time></trkpt>
	<trkpt lat="51.74449833" lon="-2.157588333"><ele>170.000000</ele><time>2010-07-28T10:38:41Z</time></trkpt>
	<trkpt lat="51.744535" lon="-2.157531667"><ele>162.000000</ele><time>2010-07-28T10:38:46Z</time></trkpt>
	<trkpt lat="51.744545" lon="-2.157421667"><ele>159.000000</ele><time>2010-07-28T10:38:51Z</time></trkpt>
	<trkpt lat="51.74460167" lon="-2.157283333"><ele>160.000000</ele><time>2010-07-28T10:38:56Z</time></trkpt>
	<trkpt lat="51.74465" lon="-2.157198333"><ele>151.000000</ele><time>2010-07-28T10:39:01Z</time></trkpt>
	<trkpt lat="51.74468667" lon="-2.157095"><ele>156.000000</ele><time>2010-07-28T10:39:06Z</time></trkpt>
	<trkpt lat="51.74465167" lon="-2.157011667"><ele>152.000000</ele><time>2010-07-28T10:39:11Z</time></trkpt>
	<trkpt lat="51.74467" lon="-2.156913333"><ele>156.000000</ele><time>2010-07-28T10:39:16Z</time></trkpt>
	<trkpt lat="51.74472333" lon="-2.156836667"><ele>148.000000</ele><time>2010-07-28T10:39:21Z</time></trkpt>
	<trkpt lat="51.74476833" lon="-2.156758333"><ele>151.000000</ele><time>2010-07-28T10:39:26Z</time></trkpt>
	<trkpt lat="51.74481333" lon="-2.156665"><ele>153.000000</ele><time>2010-07-28T10:39:31Z</time></trkpt>
	<trkpt lat="51.74489167" lon="-2.156548333"><ele>160.000000</ele><time>2010-07-28T10:39:36Z</time></trkpt>
	<trkpt lat="51.744915" lon="-2.156501667"><ele>158.000000</ele><time>2010-07-28T10:39:41Z</time></trkpt>
	<trkpt lat="51.74496667" lon="-2.156416667"><ele>155.000000</ele><time>2010-07-28T10:39:46Z</time></trkpt>
	<trkpt lat="51.74498" lon="-2.156358333"><ele>157.000000</ele><time>2010-07-28T10:39:51Z</time></trkpt>
	<trkpt lat="51.74496667" lon="-2.156331667"><ele>155.000000</ele><time>2010-07-28T10:39:56Z</time></trkpt>
	<trkpt lat="51.74492667" lon="-2.156356667"><ele>151.000000</ele><time>2010-07-28T10:40:01Z</time></trkpt>
	<trkpt lat="51.74487333" lon="-2.156361667"><ele>152.000000</ele><time>2010-07-28T10:40:06Z</time></trkpt>
	<trkpt lat="51.74480833" lon="-2.156346667"><ele>151.000000</ele><time>2010-07-28T10:40:11Z</time></trkpt>
	<trkpt lat="51.74482167" lon="-2.156273333"><ele>152.000000</ele><time>2010-07-28T10:40:16Z</time></trkpt>
	<trkpt lat="51.74480833" lon="-2.156216667"><ele>151.000000</ele><time>2010-07-28T10:40:21Z</time></trkpt>
	<trkpt lat="51.74476" lon="-2.156161667"><ele>144.000000</ele><time>2010-07-28T10:40:26Z</time></trkpt>
	<trkpt lat="51.74471167" lon="-2.156093333"><ele>141.000000</ele><time>2010-07-28T10:40:31Z</time></trkpt>
	<trkpt lat="51.744715" lon="-2.156026667"><ele>142.000000</ele><time>2010-07-28T10:40:36Z</time></trkpt>
	<trkpt lat="51.74475667" lon="-2.155955"><ele>144.000000</ele><time>2010-07-28T10:40:41Z</time></trkpt>
	<trkpt lat="51.74474667" lon="-2.155918333"><ele>148.000000</ele><time>2010-07-28T10:40:46Z</time></trkpt>
	<trkpt lat="51.74472167" lon="-2.155896667"><ele>150.000000</ele><time>2010-07-28T10:40:51Z</time></trkpt>
	<trkpt lat="51.744715" lon="-2.155876667"><ele>151.000000</ele><time>2010-07-28T10:40:56Z</time></trkpt>
	<trkpt lat="51.74470667" lon="-2.155823333"><ele>150.000000</ele><time>2010-07-28T10:41:01Z</time></trkpt>
	<trkpt lat="51.74469" lon="-2.155775"><ele>152.000000</ele><time>2010-07-28T10:41:06Z</time></trkpt>
	<trkpt lat="51.74463333" lon="-2.155756667"><ele>154.000000</ele><time>2010-07-28T10:41:11Z</time></trkpt>
	<trkpt lat="51.74465" lon="-2.155693333"><ele>161.000000</ele><time>2010-07-28T10:41:17Z</time></trkpt>
	<trkpt lat="51.74464167" lon="-2.155683333"><ele>162.000000</ele><time>2010-07-28T10:41:22Z</time></trkpt>
	<trkpt lat="51.74462167" lon="-2.1557"><ele>164.000000</ele><time>2010-07-28T10:41:28Z</time></trkpt>
	<trkpt lat="51.74461" lon="-2.155713333"><ele>165.000000</ele><time>2010-07-28T10:41:33Z</time></trkpt>
	<trkpt lat="51.744615" lon="-2.155705"><ele>164.000000</ele><time>2010-07-28T10:41:38Z</time></trkpt>
	<trkpt lat="51.744575" lon="-2.155696667"><ele>161.000000</ele><time>2010-07-28T10:41:43Z</time></trkpt>
	<trkpt lat="51.744605" lon="-2.155646667"><ele>160.000000</ele><time>2010-07-28T10:41:48Z</time></trkpt>
	<trkpt lat="51.74459833" lon="-2.155588333"><ele>160.000000</ele><time>2010-07-28T10:41:54Z</time></trkpt>
	<trkpt lat="51.74454" lon="-2.155616667"><ele>162.000000</ele><time>2010-07-28T10:42:00Z</time></trkpt>
	<trkpt lat="51.74453" lon="-2.15561"><ele>168.000000</ele><time>2010-07-28T10:42:05Z</time></trkpt>
	<trkpt lat="51.74455333" lon="-2.155598333"><ele>169.000000</ele><time>2010-07-28T10:42:11Z</time></trkpt>
	<trkpt lat="51.74459167" lon="-2.15558"><ele>168.000000</ele><time>2010-07-28T10:42:16Z</time></trkpt>
	<trkpt lat="51.74463333" lon="-2.155566667"><ele>170.000000</ele><time>2010-07-28T10:42:21Z</time></trkpt>
	<trkpt lat="51.744695" lon="-2.155535"><ele>175.000000</ele><time>2010-07-28T10:42:27Z</time></trkpt>
	<trkpt lat="51.74472667" lon="-2.155525"><ele>178.000000</ele><time>2010-07-28T10:42:32Z</time></trkpt>
	<trkpt lat="51.74478167" lon="-2.155531667"><ele>180.000000</ele><time>2010-07-28T10:42:38Z</time></trkpt>
	<trkpt lat="51.74482" lon="-2.155505"><ele>182.000000</ele><time>2010-07-28T10:42:43Z</time></trkpt>
	<trkpt lat="51.74484167" lon="-2.155495"><ele>183.000000</ele><time>2010-07-28T10:42:49Z</time></trkpt>
	<trkpt lat="51.74485667" lon="-2.155478333"><ele>184.000000</ele><time>2010-07-28T10:42:54Z</time></trkpt>
	<trkpt lat="51.74491" lon="-2.155436667"><ele>177.000000</ele><time>2010-07-28T10:42:59Z</time></trkpt>
	<trkpt lat="51.74492833" lon="-2.155353333"><ele>171.000000</ele><time>2010-07-28T10:43:05Z</time></trkpt>
	<trkpt lat="51.74493333" lon="-2.155285"><ele>168.000000</ele><time>2010-07-28T10:43:10Z</time></trkpt>
	<trkpt lat="51.74492" lon="-2.155263333"><ele>168.000000</ele><time>2010-07-28T10:43:15Z</time></trkpt>
	<trkpt lat="51.74492167" lon="-2.1552"><ele>169.000000</ele><time>2010-07-28T10:43:20Z</time></trkpt>
	<trkpt lat="51.744915" lon="-2.155148333"><ele>168.000000</ele><time>2010-07-28T10:43:25Z</time></trkpt>
	<trkpt lat="51.74491" lon="-2.155126667"><ele>170.000000</ele><time>2010-07-28T10:43:30Z</time></trkpt>
	<trkpt lat="51.74489" lon="-2.155113333"><ele>169.000000</ele><time>2010-07-28T10:43:35Z</time></trkpt>
	<trkpt lat="51.74486833" lon="-2.155081667"><ele>168.000000</ele><time>2010-07-28T10:43:40Z</time></trkpt>
	<trkpt lat="51.74484667" lon="-2.155043333"><ele>165.000000</ele><time>2010-07-28T10:43:45Z</time></trkpt>
	<trkpt lat="51.74483" lon="-2.154986667"><ele>164.000000</ele><time>2010-07-28T10:43:50Z</time></trkpt>
	<trkpt lat="51.74480833" lon="-2.15493"><ele>163.000000</ele><time>2010-07-28T10:43:55Z</time></trkpt>
	<trkpt lat="51.744795" lon="-2.15484"><ele>163.000000</ele><time>2010-07-28T10:44:00Z</time></trkpt>
	<trkpt lat="51.74477667" lon="-2.154761667"><ele>162.000000</ele><time>2010-07-28T10:44:05Z</time></trkpt>
	<trkpt lat="51.74476333" lon="-2.154708333"><ele>164.000000</ele><time>2010-07-28T10:44:10Z</time></trkpt>
	<trkpt lat="51.74474833" lon="-2.154665"><ele>165.000000</ele><time>2010-07-28T10:44:15Z</time></trkpt>
	<trkpt lat="51.74473333" lon="-2.154623333"><ele>169.000000</ele><time>2010-07-28T10:44:20Z</time></trkpt>
	<trkpt lat="51.74471167" lon="-2.154585"><ele>171.000000</ele><time>2010-07-28T10:44:25Z</time></trkpt>
	<trkpt lat="51.74469667" lon="-2.154493333"><ele>172.000000</ele><time>2010-07-28T10:44:30Z</time></trkpt>
	<trkpt lat="51.74468167" lon="-2.154391667"><ele>171.000000</ele><time>2010-07-28T10:44:36Z</time></trkpt>
	<trkpt lat="51.74466333" lon="-2.15435"><ele>171.000000</ele><time>2010-07-28T10:44:41Z</time></trkpt>
	<trkpt lat="51.744655" lon="-2.154271667"><ele>171.000000</ele><time>2010-07-28T10:44:46Z</time></trkpt>
	<trkpt lat="51.74466667" lon="-2.154201667"><ele>168.000000</ele><time>2010-07-28T10:44:51Z</time></trkpt>
	<trkpt lat="51.744675" lon="-2.154143333"><ele>168.000000</ele><time>2010-07-28T10:44:56Z</time></trkpt>
	<trkpt lat="51.74467167" lon="-2.154068333"><ele>168.000000</ele><time>2010-07-28T10:45:01Z</time></trkpt>
	<trkpt lat="51.74466333" lon="-2.153986667"><ele>168.000000</ele><time>2010-07-28T10:45:06Z</time></trkpt>
	<trkpt lat="51.744655" lon="-2.153926667"><ele>169.000000</ele><time>2010-07-28T10:45:11Z</time></trkpt>
	<trkpt lat="51.744635" lon="-2.153873333"><ele>173.000000</ele><time>2010-07-28T10:45:16Z</time></trkpt>
	<trkpt lat="51.74462167" lon="-2.153843333"><ele>176.000000</ele><time>2010-07-28T10:45:21Z</time></trkpt>
	<trkpt lat="51.74461333" lon="-2.153773333"><ele>178.000000</ele><time>2010-07-28T10:45:26Z</time></trkpt>
	<trkpt lat="51.74458667" lon="-2.153733333"><ele>180.000000</ele><time>2010-07-28T10:45:31Z</time></trkpt>
	<trkpt lat="51.74455" lon="-2.153698333"><ele>184.000000</ele><time>2010-07-28T10:45:36Z</time></trkpt>
	<trkpt lat="51.74452333" lon="-2.153638333"><ele>189.000000</ele><time>2010-07-28T10:45:41Z</time></trkpt>
	<trkpt lat="51.74451333" lon="-2.153558333"><ele>190.000000</ele><time>2010-07-28T10:45:46Z</time></trkpt>
	<trkpt lat="51.744515" lon="-2.153505"><ele>186.000000</ele><time>2010-07-28T10:45:51Z</time></trkpt>
	<trkpt lat="51.744525" lon="-2.15341"><ele>180.000000</ele><time>2010-07-28T10:45:56Z</time></trkpt>
	<trkpt lat="51.744535" lon="-2.15335"><ele>177.000000</ele><time>2010-07-28T10:46:01Z</time></trkpt>
	<trkpt lat="51.74453" lon="-2.153306667"><ele>177.000000</ele><time>2010-07-28T10:46:06Z</time></trkpt>
	<trkpt lat="51.74451667" lon="-2.153238333"><ele>178.000000</ele><time>2010-07-28T10:46:11Z</time></trkpt>
	<trkpt lat="51.74451" lon="-2.153176667"><ele>177.000000</ele><time>2010-07-28T10:46:16Z</time></trkpt>
	<trkpt lat="51.744525" lon="-2.153085"><ele>171.000000</ele><time>2010-07-28T10:46:21Z</time></trkpt>
	<trkpt lat="51.74450667" lon="-2.153036667"><ele>170.000000</ele><time>2010-07-28T10:46:26Z</time></trkpt>
	<trkpt lat="51.74450167" lon="-2.152971667"><ele>170.000000</ele><time>2010-07-28T10:46:31Z</time></trkpt>
	<trkpt lat="51.74450167" lon="-2.152898333"><ele>172.000000</ele><time>2010-07-28T10:46:36Z</time></trkpt>
	<trkpt lat="51.74448667" lon="-2.152856667"><ele>177.000000</ele><time>2010-07-28T10:46:41Z</time></trkpt>
	<trkpt lat="51.74447833" lon="-2.152798333"><ele>177.000000</ele><time>2010-07-28T10:46:46Z</time></trkpt>
	<trkpt lat="51.74447167" lon="-2.152735"><ele>178.000000</ele><time>2010-07-28T10:46:51Z</time></trkpt>
	<trkpt lat="51.74446667" lon="-2.15266"><ele>174.000000</ele><time>2010-07-28T10:46:56Z</time></trkpt>
	<trkpt lat="51.74445" lon="-2.152596667"><ele>173.000000</ele><time>2010-07-28T10:47:01Z</time></trkpt>
	<trkpt lat="51.74444167" lon="-2.152521667"><ele>172.000000</ele><time>2010-07-28T10:47:06Z</time></trkpt>
	<trkpt lat="51.744445" lon="-2.15246"><ele>172.000000</ele><time>2010-07-28T10:47:11Z</time></trkpt>
	<trkpt lat="51.74444667" lon="-2.152398333"><ele>171.000000</ele><time>2010-07-28T10:47:16Z</time></trkpt>
	<trkpt lat="51.74445167" lon="-2.152343333"><ele>167.000000</ele><time>2010-07-28T10:47:21Z</time></trkpt>
	<trkpt lat="51.74443" lon="-2.152295"><ele>168.000000</ele><time>2010-07-28T10:47:26Z</time></trkpt>
	<trkpt lat="51.74444667" lon="-2.152226667"><ele>168.000000</ele><time>2010-07-28T10:47:31Z</time></trkpt>
	<trkpt lat="51.74440333" lon="-2.15216"><ele>169.000000</ele><time>2010-07-28T10:47:36Z</time></trkpt>
	<trkpt lat="51.74438167" lon="-2.152086667"><ele>169.000000</ele><time>2010-07-28T10:47:41Z</time></trkpt>
	<trkpt lat="51.74440167" lon="-2.152028333"><ele>168.000000</ele><time>2010-07-28T10:47:46Z</time></trkpt>
	<trkpt lat="51.74439667" lon="-2.151988333"><ele>167.000000</ele><time>2010-07-28T10:47:51Z</time></trkpt>
	<trkpt lat="51.74439" lon="-2.151933333"><ele>164.000000</ele><time>2010-07-28T10:47:56Z</time></trkpt>
	<trkpt lat="51.74435833" lon="-2.151888333"><ele>162.000000</ele><time>2010-07-28T10:48:01Z</time></trkpt>
	<trkpt lat="51.74434" lon="-2.151808333"><ele>159.000000</ele><time>2010-07-28T10:48:06Z</time></trkpt>
	<trkpt lat="51.74435667" lon="-2.151701667"><ele>162.000000</ele><time>2010-07-28T10:48:11Z</time></trkpt>
	<trkpt lat="51.744395" lon="-2.151603333"><ele>166.000000</ele><time>2010-07-28T10:48:17Z</time></trkpt>
	<trkpt lat="51.74445167" lon="-2.151528333"><ele>169.000000</ele><time>2010-07-28T10:48:22Z</time></trkpt>
	<trkpt lat="51.7445" lon="-2.151473333"><ele>167.000000</ele><time>2010-07-28T10:48:27Z</time></trkpt>
	<trkpt lat="51.74454667" lon="-2.151433333"><ele>166.000000</ele><time>2010-07-28T10:48:32Z</time></trkpt>
	<trkpt lat="51.744565" lon="-2.151425"><ele>164.000000</ele><time>2010-07-28T10:48:37Z</time></trkpt>
	<trkpt lat="51.74455167" lon="-2.1514"><ele>164.000000</ele><time>2010-07-28T10:48:42Z</time></trkpt>
	<trkpt lat="51.74454667" lon="-2.151371667"><ele>163.000000</ele><time>2010-07-28T10:48:47Z</time></trkpt>
	<trkpt lat="51.7445" lon="-2.151351667"><ele>163.000000</ele><time>2010-07-28T10:48:52Z</time></trkpt>
	<trkpt lat="51.74449" lon="-2.15131"><ele>164.000000</ele><time>2010-07-28T10:48:57Z</time></trkpt>
	<trkpt lat="51.74450167" lon="-2.151261667"><ele>164.000000</ele><time>2010-07-28T10:49:02Z</time></trkpt>
	<trkpt lat="51.74452" lon="-2.151218333"><ele>163.000000</ele><time>2010-07-28T10:49:07Z</time></trkpt>
	<trkpt lat="51.74452" lon="-2.151216667"><ele>166.000000</ele><time>2010-07-28T10:49:12Z</time></trkpt>
	<trkpt lat="51.74452667" lon="-2.151205"><ele>166.000000</ele><time>2010-07-28T10:49:17Z</time></trkpt>
	<trkpt lat="51.74453167" lon="-2.151176667"><ele>169.000000</ele><time>2010-07-28T10:49:22Z</time></trkpt>
	<trkpt lat="51.74454333" lon="-2.151145"><ele>172.000000</ele><time>2010-07-28T10:49:27Z</time></trkpt>
	<trkpt lat="51.744555" lon="-2.151076667"><ele>175.000000</ele><time>2010-07-28T10:49:33Z</time></trkpt>
	<trkpt lat="51.74457667" lon="-2.151045"><ele>176.000000</ele><time>2010-07-28T10:49:38Z</time></trkpt>
	<trkpt lat="51.74459" lon="-2.150995"><ele>177.000000</ele><time>2010-07-28T10:49:43Z</time></trkpt>
	<trkpt lat="51.74460667" lon="-2.150946667"><ele>178.000000</ele><time>2010-07-28T10:49:48Z</time></trkpt>
	<trkpt lat="51.74462167" lon="-2.150898333"><ele>180.000000</ele><time>2010-07-28T10:49:53Z</time></trkpt>
	<trkpt lat="51.74464" lon="-2.150845"><ele>181.000000</ele><time>2010-07-28T10:49:59Z</time></trkpt>
	<trkpt lat="51.74465667" lon="-2.1508"><ele>182.000000</ele><time>2010-07-28T10:50:04Z</time></trkpt>
	<trkpt lat="51.74469" lon="-2.150728333"><ele>181.000000</ele><time>2010-07-28T10:50:09Z</time></trkpt>
	<trkpt lat="51.74467667" lon="-2.150705"><ele>186.000000</ele><time>2010-07-28T10:50:14Z</time></trkpt>
	<trkpt lat="51.744695" lon="-2.150655"><ele>189.000000</ele><time>2010-07-28T10:50:20Z</time></trkpt>
	<trkpt lat="51.74471167" lon="-2.150611667"><ele>192.000000</ele><time>2010-07-28T10:50:26Z</time></trkpt>
	<trkpt lat="51.74471667" lon="-2.150608333"><ele>198.000000</ele><time>2010-07-28T10:50:32Z</time></trkpt>
	<trkpt lat="51.74476333" lon="-2.15053"><ele>195.000000</ele><time>2010-07-28T10:50:37Z</time></trkpt>
	<trkpt lat="51.744855" lon="-2.150415"><ele>187.000000</ele><time>2010-07-28T10:50:43Z</time></trkpt>
	<trkpt lat="51.74490667" lon="-2.15034"><ele>182.000000</ele><time>2010-07-28T10:50:48Z</time></trkpt>
	<trkpt lat="51.74496167" lon="-2.150248333"><ele>175.000000</ele><time>2010-07-28T10:50:54Z</time></trkpt>
	<trkpt lat="51.74499" lon="-2.150213333"><ele>170.000000</ele><time>2010-07-28T10:50:59Z</time></trkpt>
	<trkpt lat="51.74501167" lon="-2.150173333"><ele>169.000000</ele><time>2010-07-28T10:51:04Z</time></trkpt>
	<trkpt lat="51.745035" lon="-2.150126667"><ele>165.000000</ele><time>2010-07-28T10:51:09Z</time></trkpt>
	<trkpt lat="51.74505333" lon="-2.150103333"><ele>164.000000</ele><time>2010-07-28T10:51:14Z</time></trkpt>
	<trkpt lat="51.74508" lon="-2.150048333"><ele>168.000000</ele><time>2010-07-28T10:51:19Z</time></trkpt>
	<trkpt lat="51.74508167" lon="-2.150005"><ele>174.000000</ele><time>2010-07-28T10:51:25Z</time></trkpt>
	<trkpt lat="51.745115" lon="-2.149901667"><ele>170.000000</ele><time>2010-07-28T10:51:30Z</time></trkpt>
	<trkpt lat="51.74510833" lon="-2.149835"><ele>170.000000</ele><time>2010-07-28T10:51:35Z</time></trkpt>
	<trkpt lat="51.74510167" lon="-2.14977"><ele>171.000000</ele><time>2010-07-28T10:51:40Z</time></trkpt>
	<trkpt lat="51.74513833" lon="-2.149711667"><ele>171.000000</ele><time>2010-07-28T10:51:45Z</time></trkpt>
	<trkpt lat="51.74515" lon="-2.14966"><ele>173.000000</ele><time>2010-07-28T10:51:51Z</time></trkpt>
	<trkpt lat="51.74517833" lon="-2.149578333"><ele>171.000000</ele><time>2010-07-28T10:51:56Z</time></trkpt>
	<trkpt lat="51.745215" lon="-2.149473333"><ele>171.000000</ele><time>2010-07-28T10:52:02Z</time></trkpt>
	<trkpt lat="51.74526167" lon="-2.149406667"><ele>171.000000</ele><time>2010-07-28T10:52:07Z</time></trkpt>
	<trkpt lat="51.74530167" lon="-2.149363333"><ele>172.000000</ele><time>2010-07-28T10:52:12Z</time></trkpt>
	<trkpt lat="51.74534167" lon="-2.149303333"><ele>172.000000</ele><time>2010-07-28T10:52:17Z</time></trkpt>
	<trkpt lat="51.74536833" lon="-2.149238333"><ele>173.000000</ele><time>2010-07-28T10:52:23Z</time></trkpt>
	<trkpt lat="51.74539" lon="-2.149201667"><ele>172.000000</ele><time>2010-07-28T10:52:28Z</time></trkpt>
	<trkpt lat="51.74539333" lon="-2.149171667"><ele>171.000000</ele><time>2010-07-28T10:52:33Z</time></trkpt>
	<trkpt lat="51.745415" lon="-2.149121667"><ele>173.000000</ele><time>2010-07-28T10:52:38Z</time></trkpt>
	<trkpt lat="51.74542" lon="-2.14905"><ele>177.000000</ele><time>2010-07-28T10:52:43Z</time></trkpt>
	<trkpt lat="51.74542" lon="-2.148993333"><ele>181.000000</ele><time>2010-07-28T10:52:48Z</time></trkpt>
	<trkpt lat="51.74542667" lon="-2.148921667"><ele>183.000000</ele><time>2010-07-28T10:52:54Z</time></trkpt>
	<trkpt lat="51.74542667" lon="-2.148848333"><ele>185.000000</ele><time>2010-07-28T10:53:00Z</time></trkpt>
	<trkpt lat="51.74543" lon="-2.148771667"><ele>184.000000</ele><time>2010-07-28T10:53:05Z</time></trkpt>
	<trkpt lat="51.74545167" lon="-2.148685"><ele>181.000000</ele><time>2010-07-28T10:53:10Z</time></trkpt>
	<trkpt lat="51.74548333" lon="-2.14859"><ele>176.000000</ele><time>2010-07-28T10:53:15Z</time></trkpt>
	<trkpt lat="51.74551833" lon="-2.148533333"><ele>175.000000</ele><time>2010-07-28T10:53:20Z</time></trkpt>
	<trkpt lat="51.74554333" lon="-2.148458333"><ele>177.000000</ele><time>2010-07-28T10:53:25Z</time></trkpt>
	<trkpt lat="51.74556167" lon="-2.148388333"><ele>180.000000</ele><time>2010-07-28T10:53:30Z</time></trkpt>
	<trkpt lat="51.74559333" lon="-2.148298333"><ele>180.000000</ele><time>2010-07-28T10:53:36Z</time></trkpt>
	<trkpt lat="51.74561833" lon="-2.148215"><ele>181.000000</ele><time>2010-07-28T10:53:42Z</time></trkpt>
	<trkpt lat="51.745645" lon="-2.148136667"><ele>181.000000</ele><time>2010-07-28T10:53:48Z</time></trkpt>
	<trkpt lat="51.74566333" lon="-2.14806"><ele>181.000000</ele><time>2010-07-28T10:53:53Z</time></trkpt>
	<trkpt lat="51.74568833" lon="-2.147988333"><ele>181.000000</ele><time>2010-07-28T10:53:58Z</time></trkpt>
	<trkpt lat="51.74571167" lon="-2.147915"><ele>182.000000</ele><time>2010-07-28T10:54:03Z</time></trkpt>
	<trkpt lat="51.74573667" lon="-2.147828333"><ele>181.000000</ele><time>2010-07-28T10:54:08Z</time></trkpt>
	<trkpt lat="51.74576" lon="-2.147736667"><ele>179.000000</ele><time>2010-07-28T10:54:13Z</time></trkpt>
	<trkpt lat="51.74578833" lon="-2.147661667"><ele>179.000000</ele><time>2010-07-28T10:54:18Z</time></trkpt>
	<trkpt lat="51.74582" lon="-2.147593333"><ele>179.000000</ele><time>2010-07-28T10:54:23Z</time></trkpt>
	<trkpt lat="51.74584333" lon="-2.147523333"><ele>178.000000</ele><time>2010-07-28T10:54:28Z</time></trkpt>
	<trkpt lat="51.74587167" lon="-2.147455"><ele>179.000000</ele><time>2010-07-28T10:54:33Z</time></trkpt>
	<trkpt lat="51.74590333" lon="-2.147363333"><ele>179.000000</ele><time>2010-07-28T10:54:39Z</time></trkpt>
	<trkpt lat="51.74593667" lon="-2.147291667"><ele>179.000000</ele><time>2010-07-28T10:54:44Z</time></trkpt>
	<trkpt lat="51.74597167" lon="-2.147223333"><ele>179.000000</ele><time>2010-07-28T10:54:49Z</time></trkpt>
	<trkpt lat="51.74600333" lon="-2.147151667"><ele>179.000000</ele><time>2010-07-28T10:54:54Z</time></trkpt>
	<trkpt lat="51.74603833" lon="-2.147078333"><ele>180.000000</ele><time>2010-07-28T10:55:00Z</time></trkpt>
	<trkpt lat="51.74606833" lon="-2.147013333"><ele>183.000000</ele><time>2010-07-28T10:55:06Z</time></trkpt>
	<trkpt lat="51.74609" lon="-2.146955"><ele>184.000000</ele><time>2010-07-28T10:55:11Z</time></trkpt>
	<trkpt lat="51.74609667" lon="-2.146895"><ele>187.000000</ele><time>2010-07-28T10:55:16Z</time></trkpt>
	<trkpt lat="51.74611" lon="-2.14683"><ele>189.000000</ele><time>2010-07-28T10:55:21Z</time></trkpt>
	<trkpt lat="51.746135" lon="-2.146763333"><ele>188.000000</ele><time>2010-07-28T10:55:26Z</time></trkpt>
	<trkpt lat="51.746155" lon="-2.146701667"><ele>188.000000</ele><time>2010-07-28T10:55:31Z</time></trkpt>
	<trkpt lat="51.74617167" lon="-2.146638333"><ele>188.000000</ele><time>2010-07-28T10:55:36Z</time></trkpt>
	<trkpt lat="51.74618667" lon="-2.146565"><ele>188.000000</ele><time>2010-07-28T10:55:41Z</time></trkpt>
	<trkpt lat="51.746195" lon="-2.146501667"><ele>189.000000</ele><time>2010-07-28T10:55:46Z</time></trkpt>
	<trkpt lat="51.74620333" lon="-2.146438333"><ele>190.000000</ele><time>2010-07-28T10:55:51Z</time></trkpt>
	<trkpt lat="51.74621167" lon="-2.146386667"><ele>191.000000</ele><time>2010-07-28T10:55:56Z</time></trkpt>
	<trkpt lat="51.746225" lon="-2.146351667"><ele>194.000000</ele><time>2010-07-28T10:56:01Z</time></trkpt>
	<trkpt lat="51.746235" lon="-2.146313333"><ele>195.000000</ele><time>2010-07-28T10:56:06Z</time></trkpt>
	<trkpt lat="51.74623833" lon="-2.146295"><ele>196.000000</ele><time>2010-07-28T10:56:11Z</time></trkpt>
	<trkpt lat="51.746235" lon="-2.146295"><ele>196.000000</ele><time>2010-07-28T10:56:16Z</time></trkpt>
	<trkpt lat="51.74627167" lon="-2.146281667"><ele>194.000000</ele><time>2010-07-28T10:56:21Z</time></trkpt>
	<trkpt lat="51.74628833" lon="-2.146238333"><ele>190.000000</ele><time>2010-07-28T10:56:26Z</time></trkpt>
	<trkpt lat="51.7463" lon="-2.146208333"><ele>191.000000</ele><time>2010-07-28T10:56:32Z</time></trkpt>
	<trkpt lat="51.746305" lon="-2.146175"><ele>194.000000</ele><time>2010-07-28T10:56:37Z</time></trkpt>
	<trkpt lat="51.74632167" lon="-2.146128333"><ele>191.000000</ele><time>2010-07-28T10:56:42Z</time></trkpt>
	<trkpt lat="51.74632833" lon="-2.146106667"><ele>188.000000</ele><time>2010-07-28T10:56:47Z</time></trkpt>
	<trkpt lat="51.74633667" lon="-2.14606"><ele>190.000000</ele><time>2010-07-28T10:56:52Z</time></trkpt>
	<trkpt lat="51.74636333" lon="-2.146073333"><ele>192.000000</ele><time>2010-07-28T10:56:57Z</time></trkpt>
	<trkpt lat="51.74642333" lon="-2.146078333"><ele>194.000000</ele><time>2010-07-28T10:57:02Z</time></trkpt>
	<trkpt lat="51.746455" lon="-2.14604"><ele>193.000000</ele><time>2010-07-28T10:57:07Z</time></trkpt>
	<trkpt lat="51.74647667" lon="-2.146015"><ele>191.000000</ele><time>2010-07-28T10:57:12Z</time></trkpt>
	<trkpt lat="51.746495" lon="-2.145996667"><ele>190.000000</ele><time>2010-07-28T10:57:17Z</time></trkpt>
	<trkpt lat="51.74650667" lon="-2.145968333"><ele>188.000000</ele><time>2010-07-28T10:57:23Z</time></trkpt>
	<trkpt lat="51.74647333" lon="-2.145925"><ele>188.000000</ele><time>2010-07-28T10:57:28Z</time></trkpt>
	<trkpt lat="51.74645667" lon="-2.145871667"><ele>188.000000</ele><time>2010-07-28T10:57:33Z</time></trkpt>
	<trkpt lat="51.74645833" lon="-2.145881667"><ele>189.000000</ele><time>2010-07-28T10:57:38Z</time></trkpt>
	<trkpt lat="51.746465" lon="-2.145858333"><ele>187.000000</ele><time>2010-07-28T10:57:44Z</time></trkpt>
	<trkpt lat="51.746465" lon="-2.145806667"><ele>188.000000</ele><time>2010-07-28T10:57:50Z</time></trkpt>
	<trkpt lat="51.74645833" lon="-2.145776667"><ele>187.000000</ele><time>2010-07-28T10:57:55Z</time></trkpt>
	<trkpt lat="51.74645" lon="-2.145696667"><ele>186.000000</ele><time>2010-07-28T10:58:00Z</time></trkpt>
	<trkpt lat="51.74645" lon="-2.14564"><ele>188.000000</ele><time>2010-07-28T10:58:05Z</time></trkpt>
	<trkpt lat="51.74644833" lon="-2.145586667"><ele>191.000000</ele><time>2010-07-28T10:58:10Z</time></trkpt>
	<trkpt lat="51.74645" lon="-2.145521667"><ele>191.000000</ele><time>2010-07-28T10:58:15Z</time></trkpt>
	<trkpt lat="51.74646333" lon="-2.14544"><ele>190.000000</ele><time>2010-07-28T10:58:20Z</time></trkpt>
	<trkpt lat="51.74647167" lon="-2.14535"><ele>188.000000</ele><time>2010-07-28T10:58:25Z</time></trkpt>
	<trkpt lat="51.74648333" lon="-2.14529"><ele>191.000000</ele><time>2010-07-28T10:58:30Z</time></trkpt>
	<trkpt lat="51.74648" lon="-2.145245"><ele>191.000000</ele><time>2010-07-28T10:58:35Z</time></trkpt>
	<trkpt lat="51.746485" lon="-2.145198333"><ele>189.000000</ele><time>2010-07-28T10:58:40Z</time></trkpt>
	<trkpt lat="51.74648333" lon="-2.145128333"><ele>185.000000</ele><time>2010-07-28T10:58:46Z</time></trkpt>
	<trkpt lat="51.74648833" lon="-2.145086667"><ele>186.000000</ele><time>2010-07-28T10:58:51Z</time></trkpt>
	<trkpt lat="51.74648" lon="-2.145033333"><ele>189.000000</ele><time>2010-07-28T10:58:56Z</time></trkpt>
	<trkpt lat="51.74647333" lon="-2.144976667"><ele>190.000000</ele><time>2010-07-28T10:59:01Z</time></trkpt>
	<trkpt lat="51.74645833" lon="-2.144905"><ele>191.000000</ele><time>2010-07-28T10:59:06Z</time></trkpt>
	<trkpt lat="51.74645" lon="-2.144835"><ele>192.000000</ele><time>2010-07-28T10:59:11Z</time></trkpt>
	<trkpt lat="51.746445" lon="-2.14475"><ele>192.000000</ele><time>2010-07-28T10:59:16Z</time></trkpt>
	<trkpt lat="51.74644667" lon="-2.144676667"><ele>193.000000</ele><time>2010-07-28T10:59:21Z</time></trkpt>
	<trkpt lat="51.746445" lon="-2.144611667"><ele>195.000000</ele><time>2010-07-28T10:59:26Z</time></trkpt>
	<trkpt lat="51.74645667" lon="-2.14452"><ele>194.000000</ele><time>2010-07-28T10:59:31Z</time></trkpt>
	<trkpt lat="51.74646" lon="-2.144438333"><ele>195.000000</ele><time>2010-07-28T10:59:36Z</time></trkpt>
	<trkpt lat="51.746475" lon="-2.144336667"><ele>194.000000</ele><time>2010-07-28T10:59:41Z</time></trkpt>
	<trkpt lat="51.74649333" lon="-2.144255"><ele>193.000000</ele><time>2010-07-28T10:59:46Z</time></trkpt>
	<trkpt lat="51.74650667" lon="-2.144173333"><ele>193.000000</ele><time>2010-07-28T10:59:51Z</time></trkpt>
	<trkpt lat="51.74653" lon="-2.144088333"><ele>192.000000</ele><time>2010-07-28T10:59:56Z</time></trkpt>
	<trkpt lat="51.74656" lon="-2.144031667"><ele>189.000000</ele><time>2010-07-28T11:00:01Z</time></trkpt>
	<trkpt lat="51.74656333" lon="-2.144008333"><ele>186.000000</ele><time>2010-07-28T11:00:06Z</time></trkpt>
	<trkpt lat="51.74656167" lon="-2.143995"><ele>185.000000</ele><time>2010-07-28T11:00:11Z</time></trkpt>
	<trkpt lat="51.74657667" lon="-2.143956667"><ele>186.000000</ele><time>2010-07-28T11:00:16Z</time></trkpt>
	<trkpt lat="51.74658833" lon="-2.143895"><ele>187.000000</ele><time>2010-07-28T11:00:21Z</time></trkpt>
	<trkpt lat="51.74661833" lon="-2.143821667"><ele>187.000000</ele><time>2010-07-28T11:00:26Z</time></trkpt>
	<trkpt lat="51.74663" lon="-2.14376"><ele>189.000000</ele><time>2010-07-28T11:00:31Z</time></trkpt>
	<trkpt lat="51.74665167" lon="-2.143688333"><ele>188.000000</ele><time>2010-07-28T11:00:36Z</time></trkpt>
	<trkpt lat="51.746675" lon="-2.143621667"><ele>189.000000</ele><time>2010-07-28T11:00:41Z</time></trkpt>
	<trkpt lat="51.7467" lon="-2.143561667"><ele>189.000000</ele><time>2010-07-28T11:00:46Z</time></trkpt>
	<trkpt lat="51.74672667" lon="-2.143496667"><ele>189.000000</ele><time>2010-07-28T11:00:51Z</time></trkpt>
	<trkpt lat="51.74674333" lon="-2.143445"><ele>190.000000</ele><time>2010-07-28T11:00:56Z</time></trkpt>
	<trkpt lat="51.74674333" lon="-2.143425"><ele>190.000000</ele><time>2010-07-28T11:01:01Z</time></trkpt>
	<trkpt lat="51.74676333" lon="-2.143381667"><ele>191.000000</ele><time>2010-07-28T11:01:06Z</time></trkpt>
	<trkpt lat="51.746795" lon="-2.143321667"><ele>191.000000</ele><time>2010-07-28T11:01:11Z</time></trkpt>
	<trkpt lat="51.74683833" lon="-2.143281667"><ele>192.000000</ele><time>2010-07-28T11:01:16Z</time></trkpt>
	<trkpt lat="51.74685167" lon="-2.143276667"><ele>191.000000</ele><time>2010-07-28T11:01:21Z</time></trkpt>
	<trkpt lat="51.74687833" lon="-2.143263333"><ele>191.000000</ele><time>2010-07-28T11:01:26Z</time></trkpt>
	<trkpt lat="51.746905" lon="-2.143255"><ele>191.000000</ele><time>2010-07-28T11:01:31Z</time></trkpt>
	<trkpt lat="51.746945" lon="-2.143233333"><ele>192.000000</ele><time>2010-07-28T11:01:36Z</time></trkpt>
	<trkpt lat="51.74696833" lon="-2.143231667"><ele>196.000000</ele><time>2010-07-28T11:01:42Z</time></trkpt>
	<trkpt lat="51.74700167" lon="-2.143231667"><ele>199.000000</ele><time>2010-07-28T11:01:47Z</time></trkpt>
	<trkpt lat="51.74703333" lon="-2.143223333"><ele>199.000000</ele><time>2010-07-28T11:01:52Z</time></trkpt>
	<trkpt lat="51.74704167" lon="-2.143196667"><ele>195.000000</ele><time>2010-07-28T11:01:57Z</time></trkpt>
	<trkpt lat="51.74707667" lon="-2.143165"><ele>193.000000</ele><time>2010-07-28T11:02:02Z</time></trkpt>
	<trkpt lat="51.74711833" lon="-2.143165"><ele>194.000000</ele><time>2010-07-28T11:02:07Z</time></trkpt>
	<trkpt lat="51.74716333" lon="-2.143156667"><ele>194.000000</ele><time>2010-07-28T11:02:12Z</time></trkpt>
	<trkpt lat="51.747205" lon="-2.143135"><ele>199.000000</ele><time>2010-07-28T11:02:17Z</time></trkpt>
	<trkpt lat="51.74724833" lon="-2.143131667"><ele>203.000000</ele><time>2010-07-28T11:02:22Z</time></trkpt>
	<trkpt lat="51.74730167" lon="-2.143125"><ele>205.000000</ele><time>2010-07-28T11:02:27Z</time></trkpt>
	<trkpt lat="51.747345" lon="-2.143116667"><ele>207.000000</ele><time>2010-07-28T11:02:32Z</time></trkpt>
	<trkpt lat="51.74738167" lon="-2.143098333"><ele>210.000000</ele><time>2010-07-28T11:02:37Z</time></trkpt>
	<trkpt lat="51.74743833" lon="-2.14306"><ele>208.000000</ele><time>2010-07-28T11:02:42Z</time></trkpt>
	<trkpt lat="51.747475" lon="-2.14304"><ele>210.000000</ele><time>2010-07-28T11:02:47Z</time></trkpt>
	<trkpt lat="51.74752" lon="-2.142985"><ele>209.000000</ele><time>2010-07-28T11:02:53Z</time></trkpt>
	<trkpt lat="51.74757333" lon="-2.142918333"><ele>205.000000</ele><time>2010-07-28T11:02:58Z</time></trkpt>
	<trkpt lat="51.74760667" lon="-2.142871667"><ele>204.000000</ele><time>2010-07-28T11:03:03Z</time></trkpt>
	<trkpt lat="51.74764167" lon="-2.14282"><ele>204.000000</ele><time>2010-07-28T11:03:08Z</time></trkpt>
	<trkpt lat="51.74768167" lon="-2.142778333"><ele>207.000000</ele><time>2010-07-28T11:03:14Z</time></trkpt>
	<trkpt lat="51.74770833" lon="-2.142761667"><ele>211.000000</ele><time>2010-07-28T11:03:19Z</time></trkpt>
	<trkpt lat="51.747745" lon="-2.142746667"><ele>214.000000</ele><time>2010-07-28T11:03:24Z</time></trkpt>
	<trkpt lat="51.74776833" lon="-2.142735"><ele>218.000000</ele><time>2010-07-28T11:03:29Z</time></trkpt>
	<trkpt lat="51.7478" lon="-2.142698333"><ele>221.000000</ele><time>2010-07-28T11:03:34Z</time></trkpt>
	<trkpt lat="51.74785833" lon="-2.142655"><ele>220.000000</ele><time>2010-07-28T11:03:40Z</time></trkpt>
	<trkpt lat="51.74793167" lon="-2.142596667"><ele>215.000000</ele><time>2010-07-28T11:03:46Z</time></trkpt>
	<trkpt lat="51.74793833" lon="-2.142556667"><ele>214.000000</ele><time>2010-07-28T11:03:51Z</time></trkpt>
	<trkpt lat="51.74796" lon="-2.142523333"><ele>212.000000</ele><time>2010-07-28T11:03:57Z</time></trkpt>
	<trkpt lat="51.74797167" lon="-2.142536667"><ele>210.000000</ele><time>2010-07-28T11:04:02Z</time></trkpt>
	<trkpt lat="51.74797167" lon="-2.142551667"><ele>210.000000</ele><time>2010-07-28T11:04:07Z</time></trkpt>
	<trkpt lat="51.748" lon="-2.142531667"><ele>208.000000</ele><time>2010-07-28T11:04:12Z</time></trkpt>
	<trkpt lat="51.74805333" lon="-2.142571667"><ele>205.000000</ele><time>2010-07-28T11:04:17Z</time></trkpt>
	<trkpt lat="51.74809167" lon="-2.142626667"><ele>206.000000</ele><time>2010-07-28T11:04:22Z</time></trkpt>
	<trkpt lat="51.74813667" lon="-2.142663333"><ele>205.000000</ele><time>2010-07-28T11:04:27Z</time></trkpt>
	<trkpt lat="51.748195" lon="-2.142666667"><ele>205.000000</ele><time>2010-07-28T11:04:33Z</time></trkpt>
	<trkpt lat="51.74824833" lon="-2.142675"><ele>207.000000</ele><time>2010-07-28T11:04:38Z</time></trkpt>
	<trkpt lat="51.748285" lon="-2.142698333"><ele>209.000000</ele><time>2010-07-28T11:04:43Z</time></trkpt>
	<trkpt lat="51.74832667" lon="-2.142723333"><ele>210.000000</ele><time>2010-07-28T11:04:48Z</time></trkpt>
	<trkpt lat="51.74837333" lon="-2.14276"><ele>209.000000</ele><time>2010-07-28T11:04:53Z</time></trkpt>
	<trkpt lat="51.74841667" lon="-2.142761667"><ele>212.000000</ele><time>2010-07-28T11:04:58Z</time></trkpt>
	<trkpt lat="51.748465" lon="-2.142746667"><ele>218.000000</ele><time>2010-07-28T11:05:03Z</time></trkpt>
	<trkpt lat="51.7485" lon="-2.142755"><ele>223.000000</ele><time>2010-07-28T11:05:08Z</time></trkpt>
	<trkpt lat="51.74854667" lon="-2.142756667"><ele>224.000000</ele><time>2010-07-28T11:05:13Z</time></trkpt>
	<trkpt lat="51.74860167" lon="-2.142713333"><ele>226.000000</ele><time>2010-07-28T11:05:18Z</time></trkpt>
	<trkpt lat="51.748645" lon="-2.142706667"><ele>227.000000</ele><time>2010-07-28T11:05:23Z</time></trkpt>
	<trkpt lat="51.74868333" lon="-2.142726667"><ele>227.000000</ele><time>2010-07-28T11:05:28Z</time></trkpt>
	<trkpt lat="51.74871333" lon="-2.142713333"><ele>228.000000</ele><time>2010-07-28T11:05:33Z</time></trkpt>
	<trkpt lat="51.74874167" lon="-2.1427"><ele>227.000000</ele><time>2010-07-28T11:05:38Z</time></trkpt>
	<trkpt lat="51.74876667" lon="-2.142671667"><ele>224.000000</ele><time>2010-07-28T11:05:43Z</time></trkpt>
	<trkpt lat="51.74879167" lon="-2.142661667"><ele>221.000000</ele><time>2010-07-28T11:05:49Z</time></trkpt>
	<trkpt lat="51.74881833" lon="-2.142688333"><ele>220.000000</ele><time>2010-07-28T11:05:54Z</time></trkpt>
	<trkpt lat="51.748845" lon="-2.142661667"><ele>215.000000</ele><time>2010-07-28T11:05:59Z</time></trkpt>
	<trkpt lat="51.74887333" lon="-2.142656667"><ele>213.000000</ele><time>2010-07-28T11:06:05Z</time></trkpt>
	<trkpt lat="51.74888167" lon="-2.142628333"><ele>211.000000</ele><time>2010-07-28T11:06:10Z</time></trkpt>
	<trkpt lat="51.74888667" lon="-2.142636667"><ele>211.000000</ele><time>2010-07-28T11:06:15Z</time></trkpt>
	<trkpt lat="51.74889333" lon="-2.14264"><ele>210.000000</ele><time>2010-07-28T11:06:20Z</time></trkpt>
	<trkpt lat="51.74889333" lon="-2.142658333"><ele>211.000000</ele><time>2010-07-28T11:06:25Z</time></trkpt>
	<trkpt lat="51.74889167" lon="-2.142661667"><ele>211.000000</ele><time>2010-07-28T11:06:31Z</time></trkpt>
	<trkpt lat="51.74889833" lon="-2.142666667"><ele>213.000000</ele><time>2010-07-28T11:06:36Z</time></trkpt>
	<trkpt lat="51.74892" lon="-2.142663333"><ele>212.000000</ele><time>2010-07-28T11:06:41Z</time></trkpt>
	<trkpt lat="51.74893" lon="-2.142661667"><ele>211.000000</ele><time>2010-07-28T11:06:46Z</time></trkpt>
	<trkpt lat="51.748945" lon="-2.142655"><ele>211.000000</ele><time>2010-07-28T11:06:51Z</time></trkpt>
	<trkpt lat="51.74895667" lon="-2.142631667"><ele>210.000000</ele><time>2010-07-28T11:06:56Z</time></trkpt>
	<trkpt lat="51.74895333" lon="-2.142615"><ele>211.000000</ele><time>2010-07-28T11:07:01Z</time></trkpt>
	<trkpt lat="51.74894833" lon="-2.142588333"><ele>216.000000</ele><time>2010-07-28T11:07:06Z</time></trkpt>
	<trkpt lat="51.74893167" lon="-2.142561667"><ele>225.000000</ele><time>2010-07-28T11:07:12Z</time></trkpt>
	<trkpt lat="51.74894167" lon="-2.142511667"><ele>227.000000</ele><time>2010-07-28T11:07:17Z</time></trkpt>
	<trkpt lat="51.74893333" lon="-2.142475"><ele>231.000000</ele><time>2010-07-28T11:07:22Z</time></trkpt>
	<trkpt lat="51.74895833" lon="-2.142486667"><ele>237.000000</ele><time>2010-07-28T11:07:27Z</time></trkpt>
	<trkpt lat="51.74901333" lon="-2.142475"><ele>241.000000</ele><time>2010-07-28T11:07:33Z</time></trkpt>
	<trkpt lat="51.74908" lon="-2.142413333"><ele>240.000000</ele><time>2010-07-28T11:07:38Z</time></trkpt>
	<trkpt lat="51.74912833" lon="-2.142353333"><ele>236.000000</ele><time>2010-07-28T11:07:43Z</time></trkpt>
	<trkpt lat="51.74915167" lon="-2.142278333"><ele>234.000000</ele><time>2010-07-28T11:07:48Z</time></trkpt>
	<trkpt lat="51.74918667" lon="-2.142203333"><ele>232.000000</ele><time>2010-07-28T11:07:53Z</time></trkpt>
	<trkpt lat="51.74922167" lon="-2.142115"><ele>232.000000</ele><time>2010-07-28T11:07:59Z</time></trkpt>
	<trkpt lat="51.74926667" lon="-2.142043333"><ele>232.000000</ele><time>2010-07-28T11:08:05Z</time></trkpt>
	<trkpt lat="51.74931167" lon="-2.141986667"><ele>231.000000</ele><time>2010-07-28T11:08:10Z</time></trkpt>
	<trkpt lat="51.74933" lon="-2.141938333"><ele>233.000000</ele><time>2010-07-28T11:08:15Z</time></trkpt>
	<trkpt lat="51.74937667" lon="-2.14188"><ele>232.000000</ele><time>2010-07-28T11:08:21Z</time></trkpt>
	<trkpt lat="51.74941833" lon="-2.141838333"><ele>233.000000</ele><time>2010-07-28T11:08:27Z</time></trkpt>
	<trkpt lat="51.749455" lon="-2.14178"><ele>232.000000</ele><time>2010-07-28T11:08:32Z</time></trkpt>
	<trkpt lat="51.749495" lon="-2.141725"><ele>231.000000</ele><time>2010-07-28T11:08:37Z</time></trkpt>
	<trkpt lat="51.74953" lon="-2.141698333"><ele>233.000000</ele><time>2010-07-28T11:08:42Z</time></trkpt>
	<trkpt lat="51.749565" lon="-2.141651667"><ele>233.000000</ele><time>2010-07-28T11:08:47Z</time></trkpt>
	<trkpt lat="51.74960167" lon="-2.141601667"><ele>233.000000</ele><time>2010-07-28T11:08:52Z</time></trkpt>
	<trkpt lat="51.74963333" lon="-2.141586667"><ele>235.000000</ele><time>2010-07-28T11:08:57Z</time></trkpt>
	<trkpt lat="51.74967" lon="-2.14155"><ele>237.000000</ele><time>2010-07-28T11:09:02Z</time></trkpt>
	<trkpt lat="51.749735" lon="-2.141506667"><ele>234.000000</ele><time>2010-07-28T11:09:07Z</time></trkpt>
	<trkpt lat="51.74979" lon="-2.141468333"><ele>233.000000</ele><time>2010-07-28T11:09:12Z</time></trkpt>
	<trkpt lat="51.74984333" lon="-2.141443333"><ele>233.000000</ele><time>2010-07-28T11:09:17Z</time></trkpt>
	<trkpt lat="51.749895" lon="-2.141401667"><ele>233.000000</ele><time>2010-07-28T11:09:23Z</time></trkpt>
	<trkpt lat="51.74993833" lon="-2.141381667"><ele>234.000000</ele><time>2010-07-28T11:09:28Z</time></trkpt>
	<trkpt lat="51.749995" lon="-2.141368333"><ele>233.000000</ele><time>2010-07-28T11:09:33Z</time></trkpt>
	<trkpt lat="51.75007" lon="-2.14134"><ele>230.000000</ele><time>2010-07-28T11:09:38Z</time></trkpt>
	<trkpt lat="51.75011167" lon="-2.141283333"><ele>229.000000</ele><time>2010-07-28T11:09:43Z</time></trkpt>
	<trkpt lat="51.750125" lon="-2.141213333"><ele>228.000000</ele><time>2010-07-28T11:09:49Z</time></trkpt>
	<trkpt lat="51.75015167" lon="-2.14115"><ele>226.000000</ele><time>2010-07-28T11:09:54Z</time></trkpt>
	<trkpt lat="51.750175" lon="-2.141073333"><ele>228.000000</ele><time>2010-07-28T11:10:00Z</time></trkpt>
	<trkpt lat="51.75022" lon="-2.140998333"><ele>227.000000</ele><time>2010-07-28T11:10:05Z</time></trkpt>
	<trkpt lat="51.75025667" lon="-2.140926667"><ele>227.000000</ele><time>2010-07-28T11:10:10Z</time></trkpt>
	<trkpt lat="51.750305" lon="-2.140858333"><ele>225.000000</ele><time>2010-07-28T11:10:15Z</time></trkpt>
	<trkpt lat="51.75033333" lon="-2.140773333"><ele>221.000000</ele><time>2010-07-28T11:10:21Z</time></trkpt>
	<trkpt lat="51.750375" lon="-2.140686667"><ele>219.000000</ele><time>2010-07-28T11:10:26Z</time></trkpt>
	<trkpt lat="51.75042167" lon="-2.140596667"><ele>216.000000</ele><time>2010-07-28T11:10:32Z</time></trkpt>
	<trkpt lat="51.75045667" lon="-2.140528333"><ele>216.000000</ele><time>2010-07-28T11:10:37Z</time></trkpt>
	<trkpt lat="51.75046333" lon="-2.140498333"><ele>216.000000</ele><time>2010-07-28T11:10:43Z</time></trkpt>
	<trkpt lat="51.75049" lon="-2.14047"><ele>217.000000</ele><time>2010-07-28T11:10:48Z</time></trkpt>
	<trkpt lat="51.75051667" lon="-2.140445"><ele>221.000000</ele><time>2010-07-28T11:10:53Z</time></trkpt>
	<trkpt lat="51.75055333" lon="-2.140401667"><ele>222.000000</ele><time>2010-07-28T11:10:58Z</time></trkpt>
	<trkpt lat="51.75058667" lon="-2.14033"><ele>222.000000</ele><time>2010-07-28T11:11:03Z</time></trkpt>
	<trkpt lat="51.750625" lon="-2.140271667"><ele>225.000000</ele><time>2010-07-28T11:11:08Z</time></trkpt>
	<trkpt lat="51.75063667" lon="-2.140266667"><ele>235.000000</ele><time>2010-07-28T11:11:13Z</time></trkpt>
	<trkpt lat="51.75069667" lon="-2.140231667"><ele>236.000000</ele><time>2010-07-28T11:11:18Z</time></trkpt>
	<trkpt lat="51.75075167" lon="-2.140215"><ele>239.000000</ele><time>2010-07-28T11:11:23Z</time></trkpt>
	<trkpt lat="51.75081833" lon="-2.140175"><ele>239.000000</ele><time>2010-07-28T11:11:29Z</time></trkpt>
	<trkpt lat="51.75087833" lon="-2.14008"><ele>234.000000</ele><time>2010-07-28T11:11:34Z</time></trkpt>
	<trkpt lat="51.75093167" lon="-2.140046667"><ele>235.000000</ele><time>2010-07-28T11:11:39Z</time></trkpt>
	<trkpt lat="51.75097667" lon="-2.140025"><ele>236.000000</ele><time>2010-07-28T11:11:44Z</time></trkpt>
	<trkpt lat="51.75103333" lon="-2.140011667"><ele>237.000000</ele><time>2010-07-28T11:11:49Z</time></trkpt>
	<trkpt lat="51.75109" lon="-2.139996667"><ele>237.000000</ele><time>2010-07-28T11:11:54Z</time></trkpt>
	<trkpt lat="51.75117667" lon="-2.139928333"><ele>232.000000</ele><time>2010-07-28T11:12:00Z</time></trkpt>
	<trkpt lat="51.75122167" lon="-2.139931667"><ele>231.000000</ele><time>2010-07-28T11:12:06Z</time></trkpt>
	<trkpt lat="51.751215" lon="-2.13995"><ele>232.000000</ele><time>2010-07-28T11:12:11Z</time></trkpt>
	<trkpt lat="51.75120167" lon="-2.140006667"><ele>234.000000</ele><time>2010-07-28T11:12:16Z</time></trkpt>
	<trkpt lat="51.75120667" lon="-2.140068333"><ele>236.000000</ele><time>2010-07-28T11:12:21Z</time></trkpt>
	<trkpt lat="51.75120667" lon="-2.140111667"><ele>239.000000</ele><time>2010-07-28T11:12:26Z</time></trkpt>
	<trkpt lat="51.75117833" lon="-2.140153333"><ele>240.000000</ele><time>2010-07-28T11:12:31Z</time></trkpt>
	<trkpt lat="51.75114167" lon="-2.140225"><ele>239.000000</ele><time>2010-07-28T11:12:36Z</time></trkpt>
	<trkpt lat="51.75111833" lon="-2.140316667"><ele>237.000000</ele><time>2010-07-28T11:12:41Z</time></trkpt>
	<trkpt lat="51.75108" lon="-2.140353333"><ele>238.000000</ele><time>2010-07-28T11:12:46Z</time></trkpt>
	<trkpt lat="51.75103167" lon="-2.140403333"><ele>237.000000</ele><time>2010-07-28T11:12:51Z</time></trkpt>
	<trkpt lat="51.75101" lon="-2.14047"><ele>232.000000</ele><time>2010-07-28T11:12:56Z</time></trkpt>
	<trkpt lat="51.75099833" lon="-2.140516667"><ele>227.000000</ele><time>2010-07-28T11:13:02Z</time></trkpt>
	<trkpt lat="51.75100167" lon="-2.140556667"><ele>226.000000</ele><time>2010-07-28T11:13:07Z</time></trkpt>
	<trkpt lat="51.75100167" lon="-2.140576667"><ele>224.000000</ele><time>2010-07-28T11:13:12Z</time></trkpt>
	<trkpt lat="51.751" lon="-2.140578333"><ele>224.000000</ele><time>2010-07-28T11:13:17Z</time></trkpt>
	<trkpt lat="51.75100667" lon="-2.14055"><ele>226.000000</ele><time>2010-07-28T11:13:22Z</time></trkpt>
	<trkpt lat="51.75100667" lon="-2.140523333"><ele>233.000000</ele><time>2010-07-28T11:13:27Z</time></trkpt>
	<trkpt lat="51.751015" lon="-2.140526667"><ele>241.000000</ele><time>2010-07-28T11:13:32Z</time></trkpt>
	<trkpt lat="51.75102167" lon="-2.14052"><ele>248.000000</ele><time>2010-07-28T11:13:37Z</time></trkpt>
	<trkpt lat="51.75101333" lon="-2.140466667"><ele>255.000000</ele><time>2010-07-28T11:13:42Z</time></trkpt>
	<trkpt lat="51.75106167" lon="-2.140445"><ele>256.000000</ele><time>2010-07-28T11:13:47Z</time></trkpt>
	<trkpt lat="51.75110333" lon="-2.140426667"><ele>258.000000</ele><time>2010-07-28T11:13:52Z</time></trkpt>
	<trkpt lat="51.751135" lon="-2.140381667"><ele>259.000000</ele><time>2010-07-28T11:13:57Z</time></trkpt>
	<trkpt lat="51.75115667" lon="-2.1403"><ele>260.000000</ele><time>2010-07-28T11:14:02Z</time></trkpt>
	<trkpt lat="51.75120667" lon="-2.140208333"><ele>255.000000</ele><time>2010-07-28T11:14:07Z</time></trkpt>
	<trkpt lat="51.75126167" lon="-2.140135"><ele>252.000000</ele><time>2010-07-28T11:14:12Z</time></trkpt>
	<trkpt lat="51.751325" lon="-2.140063333"><ele>248.000000</ele><time>2010-07-28T11:14:17Z</time></trkpt>
	<trkpt lat="51.75137667" lon="-2.14"><ele>247.000000</ele><time>2010-07-28T11:14:22Z</time></trkpt>
	<trkpt lat="51.75142167" lon="-2.139965"><ele>248.000000</ele><time>2010-07-28T11:14:27Z</time></trkpt>
	<trkpt lat="51.7515" lon="-2.139875"><ele>241.000000</ele><time>2010-07-28T11:14:32Z</time></trkpt>
	<trkpt lat="51.75156833" lon="-2.139821667"><ele>237.000000</ele><time>2010-07-28T11:14:37Z</time></trkpt>
	<trkpt lat="51.75161167" lon="-2.139786667"><ele>239.000000</ele><time>2010-07-28T11:14:42Z</time></trkpt>
	<trkpt lat="51.75165167" lon="-2.139761667"><ele>242.000000</ele><time>2010-07-28T11:14:47Z</time></trkpt>
	<trkpt lat="51.75169167" lon="-2.139735"><ele>246.000000</ele><time>2010-07-28T11:14:52Z</time></trkpt>
	<trkpt lat="51.75172667" lon="-2.139725"><ele>250.000000</ele><time>2010-07-28T11:14:57Z</time></trkpt>
	<trkpt lat="51.751775" lon="-2.139711667"><ele>251.000000</ele><time>2010-07-28T11:15:02Z</time></trkpt>
	<trkpt lat="51.75177833" lon="-2.139701667"><ele>251.000000</ele><time>2010-07-28T11:15:08Z</time></trkpt>
	<trkpt lat="51.75178333" lon="-2.139695"><ele>250.000000</ele><time>2010-07-28T11:15:13Z</time></trkpt>
	<trkpt lat="51.75183167" lon="-2.139683333"><ele>250.000000</ele><time>2010-07-28T11:15:18Z</time></trkpt>
	<trkpt lat="51.751895" lon="-2.139646667"><ele>250.000000</ele><time>2010-07-28T11:15:24Z</time></trkpt>
	<trkpt lat="51.75195833" lon="-2.139623333"><ele>249.000000</ele><time>2010-07-28T11:15:30Z</time></trkpt>
	<trkpt lat="51.75202167" lon="-2.139611667"><ele>245.000000</ele><time>2010-07-28T11:15:35Z</time></trkpt>
	<trkpt lat="51.75210167" lon="-2.139571667"><ele>242.000000</ele><time>2010-07-28T11:15:41Z</time></trkpt>
	<trkpt lat="51.75215333" lon="-2.139553333"><ele>247.000000</ele><time>2010-07-28T11:15:47Z</time></trkpt>
	<trkpt lat="51.75221333" lon="-2.139545"><ele>246.000000</ele><time>2010-07-28T11:15:52Z</time></trkpt>
	<trkpt lat="51.75227333" lon="-2.139533333"><ele>248.000000</ele><time>2010-07-28T11:15:58Z</time></trkpt>
	<trkpt lat="51.75232333" lon="-2.139531667"><ele>250.000000</ele><time>2010-07-28T11:16:03Z</time></trkpt>
	<trkpt lat="51.75236333" lon="-2.13954"><ele>252.000000</ele><time>2010-07-28T11:16:08Z</time></trkpt>
	<trkpt lat="51.75241833" lon="-2.139538333"><ele>252.000000</ele><time>2010-07-28T11:16:13Z</time></trkpt>
	<trkpt lat="51.75247167" lon="-2.139535"><ele>253.000000</ele><time>2010-07-28T11:16:18Z</time></trkpt>
	<trkpt lat="51.75253333" lon="-2.139521667"><ele>251.000000</ele><time>2010-07-28T11:16:23Z</time></trkpt>
	<trkpt lat="51.75260667" lon="-2.139518333"><ele>247.000000</ele><time>2010-07-28T11:16:28Z</time></trkpt>
	<trkpt lat="51.75267333" lon="-2.139516667"><ele>247.000000</ele><time>2010-07-28T11:16:33Z</time></trkpt>
	<trkpt lat="51.75271167" lon="-2.139566667"><ele>248.000000</ele><time>2010-07-28T11:16:39Z</time></trkpt>
	<trkpt lat="51.75273833" lon="-2.139643333"><ele>248.000000</ele><time>2010-07-28T11:16:45Z</time></trkpt>
	<trkpt lat="51.75275167" lon="-2.139701667"><ele>250.000000</ele><time>2010-07-28T11:16:50Z</time></trkpt>
	<trkpt lat="51.752765" lon="-2.139766667"><ele>251.000000</ele><time>2010-07-28T11:16:55Z</time></trkpt>
	<trkpt lat="51.75279833" lon="-2.13983"><ele>251.000000</ele><time>2010-07-28T11:17:00Z</time></trkpt>
	<trkpt lat="51.75284333" lon="-2.139903333"><ele>247.000000</ele><time>2010-07-28T11:17:05Z</time></trkpt>
	<trkpt lat="51.75286333" lon="-2.140016667"><ele>243.000000</ele><time>2010-07-28T11:17:10Z</time></trkpt>
	<trkpt lat="51.75288" lon="-2.140085"><ele>244.000000</ele><time>2010-07-28T11:17:15Z</time></trkpt>
	<trkpt lat="51.752925" lon="-2.140153333"><ele>244.000000</ele><time>2010-07-28T11:17:21Z</time></trkpt>
	<trkpt lat="51.75294833" lon="-2.140235"><ele>243.000000</ele><time>2010-07-28T11:17:26Z</time></trkpt>
	<trkpt lat="51.752965" lon="-2.1403"><ele>244.000000</ele><time>2010-07-28T11:17:31Z</time></trkpt>
	<trkpt lat="51.752955" lon="-2.140391667"><ele>248.000000</ele><time>2010-07-28T11:17:37Z</time></trkpt>
	<trkpt lat="51.752965" lon="-2.140503333"><ele>245.000000</ele><time>2010-07-28T11:17:43Z</time></trkpt>
	<trkpt lat="51.75296333" lon="-2.140545"><ele>250.000000</ele><time>2010-07-28T11:17:48Z</time></trkpt>
	<trkpt lat="51.75299667" lon="-2.140616667"><ele>254.000000</ele><time>2010-07-28T11:17:53Z</time></trkpt>
	<trkpt lat="51.75299333" lon="-2.140656667"><ele>260.000000</ele><time>2010-07-28T11:17:58Z</time></trkpt>
	<trkpt lat="51.752995" lon="-2.14071"><ele>264.000000</ele><time>2010-07-28T11:18:03Z</time></trkpt>
	<trkpt lat="51.752985" lon="-2.140773333"><ele>264.000000</ele><time>2010-07-28T11:18:09Z</time></trkpt>
	<trkpt lat="51.75296667" lon="-2.140831667"><ele>261.000000</ele><time>2010-07-28T11:18:14Z</time></trkpt>
	<trkpt lat="51.75297833" lon="-2.14091"><ele>256.000000</ele><time>2010-07-28T11:18:19Z</time></trkpt>
	<trkpt lat="51.753005" lon="-2.141038333"><ele>249.000000</ele><time>2010-07-28T11:18:24Z</time></trkpt>
	<trkpt lat="51.753015" lon="-2.141081667"><ele>246.000000</ele><time>2010-07-28T11:18:29Z</time></trkpt>
	<trkpt lat="51.753015" lon="-2.141093333"><ele>245.000000</ele><time>2010-07-28T11:18:34Z</time></trkpt>
	<trkpt lat="51.75302" lon="-2.141141667"><ele>248.000000</ele><time>2010-07-28T11:18:39Z</time></trkpt>
	<trkpt lat="51.75302167" lon="-2.141196667"><ele>249.000000</ele><time>2010-07-28T11:18:44Z</time></trkpt>
	<trkpt lat="51.75303" lon="-2.14123"><ele>249.000000</ele><time>2010-07-28T11:18:49Z</time></trkpt>
	<trkpt lat="51.75302833" lon="-2.141258333"><ele>252.000000</ele><time>2010-07-28T11:18:54Z</time></trkpt>
	<trkpt lat="51.753045" lon="-2.141325"><ele>255.000000</ele><time>2010-07-28T11:18:59Z</time></trkpt>
	<trkpt lat="51.753075" lon="-2.141345"><ele>260.000000</ele><time>2010-07-28T11:19:04Z</time></trkpt>
	<trkpt lat="51.75310833" lon="-2.1414"><ele>261.000000</ele><time>2010-07-28T11:19:09Z</time></trkpt>
	<trkpt lat="51.75312" lon="-2.141458333"><ele>263.000000</ele><time>2010-07-28T11:19:14Z</time></trkpt>
	<trkpt lat="51.75312833" lon="-2.14154"><ele>260.000000</ele><time>2010-07-28T11:19:19Z</time></trkpt>
	<trkpt lat="51.753135" lon="-2.141585"><ele>258.000000</ele><time>2010-07-28T11:19:24Z</time></trkpt>
	<trkpt lat="51.753145" lon="-2.141585"><ele>259.000000</ele><time>2010-07-28T11:19:29Z</time></trkpt>
	<trkpt lat="51.75314833" lon="-2.141611667"><ele>258.000000</ele><time>2010-07-28T11:19:34Z</time></trkpt>
	<trkpt lat="51.753195" lon="-2.14169"><ele>254.000000</ele><time>2010-07-28T11:19:39Z</time></trkpt>
	<trkpt lat="51.75324833" lon="-2.141743333"><ele>253.000000</ele><time>2010-07-28T11:19:44Z</time></trkpt>
	<trkpt lat="51.75332167" lon="-2.141756667"><ele>249.000000</ele><time>2010-07-28T11:19:49Z</time></trkpt>
	<trkpt lat="51.75337833" lon="-2.141711667"><ele>247.000000</ele><time>2010-07-28T11:19:54Z</time></trkpt>
	<trkpt lat="51.75340333" lon="-2.141645"><ele>249.000000</ele><time>2010-07-28T11:20:00Z</time></trkpt>
	<trkpt lat="51.753425" lon="-2.141565"><ele>248.000000</ele><time>2010-07-28T11:20:05Z</time></trkpt>
	<trkpt lat="51.75345167" lon="-2.141473333"><ele>245.000000</ele><time>2010-07-28T11:20:11Z</time></trkpt>
	<trkpt lat="51.75347" lon="-2.141433333"><ele>240.000000</ele><time>2010-07-28T11:20:16Z</time></trkpt>
	<trkpt lat="51.75347167" lon="-2.141445"><ele>240.000000</ele><time>2010-07-28T11:20:21Z</time></trkpt>
	<trkpt lat="51.75346833" lon="-2.141445"><ele>241.000000</ele><time>2010-07-28T11:20:26Z</time></trkpt>
	<trkpt lat="51.75348" lon="-2.14145"><ele>241.000000</ele><time>2010-07-28T11:20:31Z</time></trkpt>
	<trkpt lat="51.75348833" lon="-2.141455"><ele>241.000000</ele><time>2010-07-28T11:20:36Z</time></trkpt>
	<trkpt lat="51.75349" lon="-2.141463333"><ele>240.000000</ele><time>2010-07-28T11:20:41Z</time></trkpt>
	<trkpt lat="51.75348833" lon="-2.141465"><ele>242.000000</ele><time>2010-07-28T11:20:46Z</time></trkpt>
</trkseg>
</trk>
</gpx>
